
Distance (Route):
Temperature : -42.4°C
Humidity : 31.9%
Pressure : 0hPa| Receiver | Frames | First received | Last received |
|---|---|---|---|
| DM0DOS-11 | 325 | 2026-08-31 00:08:22 | 2026-08-31 01:21:35 |
| BIOWL1-15 | 166 | 2026-08-31 00:10:15 | 2026-08-31 01:17:13 |
| DL1XH-west | 104 | 2026-08-31 00:47:46 | 2026-08-31 01:10:04 |
| DB0UT-7 | 73 | 2026-08-30 23:56:26 | 2026-08-31 01:25:30 |
| DL1XH1-15 | 55 | 2026-08-31 00:56:17 | 2026-08-31 01:08:05 |
| WEDDY | 51 | 2026-08-31 00:43:06 | 2026-08-31 01:18:38 |
| DO1YAY-16 | 47 | 2026-08-31 00:31:27 | 2026-08-31 01:14:56 |
| DO9LL-15 | 46 | 2026-08-31 00:18:29 | 2026-08-31 01:19:17 |
| HTAHTA | 34 | 2026-08-31 00:37:35 | 2026-08-31 01:11:44 |
| DJ2DS-15 | 23 | 2026-08-31 00:31:30 | 2026-08-31 01:14:47 |
| BIOWL9-15 | 22 | 2026-08-31 00:26:38 | 2026-08-31 01:15:49 |
| Receiver | Date | Latitude | Longitude | Direction | Speed | Altitude | Climb | Temperature | Humidity | Pressure | Voltage | Killtimer | Uptime | BKT | XDATA |
|---|---|---|---|---|---|---|---|---|---|---|---|---|---|---|---|
| DB0UT-7 | 2026-08-31 01:25:30 | 51.45758 | 1.61432 | 50° | 86km/h | 8576m | -11.4m/s | -42.4°C | 31.9% | 0hPa | 2.6V | 00:00:00 | 00:00:00 | 00:00:00 | |
| DB0UT-7 | 2026-08-31 01:25:00 | 51.45358 | 1.60619 | 53° | 86km/h | 8915m | -12.4m/s | -45.2°C | 37.2% | 0hPa | 2.6V | 08:12:00 | 02:34:48 | 00:00:00 | |
| DB0UT-7 | 2026-08-31 01:24:30 | 51.44946 | 1.59784 | 51° | 95km/h | 9249m | -11.0m/s | -47.5°C | 36.7% | 0hPa | 2.5V | 00:00:00 | 00:00:00 | 00:00:00 | |
| DB0UT-7 | 2026-08-31 01:23:57 | 51.44469 | 1.58751 | 61° | 97km/h | 9624m | -11.2m/s | -48.4°C | 20.3% | 0hPa | 2.5V | 00:00:00 | 02:33:45 | 00:00:00 | |
| DB0UT-7 | 2026-08-31 01:23:27 | 51.44097 | 1.57727 | 60° | 91km/h | 9963m | -12.0m/s | -47.3°C | 9.8% | 0hPa | 2.5V | 00:00:00 | 00:00:00 | 00:00:00 | |
| DB0UT-7 | 2026-08-31 01:22:57 | 51.43756 | 1.56748 | 59° | 95km/h | 10290m | -12.5m/s | -46.9°C | 6.0% | 0hPa | 2.5V | 00:00:00 | 02:32:45 | 00:00:00 | |
| DB0UT-7 | 2026-08-31 01:21:57 | 51.43040 | 1.54704 | 62° | 93km/h | 11002m | -13.1m/s | -44.8°C | 3.2% | 0hPa | 2.5V | 00:00:00 | 00:00:00 | 00:00:00 | |
| DM0DOS-11 | 2026-08-31 01:21:35 | 51.42766 | 1.53865 | 61° | 93km/h | 11314m | -13m/s | -43.8°C | 2.5% | 0hPa | 2.5V | 08:15:28 | 02:31:20 | 00:00:00 | |
| DB0UT-7 | 2026-08-31 01:21:27 | 51.42709 | 1.53701 | 62° | 84km/h | 11377m | -11.0m/s | -44.0°C | 2.6% | 0hPa | 2.6V | 00:00:00 | 02:31:15 | 00:00:00 | |
| DM0DOS-11 | 2026-08-31 01:21:25 | 51.42654 | 1.53536 | 61° | 89km/h | 11437m | -13.4m/s | -44.1°C | 2.5% | 0hPa | 2.6V | 08:15:38 | 02:31:10 | 00:00:00 | |
| DM0DOS-11 | 2026-08-31 01:21:15 | 51.42557 | 1.53224 | 63° | 86km/h | 11572m | -13.7m/s | -43.8°C | 2.4% | 0hPa | 2.5V | 08:15:48 | 02:31:00 | 00:00:00 | |
| DM0DOS-11 | 2026-08-31 01:21:05 | 51.42466 | 1.52910 | 66° | 84km/h | 11710m | -14.4m/s | -44.3°C | 2.5% | 0hPa | 2.5V | 08:15:58 | 02:30:50 | 00:00:00 | |
| DM0DOS-11 | 2026-08-31 01:20:55 | 51.42382 | 1.52596 | 67° | 80km/h | 11843m | -14.5m/s | -45.2°C | 2.7% | 0hPa | 2.5V | 08:16:08 | 02:30:40 | 00:00:00 | |
| DM0DOS-11 | 2026-08-31 01:20:45 | 51.42298 | 1.52299 | 63° | 78km/h | 11977m | -13.8m/s | -45.2°C | 2.6% | 0hPa | 2.6V | 08:16:18 | 02:30:30 | 00:00:00 | |
| DM0DOS-11 | 2026-08-31 01:20:35 | 51.42205 | 1.52003 | 59° | 84km/h | 12118m | -15.4m/s | -45.1°C | 2.6% | 0hPa | 2.5V | 08:16:28 | 02:30:20 | 00:00:00 | |
| DM0DOS-11 | 2026-08-31 01:20:25 | 51.42105 | 1.51705 | 63° | 84km/h | 12265m | -15.8m/s | -45°C | 2.5% | 0hPa | 2.5V | 08:16:38 | 02:30:10 | 00:00:00 | |
| DB0UT-7 | 2026-08-31 01:20:15 | 51.42046 | 1.51503 | 67° | 71km/h | 12365m | -14.8m/s | -45.4°C | 2.6% | 0hPa | 2.5V | 00:00:00 | 00:00:00 | 00:00:00 | |
| DM0DOS-11 | 2026-08-31 01:19:55 | 51.41877 | 1.50887 | 68° | 68km/h | 12689m | -14.2m/s | -45.5°C | 2.5% | 0hPa | 2.5V | 08:17:08 | 02:29:40 | 00:00:00 | |
| DB0UT-7 | 2026-08-31 01:19:45 | 51.41827 | 1.50722 | 61° | 71km/h | 12786m | -13.4m/s | -45.6°C | 2.5% | 0hPa | 2.5V | 00:00:00 | 02:29:33 | 00:00:00 | |
| DM0DOS-11 | 2026-08-31 01:19:35 | 51.41705 | 1.50420 | 56° | 71km/h | 12989m | -14.9m/s | -46.9°C | 2.8% | 0hPa | 2.5V | 08:17:29 | 02:29:19 | 00:00:00 | |
| DM0DOS-11 | 2026-08-31 01:19:25 | 51.41608 | 1.50170 | 58° | 77km/h | 13138m | -15.9m/s | -47.5°C | 2.9% | 0hPa | 2.5V | 08:17:39 | 02:29:09 | 00:00:00 | |
| DO9LL-15 | 2026-08-31 01:19:17 | 51.41567 | 1.50071 | 57° | 71km/h | 13200m | -16.1m/s | -47.7°C | 2.9% | 0hPa | 2.6V | 00:00:00 | 02:29:05 | 00:00:00 | |
| DM0DOS-11 | 2026-08-31 01:19:16 | 51.41505 | 1.49922 | 56° | 77km/h | 13288m | -15.5m/s | -48°C | 3% | 0hPa | 2.6V | 08:17:49 | 02:28:59 | 00:00:00 | |
| DM0DOS-11 | 2026-08-31 01:19:06 | 51.41397 | 1.49681 | 54° | 71km/h | 13439m | -15.2m/s | -48.2°C | 3% | 0hPa | 2.5V | 08:17:59 | 02:28:49 | 00:00:00 | |
| DM0DOS-11 | 2026-08-31 01:18:56 | 51.41289 | 1.49457 | 50° | 69km/h | 13587m | -15m/s | -48°C | 2.9% | 0hPa | 2.6V | 08:18:09 | 02:28:39 | 00:00:00 | |
| DO9LL-15 | 2026-08-31 01:18:47 | 51.41245 | 1.49367 | 54° | 71km/h | 13646m | -15.5m/s | -48.0°C | 2.9% | 0hPa | 2.6V | 00:00:00 | 02:28:35 | 00:00:00 | |
| DM0DOS-11 | 2026-08-31 01:18:46 | 51.41180 | 1.49232 | 51° | 75km/h | 13736m | -14.9m/s | -47.6°C | 2.8% | 0hPa | 2.6V | 08:18:19 | 02:28:29 | 00:00:00 | |
| WEDDY | 2026-08-31 01:18:38 | 51.41146 | 1.49163 | 53° | 73km/h | 13783m | -15.6m/s | -47.5°C | 0.9% | 0hPa | 2.5V | 00:00:00 | 00:00:00 | 00:00:00 | |
| DM0DOS-11 | 2026-08-31 01:18:35 | 51.41061 | 1.48996 | 51° | 77km/h | 13895m | -17.5m/s | -48.1°C | 2.9% | 0hPa | 2.5V | 08:18:29 | 02:28:19 | 00:00:00 | |
| DB0UT-7 | 2026-08-31 01:18:32 | 51.41074 | 1.49021 | 51° | 86km/h | 13878m | -17.3m/s | -47.9°C | 2.9% | 0hPa | 2.5V | 08:18:00 | 00:00:00 | 00:00:00 | |
| WEDDY | 2026-08-31 01:18:14 | 51.40853 | 1.48557 | 54° | 89km/h | 14156m | -18.5m/s | -48.4°C | 0.9% | 0hPa | 2.5V | 00:00:00 | 00:00:00 | 00:00:00 | |
| DB0UT-7 | 2026-08-31 01:18:02 | 51.40700 | 1.48172 | 60° | 49km/h | 14373m | -17.6m/s | -48.0°C | 3.0% | 0hPa | 2.5V | 00:00:00 | 02:27:50 | 00:00:00 | |
| DM0DOS-11 | 2026-08-31 01:18:01 | 51.40639 | 1.47995 | 62° | 78km/h | 14475m | -17.1m/s | -48°C | 2.9% | 0hPa | 2.5V | 08:19:04 | 02:27:44 | 00:00:00 | |
| WEDDY | 2026-08-31 01:17:54 | 51.40621 | 1.47936 | 66° | 80km/h | 14508m | -17.2m/s | -48.1°C | 0.9% | 0hPa | 2.5V | 08:19:00 | 00:00:00 | 00:00:00 | |
| WEDDY | 2026-08-31 01:17:31 | 51.40483 | 1.47320 | 78° | 69km/h | 14874m | -16.6m/s | -47.2°C | 0.8% | 0hPa | 2.5V | 08:19:00 | 00:00:00 | 00:00:00 | |
| BIOWL1-15 | 2026-08-31 01:17:13 | 51.40446 | 1.46842 | 79° | 53km/h | 15170m | -14.3m/s | -48.5°C | 0% | 0hPa | 2.5V | 08:22:18 | 02:27:01 | 00:00:00 | |
| BIOWL1-15 | 2026-08-31 01:17:02 | 51.40405 | 1.46628 | 65° | 38km/h | 15335m | -15.7m/s | -49°C | 0% | 0hPa | 2.6V | 08:22:18 | 02:26:49 | 00:00:00 | |
| BIOWL1-15 | 2026-08-31 01:16:52 | 51.40334 | 1.46462 | 48° | 40km/h | 15529m | -12.3m/s | -50°C | 0% | 0hPa | 2.6V | 08:22:18 | 02:26:36 | 00:00:00 | |
| DM0DOS-11 | 2026-08-31 01:16:52 | 51.40334 | 1.46462 | 47° | 40km/h | 15529m | -12.3m/s | -50°C | 3.1% | 0hPa | 2.6V | 08:20:12 | 02:26:36 | 00:00:00 | |
| DB0UT-7 | 2026-08-31 01:16:51 | 51.40348 | 1.46486 | 48° | 51km/h | 15503m | -14.7m/s | -49.9°C | 3.1% | 0hPa | 2.6V | 00:00:00 | 00:00:00 | 00:00:00 | |
| WEDDY | 2026-08-31 01:16:49 | 51.40348 | 1.46486 | 48° | 38km/h | 15503m | -14.7m/s | -49.9°C | 0.9% | 0hPa | 2.6V | 00:00:00 | 00:00:00 | 00:00:00 | |
| DM0DOS-11 | 2026-08-31 01:16:35 | 51.40188 | 1.46229 | 45° | 58km/h | 15761m | -12.7m/s | -50.2°C | 3.2% | 0hPa | 2.6V | 08:20:28 | 02:26:20 | 00:00:00 | |
| WEDDY | 2026-08-31 01:16:30 | 51.40169 | 1.46195 | 50° | 60km/h | 15787m | -14.5m/s | -50.2°C | 0.9% | 0hPa | 2.5V | 00:00:00 | 00:00:00 | 00:00:00 | |
| DM0DOS-11 | 2026-08-31 01:16:24 | 51.40101 | 1.46051 | 57° | 55km/h | 15904m | -16.9m/s | -50.4°C | 3.2% | 0hPa | 2.5V | 08:20:38 | 02:26:10 | 00:00:00 | |
| DB0UT-7 | 2026-08-31 01:16:20 | 51.40087 | 1.46014 | 60° | 49km/h | 15936m | -17.1m/s | -50.3°C | 3.2% | 0hPa | 2.6V | 00:00:00 | 02:26:08 | 00:00:00 | |
| DM0DOS-11 | 2026-08-31 01:16:13 | 51.40036 | 1.45870 | 59° | 53km/h | 16070m | -18.2m/s | -50°C | 3.1% | 0hPa | 2.5V | 08:20:48 | 02:26:00 | 00:00:00 | |
| WEDDY | 2026-08-31 01:16:09 | 51.40016 | 1.45815 | 61° | 51km/h | 16123m | -17.1m/s | -49.9°C | 0.8% | 0hPa | 2.6V | 08:21:00 | 00:00:00 | 00:00:00 | |
| DM0DOS-11 | 2026-08-31 01:16:07 | 51.39963 | 1.45691 | 53° | 55km/h | 16241m | -18.7m/s | -50.5°C | 3.2% | 0hPa | 2.6V | 08:20:58 | 02:25:50 | 00:00:00 | |
| BIOWL1-15 | 2026-08-31 01:16:03 | 51.39971 | 1.45709 | 54° | 53km/h | 16224m | -16.4m/s | -50.4°C | 0% | 0hPa | 2.6V | 08:22:18 | 02:25:51 | 00:00:00 | |
| BIOWL1-15 | 2026-08-31 01:15:52 | 51.39859 | 1.45465 | 48° | 49km/h | 16492m | -19.5m/s | -50.3°C | 0% | 0hPa | 2.5V | 08:22:18 | 02:25:36 | 00:00:00 | |
| BIOWL9-15 | 2026-08-31 01:15:49 | 51.39859 | 1.45465 | 47° | 47km/h | 16492m | -19.5m/s | -50.3°C | -1.0% | -1.0hPa | 2.5V | 00:00:00 | 00:00:00 | 00:00:00 | |
| WEDDY | 2026-08-31 01:15:47 | 51.39859 | 1.45464 | 49° | 49km/h | 16493m | -19.5m/s | -50.3°C | 0.9% | 0hPa | 2.5V | 08:21:00 | 00:00:00 | 00:00:00 | |
| DM0DOS-11 | 2026-08-31 01:15:45 | 51.39809 | 1.45364 | 53° | 57km/h | 16605m | -19.6m/s | -50.3°C | 3.2% | 0hPa | 2.5V | 08:21:18 | 02:25:30 | 00:00:00 | |
| BIOWL1-15 | 2026-08-31 01:15:42 | 51.39770 | 1.45278 | 51° | 49km/h | 16694m | -15.8m/s | -50°C | 0% | 0hPa | 2.5V | 08:22:18 | 02:25:25 | 00:00:00 | |
| DM0DOS-11 | 2026-08-31 01:15:35 | 51.39731 | 1.45204 | 45° | 44km/h | 16778m | -19.4m/s | -49.6°C | 3.1% | 0hPa | 2.5V | 08:21:28 | 02:25:20 | 00:00:00 | |
| WEDDY | 2026-08-31 01:15:26 | 51.39692 | 1.45132 | 54° | 44km/h | 16874m | -19.4m/s | -49.7°C | 0.8% | 0hPa | 2.6V | 08:22:00 | 00:00:00 | 00:00:00 | |
| DM0DOS-11 | 2026-08-31 01:15:23 | 51.39658 | 1.45048 | 59° | 49km/h | 16964m | -18.6m/s | -49.8°C | 3% | 0hPa | 2.6V | 08:21:38 | 02:25:10 | 00:00:00 | |
| DM0DOS-11 | 2026-08-31 01:15:18 | 51.39611 | 1.44862 | 71° | 44km/h | 17151m | -19.3m/s | -49.8°C | 3% | 0hPa | 2.6V | 08:21:48 | 02:25:00 | 00:00:00 | |
| DB0UT-7 | 2026-08-31 01:15:08 | 51.39594 | 1.44798 | 64° | 47km/h | 17227m | -20.7m/s | -49.9°C | 3.1% | 0hPa | 2.5V | 00:00:00 | 00:00:00 | 00:00:00 | |
| WEDDY | 2026-08-31 01:15:06 | 51.39589 | 1.44784 | 57° | 37km/h | 17246m | -20.8m/s | -50.0°C | 0.8% | 0hPa | 2.5V | 08:22:00 | 00:00:00 | 00:00:00 | |
| DM0DOS-11 | 2026-08-31 01:15:05 | 51.39561 | 1.44712 | 60° | 44km/h | 17344m | -20.2m/s | -50.2°C | 3.1% | 0hPa | 2.5V | 08:21:58 | 02:24:50 | 00:00:00 | |
| DO1YAY-16 | 2026-08-31 01:14:56 | 51.39516 | 1.44595 | 64° | 49km/h | 17479m | -20.0m/s | -50.5°C | 0.7% | -1.0hPa | 2.6V | 00:00:00 | 00:00:00 | 00:00:00 | |
| DM0DOS-11 | 2026-08-31 01:14:55 | 51.39499 | 1.44540 | 64° | 51km/h | 17538m | -20.5m/s | -50.4°C | 3.2% | 0hPa | 2.6V | 08:22:08 | 02:24:40 | 00:00:00 | |
| BIOWL1-15 | 2026-08-31 01:14:52 | 51.39498 | 1.44540 | 65° | 51km/h | 17538m | -20.5m/s | -50.4°C | 0% | 0hPa | 2.6V | 08:22:18 | 02:24:40 | 00:00:00 | |
| DJ2DS-15 | 2026-08-31 01:14:47 | 51.39473 | 1.44445 | 68° | 46km/h | 17639m | -21.8m/s | -50.7°C | 0.7% | -1.0hPa | 2.6V | 00:00:00 | 00:00:00 | 00:00:00 | |
| WEDDY | 2026-08-31 01:14:45 | 51.39468 | 1.44427 | 66° | 47km/h | 17660m | -21.9m/s | -50.6°C | 0.9% | 0hPa | 2.6V | 08:22:00 | 00:00:00 | 00:00:00 | |
| DM0DOS-11 | 2026-08-31 01:14:44 | 51.39447 | 1.44355 | 62° | 47km/h | 17746m | -20.1m/s | -50.5°C | 3.3% | 0hPa | 2.6V | 08:22:18 | 02:24:30 | 00:00:00 | |
| BIOWL1-15 | 2026-08-31 01:14:42 | 51.39447 | 1.44355 | 62° | 47km/h | 17746m | -20.1m/s | -50.5°C | 0% | 0hPa | 2.6V | 08:22:18 | 02:24:30 | 00:00:00 | |
| DB0UT-7 | 2026-08-31 01:14:38 | 51.39425 | 1.44284 | 65° | 37km/h | 17824m | -19.8m/s | -50.7°C | 3.3% | 0hPa | 2.5V | 00:00:00 | 02:24:26 | 00:00:00 | |
| DM0DOS-11 | 2026-08-31 01:14:34 | 51.39394 | 1.44188 | 58° | 40km/h | 17948m | -20m/s | -50.4°C | 3.3% | 0hPa | 2.5V | 08:22:28 | 02:24:20 | 00:00:00 | |
| BIOWL1-15 | 2026-08-31 01:14:32 | 51.39393 | 1.44188 | 59° | 40km/h | 17948m | -20m/s | -50.4°C | 0% | 0hPa | 2.5V | 18:12:15 | 02:24:20 | 00:00:00 | |
| WEDDY | 2026-08-31 01:14:24 | 51.39353 | 1.44091 | 58° | 44km/h | 18095m | -22.2m/s | -49.9°C | 0.8% | 0hPa | 2.5V | 08:23:00 | 00:00:00 | 00:00:00 | |
| DM0DOS-11 | 2026-08-31 01:14:23 | 51.39338 | 1.44048 | 61° | 42km/h | 18160m | -22.1m/s | -50.1°C | 3.2% | 0hPa | 2.5V | 08:22:38 | 02:24:10 | 00:00:00 | |
| DM0DOS-11 | 2026-08-31 01:14:13 | 51.39310 | 1.43922 | 71° | 31km/h | 18371m | -21.2m/s | -49.2°C | 2.9% | 0hPa | 2.5V | 08:22:48 | 02:24:00 | 00:00:00 | |
| DM0DOS-11 | 2026-08-31 01:14:07 | 51.39272 | 1.43814 | 50° | 33km/h | 18584m | -22.1m/s | -50.2°C | 3% | 0hPa | 2.6V | 08:22:58 | 02:23:50 | 00:00:00 | |
| BIOWL1-15 | 2026-08-31 01:14:04 | 51.39283 | 1.43833 | 57° | 31km/h | 18541m | -22.1m/s | -50°C | 0% | 0hPa | 2.5V | 18:12:15 | 02:23:52 | 00:00:00 | |
| DM0DOS-11 | 2026-08-31 01:13:56 | 51.39209 | 1.43712 | 48° | 44km/h | 18801m | -24.4m/s | -51.6°C | 3.4% | 0hPa | 2.5V | 08:23:08 | 02:23:40 | 00:00:00 | |
| BIOWL1-15 | 2026-08-31 01:13:53 | 51.39216 | 1.43724 | 45° | 40km/h | 18778m | -22.6m/s | 0°C | 0% | 0hPa | 2.5V | 18:12:15 | 02:23:41 | 00:00:00 | |
| DM0DOS-11 | 2026-08-31 01:13:45 | 51.39139 | 1.43560 | 63° | 47km/h | 19024m | -23.2m/s | -51.8°C | 3.4% | 0hPa | 2.6V | 08:23:18 | 02:23:30 | 00:00:00 | |
| WEDDY | 2026-08-31 01:13:44 | 51.39158 | 1.43611 | 55° | 46km/h | 18959m | -21.4m/s | -52.0°C | 0.9% | 0hPa | 2.6V | 08:24:00 | 00:00:00 | 00:00:00 | |
| DM0DOS-11 | 2026-08-31 01:13:34 | 51.39101 | 1.43407 | 68° | 35km/h | 19252m | -20.4m/s | -52.8°C | 3.7% | 0hPa | 2.6V | 08:23:28 | 02:23:20 | 00:00:00 | |
| BIOWL1-15 | 2026-08-31 01:13:24 | 51.39075 | 1.43329 | 49° | 26km/h | 19425m | -22.1m/s | 0°C | 0% | 0hPa | 2.5V | 18:12:15 | 02:23:12 | 00:00:00 | |
| DM0DOS-11 | 2026-08-31 01:13:23 | 51.39068 | 1.43312 | 49° | 26km/h | 19468m | -21.6m/s | -52.4°C | 3.5% | 0hPa | 2.5V | 08:23:38 | 02:23:10 | 00:00:00 | |
| BIOWL1-15 | 2026-08-31 01:13:13 | 51.39028 | 1.43238 | 51° | 27km/h | 19667m | -22.7m/s | 0°C | 0% | 0hPa | 2.6V | 18:12:15 | 02:23:01 | 00:00:00 | |
| DM0DOS-11 | 2026-08-31 01:13:13 | 51.39024 | 1.43229 | 59° | 26km/h | 19690m | -23.7m/s | -52.8°C | 3.7% | 0hPa | 2.5V | 08:23:48 | 02:23:00 | 00:00:00 | |
| DM0DOS-11 | 2026-08-31 01:13:03 | 51.39003 | 1.43123 | 77° | 24km/h | 19911m | -21.3m/s | -52.5°C | 3.6% | 0hPa | 2.6V | 08:23:58 | 02:22:50 | 00:00:00 | |
| WEDDY | 2026-08-31 01:13:03 | 51.39004 | 1.43133 | 86° | 27km/h | 19890m | -21.8m/s | -52.7°C | 0.9% | 0hPa | 2.5V | 08:24:00 | 00:00:00 | 00:00:00 | |
| DJ2DS-15 | 2026-08-31 01:12:59 | 51.38997 | 1.43089 | 65° | 20km/h | 19997m | -22.7m/s | -52.8°C | 0.7% | -1.0hPa | 2.5V | 00:00:00 | 00:00:00 | 00:00:00 | |
| DM0DOS-11 | 2026-08-31 01:12:53 | 51.38983 | 1.43060 | 41° | 16km/h | 20135m | -23.6m/s | -52.8°C | 3.7% | 0hPa | 2.5V | 08:24:08 | 02:22:40 | 00:00:00 | |
| BIOWL1-15 | 2026-08-31 01:12:49 | 51.38962 | 1.43035 | 29° | 18km/h | 20266m | -22.7m/s | 0°C | 0% | 0hPa | 2.5V | 18:12:15 | 02:22:34 | 00:00:00 | |
| DM0DOS-11 | 2026-08-31 01:12:43 | 51.38945 | 1.43016 | 33° | 16km/h | 20356m | -23.3m/s | -52.7°C | 3.7% | 0hPa | 2.6V | 08:24:18 | 02:22:30 | 00:00:00 | |
| WEDDY | 2026-08-31 01:12:42 | 51.38949 | 1.43021 | 41° | 20km/h | 20333m | -23.8m/s | -53.0°C | 0.9% | 0hPa | 2.6V | 08:24:00 | 00:00:00 | 00:00:00 | |
| WEDDY | 2026-08-31 01:12:22 | 51.38917 | 1.42876 | 75° | 15km/h | 20783m | -21.4m/s | -52.7°C | 0.8% | 0hPa | 2.6V | 08:24:00 | 00:00:00 | 00:00:00 | |
| DO1YAY-16 | 2026-08-31 01:12:20 | 51.38915 | 1.42864 | 74° | 9km/h | 20846m | -22.3m/s | -52.5°C | 0.7% | -1.0hPa | 2.6V | 00:00:00 | 00:00:00 | 00:00:00 | |
| DO9LL-15 | 2026-08-31 01:12:04 | 51.38874 | 1.42827 | 4° | 13km/h | 21203m | -24.8m/s | -53.3°C | 3.9% | 0hPa | 2.6V | 00:00:00 | 02:21:52 | 00:00:00 | |
| DO1YAY-16 | 2026-08-31 01:11:49 | 51.38841 | 1.42828 | 34° | 18km/h | 21573m | -20.9m/s | -52.7°C | 0.7% | -1.0hPa | 2.6V | 00:00:00 | 00:00:00 | 00:00:00 | |
| DJ2DS-15 | 2026-08-31 01:11:47 | 51.38829 | 1.42813 | 37° | 22km/h | 21638m | -22.4m/s | -52.9°C | 0.8% | -1.0hPa | 2.6V | 00:00:00 | 00:00:00 | 00:00:00 | |
| HTAHTA | 2026-08-31 01:11:44 | 51.38814 | 1.42796 | 30° | 15km/h | 21726m | -22.8m/s | -52.9°C | 0.7% | -1.0hPa | 2.6V | 00:00:00 | 00:00:00 | 00:00:00 | |
| DB0UT-7 | 2026-08-31 01:11:42 | 51.38814 | 1.42796 | 31° | 13km/h | 21726m | -22.7m/s | -52.9°C | 3.8% | 0hPa | 2.6V | 00:00:00 | 00:00:00 | 00:00:00 | |
| WEDDY | 2026-08-31 01:11:40 | 51.38810 | 1.42792 | 31° | 18km/h | 21749m | -24.3m/s | -52.7°C | 0.9% | 0hPa | 2.6V | 08:25:00 | 00:00:00 | 00:00:00 | |
| DO9LL-15 | 2026-08-31 01:11:34 | 51.38788 | 1.42784 | 2° | 11km/h | 21906m | -21.7m/s | -52.6°C | 3.7% | 0hPa | 2.6V | 00:00:00 | 02:21:22 | 00:00:00 | |
| DM0DOS-11 | 2026-08-31 01:11:32 | 51.38779 | 1.42783 | 16° | 13km/h | 21971m | -22.4m/s | -52.6°C | 3.8% | 0hPa | 2.5V | 08:25:29 | 02:21:19 | 00:00:00 | |
| DM0DOS-11 | 2026-08-31 01:11:26 | 51.38749 | 1.42757 | 60° | 13km/h | 22218m | -25.5m/s | -51.7°C | 3.5% | 0hPa | 2.6V | 08:25:39 | 02:21:09 | 00:00:00 | |
| BIOWL1-15 | 2026-08-31 01:11:13 | 51.38741 | 1.42718 | 72° | 9km/h | 22411m | -26.9m/s | -52.3°C | 0% | 0hPa | 2.6V | 08:29:06 | 02:21:01 | 00:00:00 | |
| BIOWL1-15 | 2026-08-31 01:11:02 | 51.38734 | 1.42710 | 280° | 7km/h | 22677m | -24.9m/s | -51.8°C | 0% | 0hPa | 2.6V | 08:29:06 | 02:20:50 | 00:00:00 | |
| DO1YAY-16 | 2026-08-31 01:10:47 | 51.38713 | 1.42723 | 29° | 5km/h | 23047m | -26.7m/s | -52.3°C | 0.7% | -1.0hPa | 2.6V | 00:00:00 | 00:00:00 | 00:00:00 | |
| BIOWL1-15 | 2026-08-31 01:10:40 | 51.38712 | 1.42721 | 221° | 5km/h | 23209m | -25.6m/s | -52.4°C | 0% | 0hPa | 2.6V | 08:29:06 | 02:20:28 | 00:00:00 | |
| DO9LL-15 | 2026-08-31 01:10:34 | 51.38719 | 1.42732 | 262° | 13km/h | 23372m | -26.5m/s | -52.3°C | 3.6% | 0hPa | 2.6V | 00:00:00 | 02:20:22 | 00:00:00 | |
| DM0DOS-11 | 2026-08-31 01:10:23 | 51.38681 | 1.42777 | 359° | 18km/h | 23740m | -26.5m/s | -52.3°C | 3.6% | 0hPa | 2.6V | 08:26:40 | 02:20:08 | 00:00:00 | |
| BIOWL1-15 | 2026-08-31 01:10:13 | 51.38662 | 1.42771 | 275° | 5km/h | 23967m | -26.5m/s | -52.4°C | 0.1% | 0hPa | 2.6V | 08:29:06 | 02:19:59 | 00:00:00 | |
| DM0DOS-11 | 2026-08-31 01:10:08 | 51.38662 | 1.42807 | 291° | 18km/h | 24149m | -26.8m/s | -52.5°C | 3.8% | 0hPa | 2.6V | 08:26:56 | 02:19:52 | 00:00:00 | |
| DL1XH-west | 2026-08-31 01:10:04 | 51.38662 | 1.42807 | 291° | 18km/h | 24149m | -26.8m/s | -52.5°C | 0.1% | 0hPa | 2.6V | 08:29:06 | 02:19:52 | 00:00:00 | |
| BIOWL1-15 | 2026-08-31 01:10:00 | 51.38640 | 1.42847 | 314° | 16km/h | 24368m | -26.4m/s | -52°C | 0.1% | 0hPa | 2.5V | 08:29:06 | 02:19:44 | 00:00:00 | |
| DB0UT-7 | 2026-08-31 01:09:59 | 51.38650 | 1.42834 | 314° | 15km/h | 24285m | -29.1m/s | -51.9°C | 3.6% | 0hPa | 2.6V | 00:00:00 | 00:00:00 | 00:00:00 | |
| WEDDY | 2026-08-31 01:09:58 | 51.38650 | 1.42834 | 314° | 16km/h | 24285m | -29.1m/s | -51.9°C | 0.8% | 0hPa | 2.6V | 08:27:00 | 00:00:00 | 00:00:00 | |
| DM0DOS-11 | 2026-08-31 01:09:53 | 51.38623 | 1.42870 | 316° | 15km/h | 24523m | -27.9m/s | -51.6°C | 3.5% | 0hPa | 2.6V | 08:27:10 | 02:19:38 | 00:00:00 | |
| DL1XH-west | 2026-08-31 01:09:53 | 51.38632 | 1.42859 | 316° | 15km/h | 24444m | -25.5m/s | -51.9°C | 0% | 0hPa | 2.5V | 08:29:06 | 02:19:41 | 00:00:00 | |
| DO1YAY-16 | 2026-08-31 01:09:45 | 51.38606 | 1.42881 | 354° | 13km/h | 24657m | -25.6m/s | -51.7°C | 0.7% | -1.0hPa | 2.5V | 00:00:00 | 00:00:00 | 00:00:00 | |
| DM0DOS-11 | 2026-08-31 01:09:43 | 51.38590 | 1.42883 | 345° | 11km/h | 24770m | -20.7m/s | -51.8°C | 3.7% | 0hPa | 2.5V | 08:27:20 | 02:19:28 | 00:00:00 | |
| HTAHTA | 2026-08-31 01:09:40 | 51.38587 | 1.42884 | 4° | 11km/h | 24791m | -22.1m/s | -51.7°C | 0% | -1.0hPa | 2.5V | 00:00:00 | 00:00:00 | 00:00:00 | |
| WEDDY | 2026-08-31 01:09:38 | 51.38587 | 1.42884 | 6° | 13km/h | 24791m | -22.1m/s | -51.7°C | 0.8% | 0hPa | 2.5V | 08:27:00 | 00:00:00 | 00:00:00 | |
| DO9LL-15 | 2026-08-31 01:09:34 | 51.38571 | 1.42888 | 346° | 13km/h | 24919m | -28.0m/s | -50.9°C | 3.4% | 0hPa | 2.5V | 00:00:00 | 02:19:22 | 00:00:00 | |
| DM0DOS-11 | 2026-08-31 01:09:28 | 51.38542 | 1.42891 | 2° | 18km/h | 25126m | -30.6m/s | -50.9°C | 3.5% | 0hPa | 2.5V | 08:27:33 | 02:19:15 | 00:00:00 | |
| BIOWL1-15 | 2026-08-31 01:09:10 | 51.38532 | 1.42884 | 259° | 16km/h | 25683m | -30.4m/s | -50.3°C | 0% | 0hPa | 2.6V | 08:29:06 | 02:18:56 | 00:00:00 | |
| BIOWL9-15 | 2026-08-31 01:09:05 | 51.38533 | 1.42904 | 264° | 16km/h | 25779m | -33.0m/s | -50.1°C | 0.6% | -1.0hPa | 2.6V | 00:00:00 | 00:00:00 | 00:00:00 | |
| WEDDY | 2026-08-31 01:08:58 | 51.38533 | 1.42935 | 279° | 7km/h | 25963m | -30.4m/s | -49.9°C | 0.7% | 0hPa | 2.6V | 08:28:00 | 00:00:00 | 00:00:00 | |
| DM0DOS-11 | 2026-08-31 01:08:53 | 51.38526 | 1.42966 | 302° | 16km/h | 26244m | -28.4m/s | -50.4°C | 3.4% | 0hPa | 2.6V | 08:28:11 | 02:18:37 | 00:00:00 | |
| BIOWL1-15 | 2026-08-31 01:08:48 | 51.38524 | 1.42972 | 298° | 16km/h | 26273m | -28.5m/s | -50.2°C | 0% | 0hPa | 2.6V | 08:29:06 | 02:18:36 | 00:00:00 | |
| DJ2DS-15 | 2026-08-31 01:08:46 | 51.38520 | 1.42984 | 308° | 15km/h | 26331m | -30.4m/s | -49.9°C | 0% | -1.0hPa | 2.5V | 00:00:00 | 00:00:00 | 00:00:00 | |
| DL1XH-west | 2026-08-31 01:08:36 | 51.38495 | 1.43022 | 316° | 15km/h | 26628m | -28.4m/s | -50.4°C | 0% | 0hPa | 2.5V | 08:29:06 | 02:18:24 | 00:00:00 | |
| DM0DOS-11 | 2026-08-31 01:08:35 | 51.38483 | 1.43036 | 327° | 16km/h | 26745m | -31.8m/s | -50.3°C | 3.5% | 0hPa | 2.5V | 08:28:28 | 02:18:20 | 00:00:00 | |
| BIOWL1-15 | 2026-08-31 01:08:30 | 51.38476 | 1.43043 | 326° | 18km/h | 26809m | -32.2m/s | -50.3°C | 0% | 0hPa | 2.5V | 08:29:06 | 02:18:18 | 00:00:00 | |
| DL1XH-west | 2026-08-31 01:08:25 | 51.38459 | 1.43066 | 320° | 16km/h | 26970m | -33.9m/s | -49.6°C | 0% | 0hPa | 2.5V | 08:29:06 | 02:18:13 | 00:00:00 | |
| BIOWL1-15 | 2026-08-31 01:08:19 | 51.38435 | 1.43087 | 255° | 5km/h | 27432m | -32.8m/s | -48.1°C | 0% | 0hPa | 2.5V | 08:29:06 | 02:17:59 | 00:00:00 | |
| BIOWL1-15 | 2026-08-31 01:08:15 | 51.38435 | 1.43088 | 312° | 4km/h | 27499m | -34.2m/s | -48.3°C | 0% | 0hPa | 2.5V | 08:29:06 | 02:17:57 | 00:00:00 | |
| DL1XH-west | 2026-08-31 01:08:14 | 51.38436 | 1.43084 | 319° | 5km/h | 27333m | -33.3m/s | -48.3°C | 0% | 0hPa | 2.6V | 08:29:06 | 02:18:02 | 00:00:00 | |
| DO1YAY-16 | 2026-08-31 01:08:12 | 51.38435 | 1.43086 | 344° | 4km/h | 27399m | -32.6m/s | -48.1°C | 0.5% | -1.0hPa | 2.5V | 00:00:00 | 00:00:00 | 00:00:00 | |
| DL1XH1-15 | 2026-08-31 01:08:05 | 51.38435 | 1.43095 | 256° | 4km/h | 27670m | -31.8m/s | -48.1°C | 3% | 0hPa | 2.5V | 08:28:56 | 02:17:52 | 00:00:00 | |
| DL1XH-west | 2026-08-31 01:08:04 | 51.38434 | 1.43095 | 257° | 4km/h | 27670m | -31.8m/s | -48.1°C | 0% | 0hPa | 2.5V | 08:29:06 | 02:17:52 | 00:00:00 | |
| BIOWL1-15 | 2026-08-31 01:07:57 | 51.38443 | 1.43111 | 232° | 0km/h | 28025m | -34.5m/s | -47.3°C | 0% | 0hPa | 2.6V | 18:12:15 | 02:17:40 | 00:00:00 | |
| DL1XH1-15 | 2026-08-31 01:07:55 | 51.38443 | 1.43111 | 217° | 4km/h | 27991m | -33.7m/s | -47.3°C | 2.9% | 0hPa | 2.6V | 08:29:07 | 02:17:41 | 00:00:00 | |
| DL1XH-west | 2026-08-31 01:07:53 | 51.38443 | 1.43111 | 218° | 4km/h | 27991m | -33.7m/s | -47.3°C | 0% | 0hPa | 2.6V | 08:29:57 | 02:17:41 | 00:00:00 | |
| DB0UT-7 | 2026-08-31 01:07:46 | 51.38443 | 1.43114 | 314° | 13km/h | 28233m | -38.3m/s | -47.9°C | 3.1% | 0hPa | 2.5V | 00:00:00 | 02:17:34 | 00:00:00 | |
| DL1XH1-15 | 2026-08-31 01:07:45 | 51.38441 | 1.43120 | 293° | 5km/h | 28345m | -36.6m/s | -47.9°C | 3.1% | 0hPa | 2.5V | 08:29:17 | 02:17:31 | 00:00:00 | |
| DL1XH-west | 2026-08-31 01:07:42 | 51.38441 | 1.43122 | 316° | 7km/h | 28381m | -36.4m/s | -47.7°C | 0% | 0hPa | 2.5V | 08:29:57 | 02:17:30 | 00:00:00 | |
| BIOWL1-15 | 2026-08-31 01:07:39 | 51.38433 | 1.43135 | 318° | 9km/h | 28567m | -35.7m/s | -47.7°C | 0% | 0hPa | 2.6V | 18:12:15 | 02:17:25 | 00:00:00 | |
| HTAHTA | 2026-08-31 01:07:36 | 51.38431 | 1.43140 | 312° | 7km/h | 28633m | -30.5m/s | -47.8°C | 0.5% | -1.0hPa | 2.6V | 00:00:00 | 00:00:00 | 00:00:00 | |
| DL1XH1-15 | 2026-08-31 01:07:35 | 51.38426 | 1.43150 | 311° | 9km/h | 28768m | -36.5m/s | -47.5°C | 3.1% | 0hPa | 2.6V | 08:29:29 | 02:17:19 | 00:00:00 | |
| DL1XH-west | 2026-08-31 01:07:31 | 51.38426 | 1.43150 | 312° | 9km/h | 28768m | -36.6m/s | -47.5°C | 0% | 0hPa | 2.6V | 08:29:57 | 02:17:19 | 00:00:00 | |
| BIOWL1-15 | 2026-08-31 01:07:30 | 51.38421 | 1.43158 | 333° | 5km/h | 28965m | -31.2m/s | -46.8°C | 0% | 0hPa | 2.6V | 18:12:15 | 02:17:13 | 00:00:00 | |
| DL1XH1-15 | 2026-08-31 01:07:25 | 51.38418 | 1.43165 | 300° | 9km/h | 29090m | -34.6m/s | -46.5°C | 2.8% | 0hPa | 2.5V | 08:29:39 | 02:17:09 | 00:00:00 | |
| DM0DOS-11 | 2026-08-31 01:07:22 | 51.38417 | 1.43168 | 297° | 7km/h | 29124m | -34.9m/s | -46.6°C | 2.8% | 0hPa | 2.5V | 08:29:40 | 02:17:08 | 00:00:00 | |
| DL1XH-west | 2026-08-31 01:07:20 | 51.38417 | 1.43168 | 297° | 9km/h | 29124m | -34.9m/s | -46.6°C | 0% | 0hPa | 2.5V | 08:29:57 | 02:17:08 | 00:00:00 | |
| DL1XH1-15 | 2026-08-31 01:07:14 | 51.38403 | 1.43193 | 337° | 9km/h | 29378m | -28.3m/s | -46.6°C | 2.8% | 0hPa | 2.6V | 08:29:49 | 02:16:59 | 00:00:00 | |
| DM0DOS-11 | 2026-08-31 01:07:11 | 51.38380 | 1.43198 | 1° | 18km/h | 29587m | -32.6m/s | -46.6°C | 2.9% | 0hPa | 2.6V | 08:29:56 | 02:16:52 | 00:00:00 | |
| DL1XH-west | 2026-08-31 01:07:09 | 51.38397 | 1.43195 | 344° | 11km/h | 29436m | -28.7m/s | -46.5°C | 0% | 0hPa | 2.6V | 08:29:57 | 02:16:57 | 00:00:00 | |
| HTAHTA | 2026-08-31 01:07:05 | 51.38380 | 1.43198 | 1° | 18km/h | 29587m | -32.6m/s | -46.6°C | 0.5% | -1.0hPa | 2.5V | 00:00:00 | 00:00:00 | 00:00:00 | |
| BIOWL9-15 | 2026-08-31 01:07:01 | 51.38330 | 1.43156 | 52° | 20km/h | 29870m | -23.8m/s | -46.8°C | 0.5% | -1.0hPa | 2.5V | 00:00:00 | 00:00:00 | 00:00:00 | |
| DM0DOS-11 | 2026-08-31 01:06:59 | 51.38330 | 1.43156 | 52° | 20km/h | 29870m | -23.8m/s | -46.8°C | 3% | 0hPa | 2.5V | 08:30:00 | 02:16:42 | 00:00:00 | |
| DL1XH-west | 2026-08-31 01:06:58 | 51.38348 | 1.43180 | 31° | 26km/h | 29761m | -25.9m/s | -46.6°C | 0% | 0hPa | 2.5V | 18:12:15 | 02:16:46 | 00:00:00 | |
| DL1XH1-15 | 2026-08-31 01:06:56 | 51.38324 | 1.43141 | 59° | 9km/h | 29945m | -29.2m/s | -46.5°C | 2.9% | 0hPa | 2.5V | 08:30:00 | 02:16:39 | 00:00:00 | |
| BIOWL1-15 | 2026-08-31 01:06:48 | 51.38324 | 1.43139 | 196° | 7km/h | 30100m | -32.1m/s | -46.3°C | 0% | 0hPa | 2.5V | 18:12:15 | 02:16:34 | 00:00:00 | |
| DL1XH-west | 2026-08-31 01:06:47 | 51.38323 | 1.43138 | 190° | 4km/h | 30069m | -30.4m/s | -46.4°C | 0% | 0hPa | 2.5V | 18:12:15 | 02:16:35 | 00:00:00 | |
| DO9LL-15 | 2026-08-31 01:06:46 | 51.38324 | 1.43138 | 196° | 15km/h | 30100m | -32.1m/s | -46.3°C | 2.9% | 0hPa | 2.6V | 00:00:00 | 02:16:34 | 00:00:00 | |
| DL1XH1-15 | 2026-08-31 01:06:44 | 51.38333 | 1.43125 | 106° | 20km/h | 30247m | -27.5m/s | -45.4°C | 2.6% | 0hPa | 2.6V | 08:30:00 | 02:16:29 | 00:00:00 | |
| DM0DOS-11 | 2026-08-31 01:06:39 | 51.38326 | 1.43046 | 45° | 7km/h | 30447m | -27.2m/s | -45.7°C | 2.7% | 0hPa | 2.5V | 08:30:00 | 02:16:21 | 00:00:00 | |
| DL1XH-west | 2026-08-31 01:06:37 | 51.38333 | 1.43083 | 82° | 29km/h | 30349m | -20.2m/s | -45.2°C | 0% | 0hPa | 2.5V | 18:12:15 | 02:16:25 | 00:00:00 | |
| BIOWL1-15 | 2026-08-31 01:06:30 | 51.38320 | 1.43040 | 28° | 9km/h | 30498m | -4.6m/s | -45.9°C | 0% | 0hPa | 2.5V | 18:12:15 | 02:16:18 | 00:00:00 | |
| DL1XH-west | 2026-08-31 01:06:27 | 51.38316 | 1.43032 | 98° | 13km/h | 30486m | 6.1m/s | -45.9°C | 0% | 0hPa | 2.6V | 18:12:15 | 02:16:15 | 00:00:00 | |
| BIOWL1-15 | 2026-08-31 01:06:20 | 51.38328 | 1.42996 | 102° | 2km/h | 30449m | 4.5m/s | -45.7°C | 0% | 0hPa | 2.5V | 18:12:15 | 02:16:08 | 00:00:00 | |
| DL1XH1-15 | 2026-08-31 01:06:16 | 51.38326 | 1.42968 | 155° | 11km/h | 30401m | 4.9m/s | -45.5°C | 2.7% | 0hPa | 2.5V | 08:30:00 | 02:15:59 | 00:00:00 | |
| DL1XH-west | 2026-08-31 01:06:16 | 51.38323 | 1.42985 | 60° | 15km/h | 30428m | 4.6m/s | -45.7°C | 0% | 0hPa | 2.6V | 18:12:15 | 02:16:04 | 00:00:00 | |
| BIOWL1-15 | 2026-08-31 01:06:10 | 51.38328 | 1.42966 | 144° | 11km/h | 30396m | 5.8m/s | -45.5°C | 0% | 0hPa | 2.6V | 18:12:15 | 02:15:58 | 00:00:00 | |
| DM0DOS-11 | 2026-08-31 01:06:08 | 51.38332 | 1.42954 | 95° | 11km/h | 30379m | 5.1m/s | -45.4°C | 2.6% | 0hPa | 2.5V | 08:30:00 | 02:15:55 | 00:00:00 | |
| DL1XH-west | 2026-08-31 01:06:06 | 51.38332 | 1.42950 | 95° | 9km/h | 30373m | 6.1m/s | -45.4°C | 0% | 0hPa | 2.5V | 18:12:15 | 02:15:54 | 00:00:00 | |
| DL1XH1-15 | 2026-08-31 01:06:04 | 51.38329 | 1.42932 | 68° | 13km/h | 30345m | 5.2m/s | -45.5°C | 2.6% | 0hPa | 2.6V | 08:30:00 | 02:15:49 | 00:00:00 | |
| BIOWL1-15 | 2026-08-31 01:05:59 | 51.38329 | 1.42924 | 106° | 9km/h | 30335m | 6m/s | -45.5°C | 0% | 0hPa | 2.5V | 18:12:15 | 02:15:47 | 00:00:00 | |
| BIOWL9-15 | 2026-08-31 01:05:59 | 51.38330 | 1.42921 | 142° | 9km/h | 30329m | 6.0m/s | -45.5°C | 0.5% | -1.0hPa | 2.5V | 00:00:00 | 00:00:00 | 00:00:00 | |
| DM0DOS-11 | 2026-08-31 01:05:58 | 51.38332 | 1.42919 | 159° | 11km/h | 30323m | 4.8m/s | -45.5°C | 2.7% | 0hPa | 2.5V | 08:30:00 | 02:15:45 | 00:00:00 | |
| DL1XH1-15 | 2026-08-31 01:05:56 | 51.38338 | 1.42895 | 79° | 15km/h | 30292m | 4.7m/s | -45.6°C | 2.7% | 0hPa | 2.5V | 08:30:00 | 02:15:39 | 00:00:00 | |
| DL1XH-west | 2026-08-31 01:05:55 | 51.38337 | 1.42915 | 140° | 11km/h | 30314m | 5.6m/s | -45.6°C | 0% | 0hPa | 2.6V | 18:12:15 | 02:15:43 | 00:00:00 | |
| DM0DOS-11 | 2026-08-31 01:05:52 | 51.38340 | 1.42882 | 171° | 7km/h | 30270m | 5.1m/s | -45.7°C | 2.6% | 0hPa | 2.5V | 08:30:00 | 02:15:35 | 00:00:00 | |
| BIOWL1-15 | 2026-08-31 01:05:48 | 51.38339 | 1.42883 | 147° | 7km/h | 30275m | 5.5m/s | -45.6°C | 0% | 0hPa | 2.5V | 18:12:15 | 02:15:36 | 00:00:00 | |
| DL1XH-west | 2026-08-31 01:05:44 | 51.38343 | 1.42880 | 85° | 5km/h | 30253m | 6.1m/s | -45.8°C | 0% | 0hPa | 2.6V | 18:12:15 | 02:15:32 | 00:00:00 | |
| DL1XH1-15 | 2026-08-31 01:05:44 | 51.38342 | 1.42868 | 93° | 13km/h | 30237m | 6.2m/s | -45.9°C | 2.7% | 0hPa | 2.5V | 08:30:00 | 02:15:29 | 00:00:00 | |
| DM0DOS-11 | 2026-08-31 01:05:37 | 51.38342 | 1.42834 | 55° | 7km/h | 30192m | 6.4m/s | -46.2°C | 2.7% | 0hPa | 2.5V | 08:30:00 | 02:15:21 | 00:00:00 | |
| DO1YAY-16 | 2026-08-31 01:05:37 | 51.38346 | 1.42844 | 75° | 11km/h | 30208m | 5.8m/s | -46.1°C | 0.5% | -1.0hPa | 2.5V | 00:00:00 | 00:00:00 | 00:00:00 | |
| DL1XH1-15 | 2026-08-31 01:05:36 | 51.38342 | 1.42830 | 81° | 4km/h | 30180m | 5.3m/s | -46.3°C | 2.8% | 0hPa | 2.5V | 08:30:00 | 02:15:19 | 00:00:00 | |
| DL1XH-west | 2026-08-31 01:05:34 | 51.38344 | 1.42837 | 52° | 9km/h | 30198m | 4.9m/s | -46.2°C | 0% | 0hPa | 2.5V | 18:12:15 | 02:15:22 | 00:00:00 | |
| BIOWL1-15 | 2026-08-31 01:05:29 | 51.38344 | 1.42795 | 110° | 15km/h | 30136m | 5.7m/s | 0°C | 0% | 0hPa | 2.6V | 18:12:15 | 02:15:11 | 00:00:00 | |
| DL1XH-west | 2026-08-31 01:05:24 | 51.38343 | 1.42801 | 117° | 16km/h | 30141m | 5.2m/s | -46.6°C | 0% | 0hPa | 2.5V | 18:12:15 | 02:15:12 | 00:00:00 | |
| DM0DOS-11 | 2026-08-31 01:05:23 | 51.38345 | 1.42785 | 67° | 11km/h | 30123m | 5.8m/s | -46.8°C | 2.8% | 0hPa | 2.6V | 08:30:00 | 02:15:09 | 00:00:00 | |
| DL1XH1-15 | 2026-08-31 01:05:16 | 51.38356 | 1.42791 | 130° | 9km/h | 30068m | 5.2m/s | -46.7°C | 2.8% | 0hPa | 2.5V | 08:30:00 | 02:14:59 | 00:00:00 | |
| DL1XH-west | 2026-08-31 01:05:13 | 51.38352 | 1.42793 | 184° | 9km/h | 30079m | 5.8m/s | -46.7°C | 0% | 0hPa | 2.5V | 18:12:15 | 02:15:01 | 00:00:00 | |
| DJ2DS-15 | 2026-08-31 01:05:10 | 51.38357 | 1.42787 | 129° | 11km/h | 30062m | 6.3m/s | -46.7°C | 0.5% | -1.0hPa | 2.5V | 00:00:00 | 00:00:00 | 00:00:00 | |
| DM0DOS-11 | 2026-08-31 01:05:08 | 51.38360 | 1.42765 | 51° | 13km/h | 30033m | 5.9m/s | -46.7°C | 2.8% | 0hPa | 2.5V | 08:30:00 | 02:14:53 | 00:00:00 | |
| DO1YAY-16 | 2026-08-31 01:05:05 | 51.38360 | 1.42765 | 51° | 11km/h | 30033m | 5.9m/s | -46.7°C | 0.5% | -1.0hPa | 2.5V | 00:00:00 | 00:00:00 | 00:00:00 | |
| DL1XH1-15 | 2026-08-31 01:05:04 | 51.38354 | 1.42762 | 264° | 5km/h | 30011m | 5.5m/s | -46.7°C | 2.8% | 0hPa | 2.5V | 08:30:00 | 02:14:49 | 00:00:00 | |
| DL1XH-west | 2026-08-31 01:05:03 | 51.38356 | 1.42760 | 12° | 7km/h | 30023m | 5.6m/s | -46.7°C | 0% | 0hPa | 2.6V | 18:12:15 | 02:14:51 | 00:00:00 | |
| HTAHTA | 2026-08-31 01:05:01 | 51.38355 | 1.42765 | 247° | 5km/h | 30006m | 5.1m/s | -46.7°C | 0.5% | -1.0hPa | 2.6V | 00:00:00 | 00:00:00 | 00:00:00 | |
| DM0DOS-11 | 2026-08-31 01:04:58 | 51.38353 | 1.42754 | 78° | 16km/h | 29978m | 6.2m/s | -46.8°C | 2.8% | 0hPa | 2.6V | 08:30:00 | 02:14:43 | 00:00:00 | |
| BIOWL9-15 | 2026-08-31 01:04:57 | 51.38354 | 1.42760 | 74° | 13km/h | 29984m | 5.0m/s | -46.8°C | 0.5% | -1.0hPa | 2.5V | 00:00:00 | 00:00:00 | 00:00:00 | |
| DL1XH1-15 | 2026-08-31 01:04:56 | 51.38347 | 1.42724 | 54° | 22km/h | 29956m | 5.1m/s | -46.9°C | 2.9% | 0hPa | 2.5V | 08:30:00 | 02:14:39 | 00:00:00 | |
| DL1XH-west | 2026-08-31 01:04:52 | 51.38349 | 1.42731 | 66° | 20km/h | 29962m | 4.9m/s | -46.9°C | 0% | 0hPa | 2.5V | 18:12:15 | 02:14:40 | 00:00:00 | |
| DB0UT-7 | 2026-08-31 01:04:51 | 51.38347 | 1.42723 | 55° | 26km/h | 29957m | 5.0m/s | -46.9°C | 2.9% | 0hPa | 2.5V | 00:00:00 | 00:00:00 | 00:00:00 | |
| WEDDY | 2026-08-31 01:04:49 | 51.38342 | 1.42716 | 44° | 26km/h | 29951m | 6.6m/s | -46.9°C | 0.5% | 0hPa | 2.5V | 00:00:00 | 00:00:00 | 00:00:00 | |
| DM0DOS-11 | 2026-08-31 01:04:47 | 51.38311 | 1.42686 | 55° | 16km/h | 29906m | 5.9m/s | -47°C | 2.9% | 0hPa | 2.5V | 08:30:00 | 02:14:30 | 00:00:00 | |
| DL1XH1-15 | 2026-08-31 01:04:44 | 51.38308 | 1.42679 | 56° | 24km/h | 29900m | 6m/s | -47°C | 2.9% | 0hPa | 2.5V | 08:30:00 | 02:14:29 | 00:00:00 | |
| DL1XH-west | 2026-08-31 01:04:42 | 51.38311 | 1.42686 | 56° | 16km/h | 29906m | 5.9m/s | -47°C | 0% | 0hPa | 2.5V | 18:12:15 | 02:14:30 | 00:00:00 | |
| DM0DOS-11 | 2026-08-31 01:04:37 | 51.38263 | 1.42608 | 7° | 31km/h | 29850m | 5.9m/s | -47°C | 2.9% | 0hPa | 2.5V | 08:30:00 | 02:14:20 | 00:00:00 | |
| DL1XH1-15 | 2026-08-31 01:04:36 | 51.38256 | 1.42607 | 4° | 29km/h | 29844m | 5.2m/s | -47°C | 2.9% | 0hPa | 2.6V | 08:30:00 | 02:14:19 | 00:00:00 | |
| DL1XH-west | 2026-08-31 01:04:31 | 51.38256 | 1.42607 | 5° | 29km/h | 29844m | 5.2m/s | -47°C | 0% | 0hPa | 2.6V | 18:12:15 | 02:14:19 | 00:00:00 | |
| WEDDY | 2026-08-31 01:04:29 | 51.38249 | 1.42606 | 8° | 26km/h | 29840m | 5.3m/s | -46.9°C | 0.5% | 0hPa | 2.5V | 00:00:00 | 00:00:00 | 00:00:00 | |
| DM0DOS-11 | 2026-08-31 01:04:24 | 51.38213 | 1.42533 | 50° | 27km/h | 29792m | 5.3m/s | -46.7°C | 2.9% | 0hPa | 2.5V | 08:30:00 | 02:14:09 | 00:00:00 | |
| DL1XH-west | 2026-08-31 01:04:20 | 51.38209 | 1.42526 | 43° | 22km/h | 29787m | 5.7m/s | -46.6°C | 0% | 0hPa | 2.5V | 18:12:15 | 02:14:08 | 00:00:00 | |
| DM0DOS-11 | 2026-08-31 01:04:13 | 51.38164 | 1.42514 | 32° | 18km/h | 29738m | 5.5m/s | -46.4°C | 2.8% | 0hPa | 2.6V | 08:30:00 | 02:13:59 | 00:00:00 | |
| DL1XH-west | 2026-08-31 01:04:09 | 51.38157 | 1.42504 | 46° | 18km/h | 29728m | 4.7m/s | -46.4°C | 0% | 0hPa | 2.5V | 18:12:15 | 02:13:57 | 00:00:00 | |
| WEDDY | 2026-08-31 01:04:08 | 51.38158 | 1.42504 | 47° | 18km/h | 29729m | 4.7m/s | -46.4°C | 0.6% | 0hPa | 2.5V | 00:00:00 | 00:00:00 | 00:00:00 | |
| DM0DOS-11 | 2026-08-31 01:04:03 | 51.38122 | 1.42485 | 345° | 18km/h | 29684m | 5.1m/s | -46.4°C | 2.8% | 0hPa | 2.5V | 08:30:00 | 02:13:49 | 00:00:00 | |
| DL1XH-west | 2026-08-31 01:03:58 | 51.38105 | 1.42488 | 2° | 26km/h | 29667m | 4.8m/s | -46.5°C | 0% | 0hPa | 2.6V | 18:12:15 | 02:13:46 | 00:00:00 | |
| DM0DOS-11 | 2026-08-31 01:03:53 | 51.38076 | 1.42476 | 14° | 20km/h | 29630m | 5.7m/s | -46.9°C | 2.9% | 0hPa | 2.6V | 08:30:00 | 02:13:39 | 00:00:00 | |
| DL1XH-west | 2026-08-31 01:03:48 | 51.38059 | 1.42473 | 359° | 24km/h | 29613m | 6.2m/s | -47°C | 0% | 0hPa | 2.5V | 18:12:15 | 02:13:36 | 00:00:00 | |
| DM0DOS-11 | 2026-08-31 01:03:42 | 51.38023 | 1.42468 | 33° | 13km/h | 29575m | 6.5m/s | -46.9°C | 2.9% | 0hPa | 2.5V | 08:30:00 | 02:13:29 | 00:00:00 | |
| DL1XH-west | 2026-08-31 01:03:37 | 51.38015 | 1.42454 | 35° | 16km/h | 29553m | 5.9m/s | -46.9°C | 0% | 0hPa | 2.6V | 18:12:15 | 02:13:25 | 00:00:00 | |
| DL1XH-west | 2026-08-31 01:03:27 | 51.37959 | 1.42464 | 27° | 15km/h | 29500m | 5.3m/s | -46.6°C | 0% | 0hPa | 2.6V | 18:12:15 | 02:13:15 | 00:00:00 | |
| DM0DOS-11 | 2026-08-31 01:03:23 | 51.37947 | 1.42439 | 27° | 16km/h | 29467m | 6.4m/s | -46.5°C | 2.8% | 0hPa | 2.5V | 08:30:00 | 02:13:09 | 00:00:00 | |
| DL1XH-west | 2026-08-31 01:03:16 | 51.37925 | 1.42447 | 311° | 18km/h | 29438m | 4.9m/s | -46.6°C | 0% | 0hPa | 2.5V | 18:12:15 | 02:13:04 | 00:00:00 | |
| DL1XH1-15 | 2026-08-31 01:03:14 | 51.37911 | 1.42454 | 54° | 9km/h | 29407m | 6.4m/s | -46.6°C | 2.8% | 0hPa | 2.5V | 08:30:00 | 02:12:58 | 00:00:00 | |
| DM0DOS-11 | 2026-08-31 01:03:13 | 51.37913 | 1.42456 | 37° | 9km/h | 29413m | 5m/s | -46.6°C | 2.9% | 0hPa | 2.5V | 08:30:00 | 02:12:59 | 00:00:00 | |
| DL1XH-west | 2026-08-31 01:03:05 | 51.37908 | 1.42440 | 47° | 7km/h | 29379m | 5.6m/s | -46.7°C | 0% | 0hPa | 2.5V | 18:12:15 | 02:12:53 | 00:00:00 | |
| BIOWL1-15 | 2026-08-31 01:03:03 | 51.37902 | 1.42449 | 292° | 15km/h | 29351m | 5.3m/s | 0°C | 0% | 0hPa | 2.6V | 18:12:15 | 02:12:48 | 00:00:00 | |
| DM0DOS-11 | 2026-08-31 01:03:02 | 51.37903 | 1.42444 | 286° | 11km/h | 29357m | 5.2m/s | -46.7°C | 2.9% | 0hPa | 2.6V | 08:30:00 | 02:12:49 | 00:00:00 | |
| DL1XH1-15 | 2026-08-31 01:03:00 | 51.37902 | 1.42449 | 292° | 15km/h | 29351m | 5.3m/s | -46.7°C | 2.9% | 0hPa | 2.6V | 08:30:00 | 02:12:48 | 00:00:00 | |
| HTAHTA | 2026-08-31 01:02:56 | 51.37882 | 1.42475 | 298° | 5km/h | 29307m | 5.6m/s | -46.6°C | 0.5% | -1.0hPa | 2.5V | 00:00:00 | 00:00:00 | 00:00:00 | |
| DM0DOS-11 | 2026-08-31 01:02:55 | 51.37881 | 1.42477 | 309° | 5km/h | 29300m | 6.2m/s | -46.6°C | 2.9% | 0hPa | 2.5V | 08:30:00 | 02:12:39 | 00:00:00 | |
| DL1XH1-15 | 2026-08-31 01:02:54 | 51.37881 | 1.42479 | 322° | 5km/h | 29294m | 5.2m/s | -46.6°C | 2.9% | 0hPa | 2.5V | 08:30:00 | 02:12:38 | 00:00:00 | |
| DL1XH-west | 2026-08-31 01:02:54 | 51.37884 | 1.42471 | 320° | 9km/h | 29318m | 5.9m/s | -46.6°C | 0% | 0hPa | 2.6V | 18:12:15 | 02:12:42 | 00:00:00 | |
| BIOWL9-15 | 2026-08-31 01:02:52 | 51.37882 | 1.42475 | 298° | 5km/h | 29307m | 5.6m/s | -46.6°C | 0.5% | -1.0hPa | 2.5V | 00:00:00 | 00:00:00 | 00:00:00 | |
| BIOWL1-15 | 2026-08-31 01:02:47 | 51.37869 | 1.42502 | 326° | 11km/h | 29246m | 5.1m/s | 0°C | 0% | 0hPa | 2.5V | 18:12:15 | 02:12:29 | 00:00:00 | |
| WEDDY | 2026-08-31 01:02:46 | 51.37879 | 1.42486 | 270° | 9km/h | 29278m | 5.8m/s | -46.5°C | 0.5% | 0hPa | 2.5V | 00:00:00 | 00:00:00 | 00:00:00 | |
| DM0DOS-11 | 2026-08-31 01:02:45 | 51.37869 | 1.42502 | 326° | 11km/h | 29246m | 5.1m/s | -46.4°C | 2.8% | 0hPa | 2.5V | 08:30:00 | 02:12:29 | 00:00:00 | |
| DL1XH-west | 2026-08-31 01:02:43 | 51.37875 | 1.42498 | 335° | 11km/h | 29255m | 5.2m/s | -46.5°C | 0% | 0hPa | 2.6V | 18:12:15 | 02:12:31 | 00:00:00 | |
| DL1XH1-15 | 2026-08-31 01:02:42 | 51.37867 | 1.42504 | 302° | 9km/h | 29240m | 6.1m/s | -46.4°C | 2.8% | 0hPa | 2.5V | 08:30:00 | 02:12:28 | 00:00:00 | |
| DB0UT-7 | 2026-08-31 01:02:38 | 51.37867 | 1.42512 | 256° | 5km/h | 29229m | 5.3m/s | -46.4°C | 2.8% | 0hPa | 2.5V | 00:00:00 | 02:12:26 | 00:00:00 | |
| DM0DOS-11 | 2026-08-31 01:02:35 | 51.37871 | 1.42527 | 229° | 5km/h | 29190m | 5.5m/s | -46.4°C | 2.8% | 0hPa | 2.5V | 08:30:00 | 02:12:19 | 00:00:00 | |
| DL1XH1-15 | 2026-08-31 01:02:32 | 51.37872 | 1.42528 | 234° | 5km/h | 29185m | 5.4m/s | -46.4°C | 2.8% | 0hPa | 2.6V | 08:30:00 | 02:12:18 | 00:00:00 | |
| BIOWL1-15 | 2026-08-31 01:02:32 | 51.37870 | 1.42525 | 232° | 5km/h | 29196m | 6.4m/s | 0°C | 0% | 0hPa | 2.5V | 18:12:15 | 02:12:20 | 00:00:00 | |
| DO1YAY-16 | 2026-08-31 01:02:30 | 51.37872 | 1.42528 | 234° | 4km/h | 29185m | 5.4m/s | -46.4°C | 0.5% | -1.0hPa | 2.5V | 00:00:00 | 00:00:00 | 00:00:00 | |
| WEDDY | 2026-08-31 01:02:26 | 51.37870 | 1.42529 | 17° | 7km/h | 29168m | 5.3m/s | -46.5°C | 0.5% | 0hPa | 2.5V | 00:00:00 | 00:00:00 | 00:00:00 | |
| HTAHTA | 2026-08-31 01:02:25 | 51.37867 | 1.42531 | 286° | 5km/h | 29150m | 6.1m/s | -46.5°C | 0.5% | -1.0hPa | 2.5V | 00:00:00 | 00:00:00 | 00:00:00 | |
| DM0DOS-11 | 2026-08-31 01:02:24 | 51.37866 | 1.42540 | 286° | 7km/h | 29133m | 6.4m/s | -46.5°C | 2.8% | 0hPa | 2.5V | 08:30:00 | 02:12:09 | 00:00:00 | |
| DL1XH-west | 2026-08-31 01:02:22 | 51.37866 | 1.42537 | 273° | 9km/h | 29139m | 5.5m/s | -46.5°C | 0% | 0hPa | 2.5V | 18:12:15 | 02:12:10 | 00:00:00 | |
| DL1XH1-15 | 2026-08-31 01:02:20 | 51.37865 | 1.42542 | 318° | 4km/h | 29127m | 5.8m/s | -46.4°C | 2.8% | 0hPa | 2.5V | 08:30:00 | 02:12:08 | 00:00:00 | |
| DM0DOS-11 | 2026-08-31 01:02:13 | 51.37868 | 1.42530 | 132° | 4km/h | 29076m | 5.9m/s | -46.4°C | 2.8% | 0hPa | 2.6V | 08:30:00 | 02:11:59 | 00:00:00 | |
| DL1XH1-15 | 2026-08-31 01:02:13 | 51.37868 | 1.42530 | 202° | 5km/h | 29070m | 6.4m/s | -46.4°C | 2.8% | 0hPa | 2.5V | 08:30:00 | 02:11:58 | 00:00:00 | |
| DL1XH-west | 2026-08-31 01:02:12 | 51.37867 | 1.42532 | 100° | 7km/h | 29082m | 4.7m/s | -46.4°C | 0% | 0hPa | 2.6V | 18:12:15 | 02:12:00 | 00:00:00 | |
| WEDDY | 2026-08-31 01:02:05 | 51.37870 | 1.42541 | 307° | 7km/h | 29047m | 5.5m/s | -46.2°C | 0.5% | 0hPa | 2.5V | 00:00:00 | 00:00:00 | 00:00:00 | |
| DM0DOS-11 | 2026-08-31 01:02:02 | 51.37868 | 1.42548 | 203° | 4km/h | 29019m | 5.4m/s | -46.1°C | 2.7% | 0hPa | 2.5V | 08:30:00 | 02:11:49 | 00:00:00 | |
| DL1XH1-15 | 2026-08-31 01:02:02 | 51.37870 | 1.42549 | 189° | 4km/h | 29014m | 6m/s | -46.1°C | 2.7% | 0hPa | 2.5V | 08:30:00 | 02:11:48 | 00:00:00 | |
| DL1XH-west | 2026-08-31 01:02:01 | 51.37869 | 1.42548 | 204° | 4km/h | 29019m | 5.4m/s | -46.1°C | 0% | 0hPa | 2.5V | 18:12:15 | 02:11:49 | 00:00:00 | |
| BIOWL1-15 | 2026-08-31 01:02:00 | 51.37870 | 1.42548 | 66° | 4km/h | 29002m | 5.2m/s | 0°C | 0% | 0hPa | 2.6V | 18:12:15 | 02:11:46 | 00:00:00 | |
| DO1YAY-16 | 2026-08-31 01:01:59 | 51.37870 | 1.42548 | 79° | 0km/h | 29008m | 6.3m/s | -46.2°C | 0.5% | -1.0hPa | 2.5V | 00:00:00 | 00:00:00 | 00:00:00 | |
| DM0DOS-11 | 2026-08-31 01:01:56 | 51.37870 | 1.42539 | 43° | 7km/h | 28962m | 5.8m/s | -46.4°C | 2.8% | 0hPa | 2.5V | 08:30:00 | 02:11:39 | 00:00:00 | |
| HTAHTA | 2026-08-31 01:01:54 | 51.37867 | 1.42535 | 47° | 5km/h | 28950m | 6.7m/s | -46.5°C | 0.5% | -1.0hPa | 2.5V | 00:00:00 | 00:00:00 | 00:00:00 | |
| DL1XH1-15 | 2026-08-31 01:01:52 | 51.37868 | 1.42537 | 42° | 7km/h | 28956m | 5.4m/s | -46.5°C | 2.8% | 0hPa | 2.5V | 08:30:00 | 02:11:38 | 00:00:00 | |
| DL1XH-west | 2026-08-31 01:01:51 | 51.37870 | 1.42539 | 43° | 7km/h | 28962m | 5.8m/s | -46.4°C | 0% | 0hPa | 2.5V | 18:12:15 | 02:11:39 | 00:00:00 | |
| BIOWL1-15 | 2026-08-31 01:01:49 | 51.37867 | 1.42535 | 47° | 5km/h | 28950m | 6.7m/s | 0°C | 0% | 0hPa | 2.5V | 18:12:15 | 02:11:37 | 00:00:00 | |
| WEDDY | 2026-08-31 01:01:44 | 51.37864 | 1.42530 | 26° | 7km/h | 28927m | 6.6m/s | -46.5°C | 0.5% | 0hPa | 2.6V | 00:00:00 | 00:00:00 | 00:00:00 | |
| DM0DOS-11 | 2026-08-31 01:01:43 | 51.37854 | 1.42527 | 352° | 9km/h | 28904m | 6.7m/s | -46.7°C | 2.8% | 0hPa | 2.6V | 08:30:00 | 02:11:29 | 00:00:00 | |
| DL1XH1-15 | 2026-08-31 01:01:42 | 51.37852 | 1.42527 | 329° | 5km/h | 28898m | 6.2m/s | -46.7°C | 2.8% | 0hPa | 2.6V | 08:30:00 | 02:11:28 | 00:00:00 | |
| DL1XH-west | 2026-08-31 01:01:40 | 51.37852 | 1.42527 | 330° | 7km/h | 28898m | 6.2m/s | -46.7°C | 0% | 0hPa | 2.6V | 18:12:15 | 02:11:28 | 00:00:00 | |
| DM0DOS-11 | 2026-08-31 01:01:33 | 51.37846 | 1.42522 | 35° | 2km/h | 28845m | 5.8m/s | -46.7°C | 2.8% | 0hPa | 2.5V | 08:30:00 | 02:11:19 | 00:00:00 | |
| DL1XH1-15 | 2026-08-31 01:01:32 | 51.37844 | 1.42521 | 27° | 7km/h | 28839m | 6.5m/s | -46.7°C | 2.8% | 0hPa | 2.5V | 08:30:00 | 02:11:18 | 00:00:00 | |
| DL1XH-west | 2026-08-31 01:01:30 | 51.37844 | 1.42521 | 27° | 7km/h | 28839m | 6.5m/s | -46.7°C | 0% | 0hPa | 2.5V | 18:12:15 | 02:11:18 | 00:00:00 | |
| BIOWL1-15 | 2026-08-31 01:01:29 | 51.37843 | 1.42520 | 26° | 9km/h | 28833m | 5.4m/s | 0°C | 0% | 0hPa | 2.6V | 18:12:15 | 02:11:17 | 00:00:00 | |
| DO1YAY-16 | 2026-08-31 01:01:28 | 51.37840 | 1.42518 | 22° | 7km/h | 28828m | 4.9m/s | -46.7°C | 0.5% | -1.0hPa | 2.6V | 00:00:00 | 00:00:00 | 00:00:00 | |
| DM0DOS-11 | 2026-08-31 01:01:26 | 51.37838 | 1.42516 | 43° | 5km/h | 28786m | 5.6m/s | -46.9°C | 2.8% | 0hPa | 2.6V | 08:30:00 | 02:11:09 | 00:00:00 | |
| DB0UT-7 | 2026-08-31 01:01:26 | 51.37838 | 1.42517 | 342° | 7km/h | 28816m | 6.1m/s | -46.7°C | 2.8% | 0hPa | 2.5V | 00:00:00 | 00:00:00 | 00:00:00 | |
| WEDDY | 2026-08-31 01:01:24 | 51.37838 | 1.42518 | 193° | 2km/h | 28805m | 5.1m/s | -46.8°C | 0.5% | 0hPa | 2.5V | 00:00:00 | 00:00:00 | 00:00:00 | |
| HTAHTA | 2026-08-31 01:01:23 | 51.37839 | 1.42518 | 164° | 0km/h | 28799m | 6.3m/s | -46.8°C | 0.5% | -1.0hPa | 2.5V | 00:00:00 | 00:00:00 | 00:00:00 | |
| DL1XH1-15 | 2026-08-31 01:01:20 | 51.37837 | 1.42515 | 25° | 5km/h | 28781m | 5.3m/s | -46.9°C | 2.8% | 0hPa | 2.5V | 08:30:00 | 02:11:08 | 00:00:00 | |
| DL1XH-west | 2026-08-31 01:01:19 | 51.37836 | 1.42514 | 2° | 4km/h | 28775m | 6.6m/s | -46.9°C | 0% | 0hPa | 2.5V | 18:12:15 | 02:11:07 | 00:00:00 | |
| DM0DOS-11 | 2026-08-31 01:01:16 | 51.37820 | 1.42513 | 336° | 7km/h | 28729m | 6.2m/s | -47.1°C | 2.9% | 0hPa | 2.6V | 08:30:00 | 02:10:59 | 00:00:00 | |
| BIOWL1-15 | 2026-08-31 01:01:12 | 51.37819 | 1.42515 | 310° | 7km/h | 28723m | 5m/s | 0°C | 0% | 0hPa | 2.6V | 18:12:15 | 02:10:58 | 00:00:00 | |
| DL1XH1-15 | 2026-08-31 01:01:10 | 51.37819 | 1.42515 | 309° | 7km/h | 28723m | 5m/s | -47.1°C | 2.9% | 0hPa | 2.6V | 08:30:00 | 02:10:58 | 00:00:00 | |
| DL1XH-west | 2026-08-31 01:01:08 | 51.37816 | 1.42520 | 322° | 9km/h | 28713m | 5.4m/s | -47.2°C | 0% | 0hPa | 2.5V | 18:12:15 | 02:10:56 | 00:00:00 | |
| DM0DOS-11 | 2026-08-31 01:01:05 | 51.37811 | 1.42513 | 194° | 5km/h | 28673m | 4.7m/s | -47.2°C | 2.9% | 0hPa | 2.5V | 08:30:00 | 02:10:49 | 00:00:00 | |
| WEDDY | 2026-08-31 01:01:03 | 51.37808 | 1.42514 | 95° | 5km/h | 28685m | 6.6m/s | -47.2°C | 0.6% | 0hPa | 2.5V | 00:00:00 | 00:00:00 | 00:00:00 | |
| DL1XH1-15 | 2026-08-31 01:01:00 | 51.37811 | 1.42514 | 233° | 4km/h | 28669m | 4.7m/s | -47.1°C | 2.9% | 0hPa | 2.5V | 08:30:00 | 02:10:48 | 00:00:00 | |
| DL1XH-west | 2026-08-31 01:00:58 | 51.37810 | 1.42516 | 339° | 9km/h | 28657m | 5.8m/s | -47.2°C | 0% | 0hPa | 2.6V | 18:12:15 | 02:10:46 | 00:00:00 | |
| DO1YAY-16 | 2026-08-31 01:00:57 | 51.37807 | 1.42517 | 343° | 11km/h | 28652m | 5.1m/s | -47.2°C | 0.5% | -1.0hPa | 2.5V | 00:00:00 | 00:00:00 | 00:00:00 | |
| DB0UT-7 | 2026-08-31 01:00:56 | 51.37805 | 1.42519 | 343° | 5km/h | 28647m | 5.3m/s | -47.2°C | 2.9% | 0hPa | 2.5V | 00:00:00 | 02:10:44 | 00:00:00 | |
| DM0DOS-11 | 2026-08-31 01:00:54 | 51.37796 | 1.42527 | 337° | 7km/h | 28616m | 6m/s | -47.3°C | 2.9% | 0hPa | 2.5V | 08:30:00 | 02:10:39 | 00:00:00 | |
| HTAHTA | 2026-08-31 01:00:53 | 51.37798 | 1.42526 | 325° | 5km/h | 28623m | 6.3m/s | -47.4°C | 0.5% | -1.0hPa | 2.5V | 00:00:00 | 00:00:00 | 00:00:00 | |
| DL1XH1-15 | 2026-08-31 01:00:50 | 51.37795 | 1.42528 | 332° | 5km/h | 28611m | 5m/s | -47.3°C | 2.9% | 0hPa | 2.5V | 08:30:00 | 02:10:38 | 00:00:00 | |
| DL1XH-west | 2026-08-31 01:00:48 | 51.37793 | 1.42531 | 274° | 5km/h | 28599m | 6.5m/s | -47.3°C | 0% | 0hPa | 2.5V | 18:12:15 | 02:10:36 | 00:00:00 | |
| DL1XH1-15 | 2026-08-31 01:00:45 | 51.37782 | 1.42551 | 302° | 11km/h | 28553m | 6m/s | -47.4°C | 3% | 0hPa | 2.6V | 08:30:00 | 02:10:28 | 00:00:00 | |
| DL1XH-west | 2026-08-31 01:00:37 | 51.37779 | 1.42564 | 302° | 11km/h | 28536m | 6.4m/s | -47.3°C | 0% | 0hPa | 2.5V | 18:12:15 | 02:10:25 | 00:00:00 | |
| DM0DOS-11 | 2026-08-31 01:00:34 | 51.37771 | 1.42577 | 346° | 4km/h | 28501m | 5.6m/s | -47.3°C | 2.9% | 0hPa | 2.5V | 08:30:00 | 02:10:19 | 00:00:00 | |
| DL1XH-west | 2026-08-31 01:00:26 | 51.37761 | 1.42574 | 356° | 5km/h | 28471m | 5.6m/s | -47.2°C | 0% | 0hPa | 2.5V | 18:12:15 | 02:10:14 | 00:00:00 | |
| DL1XH1-15 | 2026-08-31 01:00:25 | 51.37746 | 1.42582 | 336° | 11km/h | 28438m | 5.8m/s | -47.2°C | 2.9% | 0hPa | 2.5V | 08:30:00 | 02:10:08 | 00:00:00 | |
| DM0DOS-11 | 2026-08-31 01:00:23 | 51.37749 | 1.42580 | 341° | 13km/h | 28444m | 4.4m/s | -47.2°C | 2.9% | 0hPa | 2.6V | 08:30:00 | 02:10:09 | 00:00:00 | |
| DL1XH-west | 2026-08-31 01:00:15 | 51.37741 | 1.42585 | 27° | 7km/h | 28409m | 5.5m/s | -47.2°C | 0% | 0hPa | 2.5V | 18:12:15 | 02:10:03 | 00:00:00 | |
| DL1XH1-15 | 2026-08-31 01:00:14 | 51.37736 | 1.42578 | 194° | 4km/h | 28383m | 5.4m/s | -47.4°C | 2.9% | 0hPa | 2.6V | 08:30:00 | 02:09:58 | 00:00:00 | |
| DM0DOS-11 | 2026-08-31 01:00:11 | 51.37736 | 1.42579 | 107° | 2km/h | 28389m | 6.2m/s | -47.4°C | 2.9% | 0hPa | 2.6V | 08:30:00 | 02:09:59 | 00:00:00 | |
| DM0DOS-11 | 2026-08-31 01:00:06 | 51.37724 | 1.42596 | 11° | 5km/h | 28334m | 5.4m/s | -47.8°C | 3% | 0hPa | 2.5V | 08:30:00 | 02:09:49 | 00:00:00 | |
| DL1XH-west | 2026-08-31 01:00:05 | 51.37729 | 1.42591 | 318° | 11km/h | 28349m | 6.3m/s | -47.7°C | 0% | 0hPa | 2.6V | 18:12:15 | 02:09:52 | 00:00:00 | |
| DL1XH1-15 | 2026-08-31 01:00:04 | 51.37723 | 1.42595 | 40° | 9km/h | 28328m | 6.4m/s | -47.9°C | 3% | 0hPa | 2.5V | 08:30:00 | 02:09:48 | 00:00:00 | |
| WEDDY | 2026-08-31 01:00:01 | 51.37724 | 1.42596 | 12° | 5km/h | 28334m | 5.4m/s | -47.8°C | 0.6% | 0hPa | 2.5V | 00:00:00 | 00:00:00 | 00:00:00 | |
| DM0DOS-11 | 2026-08-31 00:59:56 | 51.37724 | 1.42582 | 21° | 4km/h | 28280m | 5.6m/s | -48°C | 3% | 0hPa | 2.5V | 08:30:00 | 02:09:39 | 00:00:00 | |
| DO1YAY-16 | 2026-08-31 00:59:55 | 51.37722 | 1.42581 | 193° | 5km/h | 28296m | 4.4m/s | -47.9°C | 0.5% | -1.0hPa | 2.5V | 00:00:00 | 00:00:00 | 00:00:00 | |
| DL1XH1-15 | 2026-08-31 00:59:54 | 51.37723 | 1.42581 | 22° | 5km/h | 28275m | 4.8m/s | -48°C | 3% | 0hPa | 2.5V | 08:30:00 | 02:09:38 | 00:00:00 | |
| DL1XH-west | 2026-08-31 00:59:54 | 51.37722 | 1.42581 | 193° | 7km/h | 28296m | 4.4m/s | -47.9°C | 0% | 0hPa | 2.5V | 18:12:15 | 02:09:42 | 00:00:00 | |
| HTAHTA | 2026-08-31 00:59:50 | 51.37723 | 1.42581 | 22° | 4km/h | 28275m | 4.8m/s | -48.0°C | 0.6% | -1.0hPa | 2.6V | 00:00:00 | 00:00:00 | 00:00:00 | |
| DM0DOS-11 | 2026-08-31 00:59:46 | 51.37717 | 1.42575 | 180° | 2km/h | 28226m | 6.4m/s | -47.9°C | 3.1% | 0hPa | 2.6V | 08:30:00 | 02:09:29 | 00:00:00 | |
| DJ2DS-15 | 2026-08-31 00:59:45 | 51.37720 | 1.42580 | 38° | 2km/h | 28248m | 6.5m/s | -47.9°C | 0.6% | -1.0hPa | 2.6V | 00:00:00 | 00:00:00 | 00:00:00 | |
| DL1XH1-15 | 2026-08-31 00:59:44 | 51.37718 | 1.42576 | 203° | 7km/h | 28220m | 5.9m/s | -47.9°C | 3.1% | 0hPa | 2.6V | 08:30:00 | 02:09:28 | 00:00:00 | |
| DL1XH-west | 2026-08-31 00:59:44 | 51.37719 | 1.42578 | 35° | 5km/h | 28241m | 5.7m/s | -47.9°C | 0% | 0hPa | 2.5V | 18:12:15 | 02:09:32 | 00:00:00 | |
| DL1XH-west | 2026-08-31 00:59:34 | 51.37724 | 1.42579 | 263° | 2km/h | 28186m | 6.1m/s | -48°C | 0% | 0hPa | 2.6V | 18:12:15 | 02:09:22 | 00:00:00 | |
| DM0DOS-11 | 2026-08-31 00:59:33 | 51.37720 | 1.42581 | 8° | 11km/h | 28164m | 6m/s | -47.8°C | 3% | 0hPa | 2.5V | 08:30:00 | 02:09:18 | 00:00:00 | |
| DO1YAY-16 | 2026-08-31 00:59:24 | 51.37714 | 1.42590 | 267° | 7km/h | 28128m | 6.1m/s | -47.5°C | 0.6% | -1.0hPa | 2.5V | 00:00:00 | 00:00:00 | 00:00:00 | |
| DM0DOS-11 | 2026-08-31 00:59:23 | 51.37712 | 1.42596 | 319° | 5km/h | 28112m | 4.9m/s | -47.4°C | 3% | 0hPa | 2.5V | 08:30:00 | 02:09:08 | 00:00:00 | |
| DL1XH-west | 2026-08-31 00:59:23 | 51.37714 | 1.42590 | 267° | 7km/h | 28127m | 6.1m/s | -47.5°C | 0% | 0hPa | 2.6V | 18:12:15 | 02:09:11 | 00:00:00 | |
| DL1XH1-15 | 2026-08-31 00:59:19 | 51.37711 | 1.42598 | 259° | 2km/h | 28101m | 5.4m/s | -47.3°C | 2.9% | 0hPa | 2.5V | 08:30:00 | 02:09:06 | 00:00:00 | |
| DL1XH-west | 2026-08-31 00:59:12 | 51.37707 | 1.42606 | 307° | 2km/h | 28070m | 6m/s | -47.3°C | 0% | 0hPa | 2.5V | 18:12:15 | 02:09:00 | 00:00:00 | |
| DL1XH1-15 | 2026-08-31 00:59:09 | 51.37716 | 1.42609 | 214° | 11km/h | 28031m | 6.2m/s | -47.3°C | 2.9% | 0hPa | 2.6V | 08:30:00 | 02:08:53 | 00:00:00 | |
| DJ2DS-15 | 2026-08-31 00:59:09 | 51.37710 | 1.42605 | 166° | 5km/h | 28053m | 5.8m/s | -47.3°C | 0.5% | -1.0hPa | 2.5V | 00:00:00 | 00:00:00 | 00:00:00 | |
| DM0DOS-11 | 2026-08-31 00:59:03 | 51.37722 | 1.42620 | 247° | 11km/h | 28014m | 6.2m/s | -47.4°C | 2.9% | 0hPa | 2.5V | 08:30:00 | 02:08:50 | 00:00:00 | |
| DL1XH-west | 2026-08-31 00:59:02 | 51.37722 | 1.42620 | 248° | 11km/h | 28014m | 6.2m/s | -47.4°C | 0% | 0hPa | 2.5V | 18:12:15 | 02:08:50 | 00:00:00 | |
| BIOWL1-15 | 2026-08-31 00:58:59 | 51.37724 | 1.42631 | 240° | 7km/h | 28000m | 5.1m/s | -47.4°C | 0% | 0hPa | 2.6V | 18:12:15 | 02:08:47 | 00:00:00 | |
| WEDDY | 2026-08-31 00:58:58 | 51.37723 | 1.42631 | 241° | 7km/h | 28000m | 5.1m/s | -47.4°C | 0.6% | 0hPa | 2.6V | 00:00:00 | 00:00:00 | 00:00:00 | |
| DM0DOS-11 | 2026-08-31 00:58:53 | 51.37736 | 1.42634 | 254° | 0km/h | 27963m | 5.1m/s | -47.6°C | 2.9% | 0hPa | 2.6V | 08:30:00 | 02:08:40 | 00:00:00 | |
| DL1XH-west | 2026-08-31 00:58:52 | 51.37736 | 1.42634 | 255° | 0km/h | 27963m | 5.1m/s | -47.6°C | 0% | 0hPa | 2.6V | 18:12:15 | 02:08:40 | 00:00:00 | |
| DL1XH1-15 | 2026-08-31 00:58:49 | 51.37730 | 1.42653 | 310° | 13km/h | 27926m | 3.8m/s | -48°C | 3% | 0hPa | 2.6V | 08:30:00 | 02:08:33 | 00:00:00 | |
| HTAHTA | 2026-08-31 00:58:48 | 51.37732 | 1.42648 | 310° | 15km/h | 27931m | 5.1m/s | -47.9°C | 0.6% | -1.0hPa | 2.6V | 00:00:00 | 00:00:00 | 00:00:00 | |
| BIOWL1-15 | 2026-08-31 00:58:44 | 51.37731 | 1.42658 | 149° | 7km/h | 27901m | 5.1m/s | -48.1°C | 0% | 0hPa | 2.6V | 18:12:15 | 02:08:28 | 00:00:00 | |
| DM0DOS-11 | 2026-08-31 00:58:43 | 51.37728 | 1.42660 | 185° | 5km/h | 27910m | 5.1m/s | -48°C | 3% | 0hPa | 2.5V | 08:30:00 | 02:08:30 | 00:00:00 | |
| DL1XH-west | 2026-08-31 00:58:42 | 51.37728 | 1.42660 | 185° | 5km/h | 27911m | 5.1m/s | -48.1°C | 0% | 0hPa | 2.5V | 18:12:15 | 02:08:30 | 00:00:00 | |
| DL1XH1-15 | 2026-08-31 00:58:39 | 51.37729 | 1.42657 | 313° | 4km/h | 27873m | 5.7m/s | -48°C | 3% | 0hPa | 2.6V | 08:30:00 | 02:08:23 | 00:00:00 | |
| BIOWL1-15 | 2026-08-31 00:58:36 | 51.37729 | 1.42658 | 288° | 5km/h | 27868m | 4.8m/s | -48°C | 0% | 0hPa | 2.6V | 18:12:15 | 02:08:22 | 00:00:00 | |
| DM0DOS-11 | 2026-08-31 00:58:33 | 51.37728 | 1.42664 | 291° | 11km/h | 27857m | 6.3m/s | -48°C | 3% | 0hPa | 2.5V | 08:30:00 | 02:08:20 | 00:00:00 | |
| DL1XH-west | 2026-08-31 00:58:31 | 51.37727 | 1.42668 | 290° | 13km/h | 27852m | 5.1m/s | -48°C | 0% | 0hPa | 2.5V | 18:12:15 | 02:08:19 | 00:00:00 | |
| DL1XH1-15 | 2026-08-31 00:58:29 | 51.37731 | 1.42674 | 108° | 5km/h | 27820m | 6m/s | -48°C | 3% | 0hPa | 2.5V | 08:30:00 | 02:08:13 | 00:00:00 | |
| BIOWL1-15 | 2026-08-31 00:58:24 | 51.37731 | 1.42672 | 72° | 5km/h | 27814m | 5.3m/s | -48°C | 0% | 0hPa | 2.5V | 18:12:15 | 02:08:12 | 00:00:00 | |
| DM0DOS-11 | 2026-08-31 00:58:23 | 51.37730 | 1.42668 | 95° | 4km/h | 27804m | 5.8m/s | -48°C | 3% | 0hPa | 2.6V | 08:30:00 | 02:08:10 | 00:00:00 | |
| DL1XH-west | 2026-08-31 00:58:21 | 51.37731 | 1.42667 | 144° | 4km/h | 27798m | 5.5m/s | -48°C | 0% | 0hPa | 2.6V | 18:12:15 | 02:08:09 | 00:00:00 | |
| BIOWL1-15 | 2026-08-31 00:58:15 | 51.37731 | 1.42687 | 252° | 4km/h | 27762m | 5.9m/s | -48.1°C | 0% | 0hPa | 2.5V | 18:12:15 | 02:08:02 | 00:00:00 | |
| DM0DOS-11 | 2026-08-31 00:58:13 | 51.37733 | 1.42686 | 145° | 9km/h | 27751m | 4.9m/s | -48.2°C | 3% | 0hPa | 2.5V | 08:30:00 | 02:08:00 | 00:00:00 | |
| DL1XH-west | 2026-08-31 00:58:11 | 51.37735 | 1.42684 | 137° | 9km/h | 27746m | 5.5m/s | -48.3°C | 0% | 0hPa | 2.6V | 18:12:15 | 02:07:59 | 00:00:00 | |
| DL1XH1-15 | 2026-08-31 00:58:10 | 51.37737 | 1.42682 | 266° | 7km/h | 27715m | 4.3m/s | -48.5°C | 3.1% | 0hPa | 2.6V | 08:30:00 | 02:07:53 | 00:00:00 | |
| BIOWL1-15 | 2026-08-31 00:58:04 | 51.37734 | 1.42699 | 289° | 20km/h | 27698m | 5.6m/s | -48.7°C | 0% | 0hPa | 2.5V | 18:12:15 | 02:07:50 | 00:00:00 | |
| DM0DOS-11 | 2026-08-31 00:58:03 | 51.37735 | 1.42699 | 289° | 20km/h | 27698m | 5.6m/s | -48.7°C | 3.1% | 0hPa | 2.5V | 08:30:00 | 02:07:50 | 00:00:00 | |
| DL1XH-west | 2026-08-31 00:58:00 | 51.37731 | 1.42713 | 289° | 16km/h | 27687m | 5.9m/s | -48.8°C | 0% | 0hPa | 2.5V | 18:12:15 | 02:07:48 | 00:00:00 | |
| DL1XH1-15 | 2026-08-31 00:57:57 | 51.37725 | 1.42725 | 336° | 7km/h | 27660m | 4.9m/s | -48.8°C | 0% | 0hPa | 2.5V | 08:30:00 | 02:07:43 | 00:00:00 | |
| WEDDY | 2026-08-31 00:57:56 | 51.37728 | 1.42723 | 330° | 5km/h | 27671m | 5.4m/s | -48.8°C | 0.7% | 0hPa | 2.6V | 00:00:00 | 00:00:00 | 00:00:00 | |
| DM0DOS-11 | 2026-08-31 00:57:53 | 51.37722 | 1.42729 | 265° | 2km/h | 27644m | 6.3m/s | -48.8°C | 3.1% | 0hPa | 2.6V | 08:30:00 | 02:07:40 | 00:00:00 | |
| DL1XH1-15 | 2026-08-31 00:57:50 | 51.37723 | 1.42759 | 267° | 15km/h | 27607m | 5.9m/s | -48.9°C | 0% | 0hPa | 2.6V | 08:30:00 | 02:07:33 | 00:00:00 | |
| DL1XH-west | 2026-08-31 00:57:49 | 51.37724 | 1.42735 | 261° | 9km/h | 27629m | 5.6m/s | -48.8°C | 0% | 0hPa | 2.5V | 18:12:15 | 02:07:37 | 00:00:00 | |
| DO9LL-15 | 2026-08-31 00:57:47 | 51.37723 | 1.42745 | 278° | 7km/h | 27618m | 4.7m/s | -48.8°C | 3.1% | 0hPa | 2.6V | 00:00:00 | 02:07:35 | 00:00:00 | |
| DM0DOS-11 | 2026-08-31 00:57:43 | 51.37724 | 1.42768 | 305° | 2km/h | 27592m | 5.1m/s | -48.9°C | 3.2% | 0hPa | 2.5V | 08:30:00 | 02:07:30 | 00:00:00 | |
| DL1XH-west | 2026-08-31 00:57:38 | 51.37719 | 1.42765 | 63° | 4km/h | 27571m | 5.4m/s | -48.9°C | 0% | 0hPa | 2.5V | 18:12:15 | 02:07:26 | 00:00:00 | |
| BIOWL1-15 | 2026-08-31 00:57:38 | 51.37725 | 1.42772 | 276° | 5km/h | 27539m | 4.3m/s | -48.7°C | 0% | 0hPa | 2.5V | 18:12:15 | 02:07:20 | 00:00:00 | |
| DL1XH1-15 | 2026-08-31 00:57:37 | 51.37722 | 1.42764 | 208° | 9km/h | 27555m | 5.1m/s | -48.8°C | 0% | 0hPa | 2.6V | 08:30:00 | 02:07:23 | 00:00:00 | |
| WEDDY | 2026-08-31 00:57:35 | 51.37720 | 1.42763 | 189° | 7km/h | 27560m | 4.5m/s | -48.8°C | 0.7% | 0hPa | 2.5V | 00:00:00 | 00:00:00 | 00:00:00 | |
| DB0UT-7 | 2026-08-31 00:57:31 | 51.37725 | 1.42773 | 288° | 15km/h | 27535m | 5.1m/s | -48.7°C | 3.1% | 0hPa | 2.5V | 00:00:00 | 02:07:19 | 00:00:00 | |
| DL1XH1-15 | 2026-08-31 00:57:30 | 51.37719 | 1.42767 | 9° | 13km/h | 27502m | 5.9m/s | -48.6°C | 0% | 0hPa | 2.5V | 08:30:00 | 02:07:13 | 00:00:00 | |
| DL1XH-west | 2026-08-31 00:57:28 | 51.37724 | 1.42772 | 72° | 5km/h | 27518m | 4.4m/s | -48.7°C | 0% | 0hPa | 2.6V | 18:12:15 | 02:07:16 | 00:00:00 | |
| DO1YAY-16 | 2026-08-31 00:57:19 | 51.37711 | 1.42764 | 183° | 5km/h | 27472m | 5.0m/s | -48.6°C | 0.6% | -1.0hPa | 2.5V | 00:00:00 | 00:00:00 | 00:00:00 | |
| DL1XH1-15 | 2026-08-31 00:57:18 | 51.37713 | 1.42769 | 303° | 4km/h | 27450m | 4.9m/s | -48.5°C | 0% | 0hPa | 2.5V | 08:30:00 | 02:07:03 | 00:00:00 | |
| DL1XH-west | 2026-08-31 00:57:17 | 51.37714 | 1.42766 | 244° | 5km/h | 27460m | 5.5m/s | -48.5°C | 0% | 0hPa | 2.6V | 18:12:15 | 02:07:05 | 00:00:00 | |
| WEDDY | 2026-08-31 00:57:15 | 51.37714 | 1.42767 | 285° | 4km/h | 27455m | 5.2m/s | -48.5°C | 0.6% | 0hPa | 2.6V | 00:00:00 | 00:00:00 | 00:00:00 | |
| DM0DOS-11 | 2026-08-31 00:57:12 | 51.37712 | 1.42768 | 82° | 4km/h | 27433m | 5m/s | -48.5°C | 3% | 0hPa | 2.6V | 08:30:00 | 02:07:00 | 00:00:00 | |
| BIOWL1-15 | 2026-08-31 00:57:11 | 51.37709 | 1.42765 | 350° | 9km/h | 27416m | 5.7m/s | -48.6°C | 0% | 0hPa | 2.5V | 18:12:15 | 02:06:57 | 00:00:00 | |
| DL1XH1-15 | 2026-08-31 00:57:08 | 51.37704 | 1.42774 | 252° | 7km/h | 27394m | 5.5m/s | -48.7°C | 0% | 0hPa | 2.6V | 08:30:00 | 02:06:53 | 00:00:00 | |
| DL1XH-west | 2026-08-31 00:57:07 | 51.37705 | 1.42769 | 314° | 9km/h | 27406m | 5.2m/s | -48.6°C | 0% | 0hPa | 2.5V | 18:12:15 | 02:06:55 | 00:00:00 | |
| DM0DOS-11 | 2026-08-31 00:57:07 | 51.37706 | 1.42784 | 266° | 9km/h | 27377m | 5.2m/s | -48.8°C | 3.1% | 0hPa | 2.5V | 08:30:00 | 02:06:50 | 00:00:00 | |
| BIOWL1-15 | 2026-08-31 00:57:00 | 51.37707 | 1.42790 | 195° | 0km/h | 27360m | 5.3m/s | -48.9°C | 0% | 0hPa | 2.6V | 18:12:15 | 02:06:47 | 00:00:00 | |
| DL1XH1-15 | 2026-08-31 00:56:58 | 51.37700 | 1.42793 | 337° | 16km/h | 27338m | 5.7m/s | 0°C | 0% | 0hPa | 2.5V | 08:30:00 | 02:06:43 | 00:00:00 | |
| DL1XH-west | 2026-08-31 00:56:56 | 51.37703 | 1.42791 | 342° | 13km/h | 27344m | 6.5m/s | -48.9°C | 0% | 0hPa | 2.5V | 18:12:15 | 02:06:44 | 00:00:00 | |
| WEDDY | 2026-08-31 00:56:55 | 51.37703 | 1.42790 | 343° | 13km/h | 27345m | 6.5m/s | -48.9°C | 0.6% | 0hPa | 2.6V | 00:00:00 | 00:00:00 | 00:00:00 | |
| DM0DOS-11 | 2026-08-31 00:56:53 | 51.37689 | 1.42803 | 319° | 13km/h | 27321m | 5.4m/s | -49°C | 3.1% | 0hPa | 2.6V | 08:30:00 | 02:06:40 | 00:00:00 | |
| BIOWL1-15 | 2026-08-31 00:56:48 | 51.37681 | 1.42816 | 313° | 11km/h | 27298m | 5.3m/s | -49°C | 0% | 0hPa | 2.6V | 18:12:15 | 02:06:36 | 00:00:00 | |
| DM0DOS-11 | 2026-08-31 00:56:48 | 51.37674 | 1.42824 | 328° | 13km/h | 27264m | 5.7m/s | -49°C | 3.1% | 0hPa | 2.6V | 08:30:00 | 02:06:30 | 00:00:00 | |
| DL1XH1-15 | 2026-08-31 00:56:47 | 51.37678 | 1.42822 | 308° | 0km/h | 27281m | 5.6m/s | 0°C | 0% | 0hPa | 2.5V | 00:00:00 | 02:06:33 | 00:00:00 | |
| DL1XH-west | 2026-08-31 00:56:45 | 51.37678 | 1.42822 | 309° | 0km/h | 27281m | 5.6m/s | -48.9°C | 0% | 0hPa | 2.5V | 18:12:15 | 02:06:33 | 00:00:00 | |
| DO9LL-15 | 2026-08-31 00:56:43 | 51.37677 | 1.42822 | 338° | 16km/h | 27270m | 6.2m/s | -48.9°C | 3.1% | 0hPa | 2.6V | 00:00:00 | 02:06:31 | 00:00:00 | |
| DL1XH1-15 | 2026-08-31 00:56:40 | 51.37650 | 1.42861 | 321° | 18km/h | 27225m | 6.3m/s | 0°C | 0% | 0hPa | 2.6V | 00:00:00 | 02:06:23 | 00:00:00 | |
| DL1XH-west | 2026-08-31 00:56:34 | 51.37647 | 1.42865 | 328° | 18km/h | 27219m | 5.3m/s | -49.3°C | 0% | 0hPa | 2.5V | 18:12:15 | 02:06:22 | 00:00:00 | |
| DM0DOS-11 | 2026-08-31 00:56:32 | 51.37641 | 1.42870 | 333° | 9km/h | 27209m | 6.5m/s | -49.4°C | 3.1% | 0hPa | 2.5V | 08:30:00 | 02:06:20 | 00:00:00 | |
| DL1XH-west | 2026-08-31 00:56:24 | 51.37627 | 1.42904 | 296° | 24km/h | 27163m | 5.9m/s | -49.7°C | 0% | 0hPa | 2.6V | 18:12:15 | 02:06:12 | 00:00:00 | |
| DM0DOS-11 | 2026-08-31 00:56:22 | 51.37621 | 1.42920 | 304° | 24km/h | 27152m | 5m/s | -49.7°C | 3.2% | 0hPa | 2.5V | 08:30:00 | 02:06:10 | 00:00:00 | |
| DB0UT-7 | 2026-08-31 00:56:18 | 51.37604 | 1.42941 | 341° | 15km/h | 27129m | 6.2m/s | -49.7°C | 3.2% | 0hPa | 2.6V | 00:00:00 | 00:00:00 | 00:00:00 | |
| DL1XH1-15 | 2026-08-31 00:56:17 | 51.37598 | 1.42947 | 296° | 9km/h | 27106m | 6.3m/s | 0°C | 0% | 0hPa | 2.6V | 00:00:00 | 02:06:02 | 00:00:00 | |
| DM0DOS-11 | 2026-08-31 00:56:16 | 51.37595 | 1.42957 | 292° | 18km/h | 27095m | 4.7m/s | -49.8°C | 3.2% | 0hPa | 2.5V | 08:30:00 | 02:06:00 | 00:00:00 | |
| DL1XH-west | 2026-08-31 00:56:13 | 51.37597 | 1.42951 | 296° | 15km/h | 27100m | 5.4m/s | -49.8°C | 0% | 0hPa | 2.6V | 18:12:15 | 02:06:01 | 00:00:00 | |
| DO9LL-15 | 2026-08-31 00:56:12 | 51.37595 | 1.42956 | 293° | 16km/h | 27095m | 4.6m/s | -49.8°C | 3.2% | 0hPa | 2.5V | 00:00:00 | 02:06:00 | 00:00:00 | |
| DJ2DS-15 | 2026-08-31 00:56:09 | 51.37588 | 1.42983 | 309° | 16km/h | 27073m | 5.0m/s | -49.7°C | 0.6% | -1.0hPa | 2.6V | 00:00:00 | 00:00:00 | 00:00:00 | |
| DM0DOS-11 | 2026-08-31 00:56:04 | 51.37562 | 1.43008 | 320° | 13km/h | 27040m | 5.3m/s | -49.8°C | 3.1% | 0hPa | 2.6V | 08:30:00 | 02:05:50 | 00:00:00 | |
| DL1XH-west | 2026-08-31 00:56:02 | 51.37558 | 1.43014 | 314° | 13km/h | 27029m | 6.6m/s | -49.9°C | 0% | 0hPa | 2.5V | 18:12:15 | 02:05:48 | 00:00:00 | |
| DM0DOS-11 | 2026-08-31 00:55:58 | 51.37542 | 1.43052 | 314° | 18km/h | 26985m | 6.2m/s | -50.4°C | 3.3% | 0hPa | 2.5V | 08:30:00 | 02:05:40 | 00:00:00 | |
| DL1XH-west | 2026-08-31 00:55:52 | 51.37542 | 1.43052 | 314° | 18km/h | 26985m | 6.2m/s | -50.4°C | 0% | 0hPa | 2.5V | 18:12:15 | 02:05:40 | 00:00:00 | |
| DO1YAY-16 | 2026-08-31 00:55:46 | 51.37522 | 1.43083 | 303° | 15km/h | 26953m | 4.9m/s | -50.9°C | 0.6% | -1.0hPa | 2.6V | 00:00:00 | 00:00:00 | 00:00:00 | |
| DM0DOS-11 | 2026-08-31 00:55:43 | 51.37508 | 1.43110 | 310° | 26km/h | 26930m | 5.2m/s | -51°C | 3.5% | 0hPa | 2.6V | 08:30:00 | 02:05:30 | 00:00:00 | |
| DL1XH-west | 2026-08-31 00:55:42 | 51.37507 | 1.43110 | 311° | 26km/h | 26930m | 5.2m/s | -51.1°C | 0% | 0hPa | 2.6V | 18:12:15 | 02:05:30 | 00:00:00 | |
| BIOWL1-15 | 2026-08-31 00:55:41 | 51.37504 | 1.43118 | 306° | 24km/h | 26924m | 6.5m/s | -51.1°C | 0% | 0hPa | 2.5V | 18:12:15 | 02:05:29 | 00:00:00 | |
| BIOWL9-15 | 2026-08-31 00:55:38 | 51.37485 | 1.43155 | 312° | 15km/h | 26891m | 5.6m/s | -51.0°C | 0.7% | -1.0hPa | 2.6V | 00:00:00 | 00:00:00 | 00:00:00 | |
| DM0DOS-11 | 2026-08-31 00:55:37 | 51.37481 | 1.43169 | 284° | 13km/h | 26874m | 4.6m/s | -50.9°C | 3.4% | 0hPa | 2.6V | 08:30:00 | 02:05:20 | 00:00:00 | |
| DL1XH-west | 2026-08-31 00:55:32 | 51.37481 | 1.43169 | 284° | 13km/h | 26874m | 4.6m/s | -51°C | 0% | 0hPa | 2.6V | 18:12:15 | 02:05:20 | 00:00:00 | |
| BIOWL1-15 | 2026-08-31 00:55:28 | 51.37466 | 1.43201 | 313° | 16km/h | 26840m | 5m/s | -51°C | 0% | 0hPa | 2.6V | 18:12:15 | 02:05:14 | 00:00:00 | |
| DM0DOS-11 | 2026-08-31 00:55:23 | 51.37452 | 1.43219 | 325° | 20km/h | 26818m | 4.3m/s | -50.9°C | 3.5% | 0hPa | 2.5V | 08:30:00 | 02:05:10 | 00:00:00 | |
| DL1XH-west | 2026-08-31 00:55:21 | 51.37448 | 1.43224 | 317° | 16km/h | 26813m | 5.9m/s | -50.9°C | 0% | 0hPa | 2.6V | 18:12:15 | 02:05:09 | 00:00:00 | |
| DM0DOS-11 | 2026-08-31 00:55:17 | 51.37424 | 1.43260 | 326° | 13km/h | 26764m | 5.6m/s | -51.1°C | 3.6% | 0hPa | 2.5V | 08:30:00 | 02:05:00 | 00:00:00 | |
| BIOWL1-15 | 2026-08-31 00:55:14 | 51.37431 | 1.43254 | 336° | 18km/h | 26775m | 4.6m/s | -51.1°C | 0% | 0hPa | 2.6V | 18:12:15 | 02:05:02 | 00:00:00 | |
| DL1XH-west | 2026-08-31 00:55:10 | 51.37419 | 1.43267 | 314° | 13km/h | 26754m | 5.1m/s | 0°C | 0% | 0hPa | 2.5V | 18:12:15 | 02:04:58 | 00:00:00 | |
| BIOWL9-15 | 2026-08-31 00:55:07 | 51.37408 | 1.43284 | 308° | 15km/h | 26731m | 5.7m/s | -51.0°C | 0.7% | -1.0hPa | 2.6V | 00:00:00 | 00:00:00 | 00:00:00 | |
| DM0DOS-11 | 2026-08-31 00:55:03 | 51.37400 | 1.43299 | 334° | 13km/h | 26710m | 6.1m/s | -50.9°C | 3.5% | 0hPa | 2.6V | 08:30:00 | 02:04:50 | 00:00:00 | |
| DM0DOS-11 | 2026-08-31 00:54:57 | 51.37369 | 1.43328 | 336° | 15km/h | 26658m | 4.9m/s | -50.8°C | 3.4% | 0hPa | 2.6V | 08:30:00 | 02:04:40 | 00:00:00 | |
| BIOWL1-15 | 2026-08-31 00:54:51 | 51.37366 | 1.43331 | 325° | 15km/h | 26653m | 5.7m/s | -50.7°C | 0% | 0hPa | 2.6V | 18:12:15 | 02:04:39 | 00:00:00 | |
| BIOWL1-15 | 2026-08-31 00:54:41 | 51.37336 | 1.43358 | 327° | 13km/h | 26599m | 5m/s | -51°C | 0% | 0hPa | 2.5V | 18:12:15 | 02:04:29 | 00:00:00 | |
| HTAHTA | 2026-08-31 00:54:39 | 51.37329 | 1.43364 | 331° | 18km/h | 26588m | 5.1m/s | -51.0°C | 0.7% | -1.0hPa | 2.6V | 00:00:00 | 00:00:00 | 00:00:00 | |
| DM0DOS-11 | 2026-08-31 00:54:37 | 51.37309 | 1.43402 | 308° | 15km/h | 26551m | 4.7m/s | -50.8°C | 3.4% | 0hPa | 2.6V | 08:30:00 | 02:04:20 | 00:00:00 | |
| BIOWL1-15 | 2026-08-31 00:54:28 | 51.37304 | 1.43427 | 279° | 15km/h | 26525m | 4.6m/s | -50.8°C | 0% | 0hPa | 2.6V | 18:12:15 | 02:04:15 | 00:00:00 | |
| DM0DOS-11 | 2026-08-31 00:54:25 | 51.37291 | 1.43454 | 308° | 22km/h | 26498m | 5.1m/s | -50.7°C | 3.4% | 0hPa | 2.6V | 08:30:00 | 02:04:10 | 00:00:00 | |
| DJ2DS-15 | 2026-08-31 00:54:20 | 51.37284 | 1.43468 | 314° | 20km/h | 26489m | 5.2m/s | -50.7°C | 0.6% | -1.0hPa | 2.5V | 00:00:00 | 00:00:00 | 00:00:00 | |
| DO9LL-15 | 2026-08-31 00:54:18 | 51.37275 | 1.43479 | 326° | 16km/h | 26478m | 4.9m/s | -50.6°C | 3.4% | 0hPa | 2.5V | 00:00:00 | 02:04:06 | 00:00:00 | |
| DM0DOS-11 | 2026-08-31 00:54:13 | 51.37259 | 1.43517 | 301° | 22km/h | 26444m | 5.5m/s | -50.7°C | 3.3% | 0hPa | 2.5V | 08:30:00 | 02:04:00 | 00:00:00 | |
| DO1YAY-16 | 2026-08-31 00:54:13 | 51.37258 | 1.43517 | 301° | 20km/h | 26445m | 5.5m/s | -50.7°C | 0.6% | -1.0hPa | 2.5V | 00:00:00 | 00:00:00 | 00:00:00 | |
| WEDDY | 2026-08-31 00:54:09 | 51.37249 | 1.43539 | 302° | 22km/h | 26430m | 5.7m/s | -50.8°C | 0.7% | 0hPa | 2.5V | 00:00:00 | 00:00:00 | 00:00:00 | |
| DM0DOS-11 | 2026-08-31 00:54:08 | 51.37223 | 1.43581 | 305° | 13km/h | 26388m | 5.5m/s | -51°C | 3.4% | 0hPa | 2.5V | 08:30:00 | 02:03:49 | 00:00:00 | |
| BIOWL1-15 | 2026-08-31 00:54:05 | 51.37238 | 1.43566 | 322° | 20km/h | 26409m | 5.9m/s | -50.8°C | 0% | 0hPa | 2.6V | 18:12:15 | 02:03:53 | 00:00:00 | |
| DB0UT-7 | 2026-08-31 00:54:05 | 51.37238 | 1.43566 | 323° | 15km/h | 26409m | 5.8m/s | -50.8°C | 3.4% | 0hPa | 2.5V | 00:00:00 | 02:03:53 | 00:00:00 | |
| BIOWL9-15 | 2026-08-31 00:54:04 | 51.37233 | 1.43570 | 330° | 18km/h | 26404m | 4.4m/s | -50.9°C | 0.6% | -1.0hPa | 2.5V | 00:00:00 | 00:00:00 | 00:00:00 | |
| DM0DOS-11 | 2026-08-31 00:53:56 | 51.37204 | 1.43638 | 316° | 15km/h | 26332m | 5.5m/s | -51.4°C | 3.5% | 0hPa | 2.5V | 08:30:00 | 02:03:38 | 00:00:00 | |
| BIOWL1-15 | 2026-08-31 00:53:55 | 51.37204 | 1.43638 | 317° | 15km/h | 26332m | 5.5m/s | -51.4°C | 0% | 0hPa | 2.5V | 18:12:15 | 02:03:38 | 00:00:00 | |
| BIOWL1-15 | 2026-08-31 00:53:42 | 51.37189 | 1.43686 | 243° | 9km/h | 26273m | 5.1m/s | -51.2°C | 0% | 0hPa | 2.6V | 18:12:15 | 02:03:27 | 00:00:00 | |
| HTAHTA | 2026-08-31 00:53:37 | 51.37190 | 1.43692 | 286° | 7km/h | 26263m | 6.1m/s | -51.2°C | 0.7% | -1.0hPa | 2.6V | 00:00:00 | 00:00:00 | 00:00:00 | |
| BIOWL9-15 | 2026-08-31 00:53:34 | 51.37185 | 1.43702 | 307° | 5km/h | 26242m | 5.1m/s | -51.1°C | 0.7% | -1.0hPa | 2.6V | 00:00:00 | 00:00:00 | 00:00:00 | |
| DM0DOS-11 | 2026-08-31 00:53:33 | 51.37180 | 1.43711 | 320° | 15km/h | 26226m | 6.1m/s | -51°C | 3.5% | 0hPa | 2.6V | 08:30:00 | 02:03:18 | 00:00:00 | |
| BIOWL1-15 | 2026-08-31 00:53:29 | 51.37170 | 1.43728 | 294° | 9km/h | 26199m | 5.5m/s | -50.9°C | 0% | 0hPa | 2.6V | 18:12:15 | 02:03:13 | 00:00:00 | |
| WEDDY | 2026-08-31 00:53:27 | 51.37174 | 1.43719 | 319° | 13km/h | 26215m | 5.8m/s | -51.0°C | 0.7% | 0hPa | 2.5V | 00:00:00 | 00:00:00 | 00:00:00 | |
| DM0DOS-11 | 2026-08-31 00:53:23 | 51.37165 | 1.43745 | 264° | 5km/h | 26171m | 5.5m/s | -50.8°C | 3.5% | 0hPa | 2.5V | 08:30:00 | 02:03:08 | 00:00:00 | |
| BIOWL1-15 | 2026-08-31 00:53:19 | 51.37163 | 1.43754 | 310° | 11km/h | 26155m | 5.2m/s | -50.8°C | 0% | 0hPa | 2.6V | 18:12:15 | 02:03:05 | 00:00:00 | |
| DO9LL-15 | 2026-08-31 00:53:16 | 51.37161 | 1.43757 | 315° | 13km/h | 26150m | 4.3m/s | -50.8°C | 3.4% | 0hPa | 2.5V | 00:00:00 | 02:03:04 | 08:30:00 | |
| DM0DOS-11 | 2026-08-31 00:53:13 | 51.37153 | 1.43779 | 293° | 15km/h | 26117m | 5.6m/s | -50.8°C | 3.4% | 0hPa | 2.6V | 08:30:00 | 02:02:58 | 00:00:00 | |
| BIOWL1-15 | 2026-08-31 00:53:07 | 51.37149 | 1.43794 | 291° | 9km/h | 26102m | 6.1m/s | -50.9°C | 0% | 0hPa | 2.5V | 18:12:15 | 02:02:55 | 00:00:00 | |
| HTAHTA | 2026-08-31 00:53:06 | 51.37148 | 1.43800 | 303° | 5km/h | 26091m | 5.3m/s | -50.9°C | 0.7% | -1.0hPa | 2.6V | 00:00:00 | 00:00:00 | 00:00:00 | |
| DM0DOS-11 | 2026-08-31 00:53:03 | 51.37141 | 1.43815 | 302° | 7km/h | 26064m | 5.7m/s | -50.9°C | 3.4% | 0hPa | 2.6V | 08:30:00 | 02:02:48 | 00:00:00 | |
| BIOWL1-15 | 2026-08-31 00:52:59 | 51.37138 | 1.43829 | 281° | 18km/h | 26048m | 5.6m/s | -50.9°C | 0% | 0hPa | 2.5V | 18:12:15 | 02:02:45 | 00:00:00 | |
| DM0DOS-11 | 2026-08-31 00:52:53 | 51.37143 | 1.43883 | 267° | 22km/h | 26010m | 5.7m/s | -51°C | 3.5% | 0hPa | 2.5V | 08:30:00 | 02:02:38 | 00:00:00 | |
| DB0UT-7 | 2026-08-31 00:52:52 | 51.37141 | 1.43868 | 251° | 15km/h | 26022m | 4.5m/s | -51.0°C | 3.4% | 0hPa | 2.5V | 00:00:00 | 00:00:00 | 00:00:00 | |
| DO9LL-15 | 2026-08-31 00:52:46 | 51.37142 | 1.43911 | 266° | 16km/h | 25989m | 5.4m/s | -50.9°C | 3.4% | 0hPa | 2.5V | 00:00:00 | 02:02:34 | 00:00:00 | |
| WEDDY | 2026-08-31 00:52:45 | 51.37142 | 1.43911 | 267° | 9km/h | 25989m | 5.4m/s | -51.0°C | 0.7% | 0hPa | 2.5V | 00:00:00 | 00:00:00 | 00:00:00 | |
| DM0DOS-11 | 2026-08-31 00:52:43 | 51.37142 | 1.43935 | 272° | 11km/h | 25956m | 6m/s | -51.1°C | 3.5% | 0hPa | 2.5V | 08:30:00 | 02:02:28 | 00:00:00 | |
| DO1YAY-16 | 2026-08-31 00:52:40 | 51.37142 | 1.43935 | 272° | 9km/h | 25957m | 6.0m/s | -51.1°C | 0.7% | -1.0hPa | 2.6V | 00:00:00 | 00:00:00 | 00:00:00 | |
| HTAHTA | 2026-08-31 00:52:35 | 51.37148 | 1.43969 | 259° | 20km/h | 25924m | 4.9m/s | -51.3°C | 0.7% | -1.0hPa | 2.6V | 00:00:00 | 00:00:00 | 00:00:00 | |
| DM0DOS-11 | 2026-08-31 00:52:33 | 51.37150 | 1.43992 | 278° | 13km/h | 25901m | 5.4m/s | -51.3°C | 3.5% | 0hPa | 2.6V | 08:30:00 | 02:02:18 | 00:00:00 | |
| DM0DOS-11 | 2026-08-31 00:52:24 | 51.37153 | 1.44071 | 251° | 26km/h | 25846m | 4.5m/s | -51.3°C | 3.5% | 0hPa | 2.6V | 08:30:00 | 02:02:08 | 00:00:00 | |
| DL1XH-west | 2026-08-31 00:52:22 | 51.37149 | 1.44050 | 258° | 26km/h | 25856m | 6.1m/s | -51.3°C | 0% | 0hPa | 2.5V | 18:12:15 | 02:02:10 | 00:00:00 | |
| DB0UT-7 | 2026-08-31 00:52:22 | 51.37149 | 1.44050 | 259° | 26km/h | 25857m | 6.1m/s | -51.2°C | 3.5% | 0hPa | 2.5V | 00:00:00 | 02:02:10 | 00:00:00 | |
| DO9LL-15 | 2026-08-31 00:52:16 | 51.37164 | 1.44098 | 227° | 13km/h | 25824m | 5.5m/s | -51.3°C | 3.5% | 0hPa | 2.5V | 00:00:00 | 02:02:04 | 00:00:00 | |
| DM0DOS-11 | 2026-08-31 00:52:13 | 51.37172 | 1.44126 | 232° | 9km/h | 25789m | 5.7m/s | -51.4°C | 3.6% | 0hPa | 2.5V | 08:30:00 | 02:01:58 | 00:00:00 | |
| BIOWL1-15 | 2026-08-31 00:52:10 | 51.37172 | 1.44126 | 233° | 9km/h | 25789m | 5.7m/s | -51.4°C | 0% | 0hPa | 2.5V | 18:12:15 | 02:01:58 | 00:00:00 | |
| DL1XH-west | 2026-08-31 00:52:08 | 51.37175 | 1.44134 | 239° | 15km/h | 25778m | 6.5m/s | -51.4°C | 0% | 0hPa | 2.6V | 18:12:15 | 02:01:56 | 00:00:00 | |
| HTAHTA | 2026-08-31 00:52:04 | 51.37186 | 1.44157 | 215° | 15km/h | 25755m | 6.1m/s | -51.4°C | 0.7% | -1.0hPa | 2.6V | 00:00:00 | 00:00:00 | 00:00:00 | |
| DM0DOS-11 | 2026-08-31 00:52:03 | 51.37196 | 1.44162 | 209° | 5km/h | 25732m | 5.9m/s | -51.4°C | 3.6% | 0hPa | 2.6V | 08:30:00 | 02:01:48 | 00:00:00 | |
| BIOWL1-15 | 2026-08-31 00:51:59 | 51.37197 | 1.44163 | 224° | 5km/h | 25727m | 5.1m/s | -51.4°C | 0% | 0hPa | 2.5V | 18:12:15 | 02:01:47 | 00:00:00 | |
| DL1XH-west | 2026-08-31 00:51:55 | 51.37205 | 1.44159 | 160° | 15km/h | 25699m | 4.9m/s | -51.3°C | 0% | 0hPa | 2.6V | 18:12:15 | 02:01:42 | 00:00:00 | |
| DM0DOS-11 | 2026-08-31 00:51:53 | 51.37220 | 1.44161 | 192° | 13km/h | 25677m | 6.3m/s | -51.3°C | 3.5% | 0hPa | 2.5V | 08:30:00 | 02:01:38 | 00:00:00 | |
| BIOWL1-15 | 2026-08-31 00:51:50 | 51.37226 | 1.44161 | 164° | 11km/h | 25665m | 5.4m/s | 0°C | 0% | 0hPa | 2.6V | 18:12:15 | 02:01:36 | 00:00:00 | |
| DL1XH-west | 2026-08-31 00:51:44 | 51.37234 | 1.44159 | 163° | 5km/h | 25637m | 5.5m/s | -51.4°C | 0% | 0hPa | 2.6V | 18:12:15 | 02:01:31 | 00:00:00 | |
| DM0DOS-11 | 2026-08-31 00:51:44 | 51.37239 | 1.44150 | 128° | 15km/h | 25620m | 4.7m/s | -51.4°C | 3.5% | 0hPa | 2.5V | 08:30:00 | 02:01:28 | 00:00:00 | |
| WEDDY | 2026-08-31 00:51:43 | 51.37232 | 1.44159 | 191° | 5km/h | 25643m | 5.1m/s | -51.4°C | 0.7% | 0hPa | 2.6V | 00:00:00 | 00:00:00 | 00:00:00 | |
| DB0UT-7 | 2026-08-31 00:51:42 | 51.37235 | 1.44158 | 137° | 13km/h | 25631m | 6.4m/s | -51.4°C | 3.5% | 0hPa | 2.6V | 00:00:00 | 00:00:00 | 00:00:00 | |
| DO1YAY-16 | 2026-08-31 00:51:38 | 51.37244 | 1.44143 | 153° | 13km/h | 25609m | 5.6m/s | -51.5°C | 0.7% | -1.0hPa | 2.6V | 00:00:00 | 00:00:00 | 00:00:00 | |
| DM0DOS-11 | 2026-08-31 00:51:36 | 51.37261 | 1.44118 | 59° | 4km/h | 25564m | 5.3m/s | -51.8°C | 3.6% | 0hPa | 2.6V | 08:30:00 | 02:01:18 | 00:00:00 | |
| DL1XH-west | 2026-08-31 00:51:34 | 51.37257 | 1.44132 | 133° | 16km/h | 25586m | 5.5m/s | -51.7°C | 0% | 0hPa | 2.5V | 18:12:15 | 02:01:22 | 00:00:00 | |
| DL1XH-west | 2026-08-31 00:51:25 | 51.37261 | 1.44106 | 123° | 7km/h | 25530m | 6m/s | -51.9°C | 0.1% | 0hPa | 2.6V | 18:12:15 | 02:01:12 | 00:00:00 | |
| DM0DOS-11 | 2026-08-31 00:51:23 | 51.37262 | 1.44089 | 78° | 16km/h | 25507m | 5.1m/s | -52°C | 3.6% | 0hPa | 2.6V | 08:30:00 | 02:01:08 | 00:00:00 | |
| WEDDY | 2026-08-31 00:51:23 | 51.37261 | 1.44106 | 124° | 7km/h | 25530m | 6.0m/s | -51.9°C | 0.8% | 0hPa | 2.5V | 00:00:00 | 00:00:00 | 00:00:00 | |
| DJ2DS-15 | 2026-08-31 00:51:20 | 51.37262 | 1.44089 | 78° | 16km/h | 25507m | 5.1m/s | -52.0°C | 0.7% | -1.0hPa | 2.5V | 00:00:00 | 00:00:00 | 00:00:00 | |
| DO9LL-15 | 2026-08-31 00:51:16 | 51.37255 | 1.44068 | 46° | 15km/h | 25485m | 5.1m/s | -51.9°C | 3.7% | 0hPa | 2.5V | 00:00:00 | 02:01:04 | 00:00:00 | |
| DM0DOS-11 | 2026-08-31 00:51:14 | 51.37241 | 1.44042 | 38° | 7km/h | 25451m | 5.1m/s | -51.9°C | 3.6% | 0hPa | 2.5V | 08:30:00 | 02:00:58 | 00:00:00 | |
| DL1XH-west | 2026-08-31 00:51:12 | 51.37244 | 1.44048 | 46° | 15km/h | 25462m | 6.4m/s | -52°C | 0.1% | 0hPa | 2.6V | 18:12:15 | 02:01:00 | 00:00:00 | |
| DB0UT-7 | 2026-08-31 00:51:10 | 51.37240 | 1.44042 | 39° | 15km/h | 25451m | 5.0m/s | -51.9°C | 3.6% | 0hPa | 2.5V | 00:00:00 | 02:00:58 | 00:00:00 | |
| DO1YAY-16 | 2026-08-31 00:51:07 | 51.37237 | 1.44032 | 69° | 13km/h | 25434m | 4.5m/s | -51.9°C | 0.7% | -1.0hPa | 2.6V | 00:00:00 | 00:00:00 | 00:00:00 | |
| DM0DOS-11 | 2026-08-31 00:51:03 | 51.37213 | 1.43999 | 31° | 20km/h | 25396m | 4.7m/s | -51.7°C | 3.6% | 0hPa | 2.6V | 08:30:00 | 02:00:48 | 00:00:00 | |
| HTAHTA | 2026-08-31 00:51:02 | 51.37222 | 1.44008 | 33° | 20km/h | 25407m | 6.3m/s | -51.8°C | 0.7% | -1.0hPa | 2.6V | 00:00:00 | 00:00:00 | 00:00:00 | |
| DL1XH-west | 2026-08-31 00:51:02 | 51.37222 | 1.44008 | 34° | 20km/h | 25407m | 6.3m/s | -51.8°C | 0% | 0hPa | 2.6V | 18:12:15 | 02:00:50 | 00:00:00 | |
| DM0DOS-11 | 2026-08-31 00:50:55 | 51.37184 | 1.43971 | 8° | 11km/h | 25342m | 4.7m/s | -51.7°C | 3.6% | 0hPa | 2.6V | 08:30:00 | 02:00:38 | 00:00:00 | |
| DL1XH-west | 2026-08-31 00:50:51 | 51.37187 | 1.43972 | 23° | 9km/h | 25347m | 5.3m/s | -51.7°C | 0% | 0hPa | 2.5V | 18:12:15 | 02:00:39 | 00:00:00 | |
| DO9LL-15 | 2026-08-31 00:50:46 | 51.37172 | 1.43966 | 13° | 18km/h | 25321m | 4.8m/s | -51.7°C | 3.6% | 0hPa | 2.5V | 00:00:00 | 02:00:34 | 00:00:00 | |
| DM0DOS-11 | 2026-08-31 00:50:43 | 51.37148 | 1.43967 | 18° | 16km/h | 25288m | 4.3m/s | -51.6°C | 3.6% | 0hPa | 2.5V | 08:30:00 | 02:00:28 | 00:00:00 | |
| DL1XH-west | 2026-08-31 00:50:40 | 51.37148 | 1.43967 | 18° | 16km/h | 25288m | 4.3m/s | -51.6°C | 0% | 0hPa | 2.5V | 18:12:15 | 02:00:28 | 00:00:00 | |
| DB0UT-7 | 2026-08-31 00:50:40 | 51.37148 | 1.43967 | 19° | 13km/h | 25288m | 4.3m/s | -51.6°C | 3.6% | 0hPa | 2.6V | 00:00:00 | 00:00:00 | 00:00:00 | |
| DO1YAY-16 | 2026-08-31 00:50:36 | 51.37131 | 1.43961 | 9° | 18km/h | 25266m | 4.9m/s | -51.6°C | 0.7% | -1.0hPa | 2.6V | 00:00:00 | 00:00:00 | 00:00:00 | |
| DM0DOS-11 | 2026-08-31 00:50:35 | 51.37105 | 1.43953 | 336° | 18km/h | 25233m | 4.4m/s | -51.7°C | 3.6% | 0hPa | 2.6V | 08:30:00 | 02:00:18 | 00:00:00 | |
| DL1XH-west | 2026-08-31 00:50:30 | 51.37105 | 1.43953 | 336° | 18km/h | 25233m | 4.4m/s | -51.7°C | 0% | 0hPa | 2.6V | 18:12:15 | 02:00:18 | 00:00:00 | |
| DM0DOS-11 | 2026-08-31 00:50:23 | 51.37054 | 1.43962 | 9° | 20km/h | 25180m | 5.5m/s | -51.8°C | 3.6% | 0hPa | 2.6V | 08:30:00 | 02:00:08 | 00:00:00 | |
| DL1XH-west | 2026-08-31 00:50:20 | 51.37055 | 1.43962 | 10° | 20km/h | 25180m | 5.5m/s | -51.8°C | 0% | 0hPa | 2.6V | 18:12:15 | 02:00:08 | 00:00:00 | |
| DO9LL-15 | 2026-08-31 00:50:16 | 51.37039 | 1.43965 | 320° | 13km/h | 25159m | 4.8m/s | -51.8°C | 3.6% | 0hPa | 2.5V | 00:00:00 | 02:00:04 | 00:00:00 | |
| DM0DOS-11 | 2026-08-31 00:50:12 | 51.37012 | 1.43984 | 2° | 15km/h | 25112m | 5.7m/s | -51.9°C | 3.5% | 0hPa | 2.6V | 08:30:00 | 01:59:55 | 00:00:00 | |
| DL1XH-west | 2026-08-31 00:50:10 | 51.37018 | 1.43982 | 341° | 13km/h | 25122m | 5.2m/s | -51.9°C | 0.1% | 0hPa | 2.6V | 18:12:15 | 01:59:57 | 00:00:00 | |
| DJ2DS-15 | 2026-08-31 00:50:08 | 51.37015 | 1.43983 | 348° | 13km/h | 25117m | 4.3m/s | -51.9°C | 0.7% | -1.0hPa | 2.6V | 00:00:00 | 00:00:00 | 00:00:00 | |
| DO1YAY-16 | 2026-08-31 00:50:05 | 51.37001 | 1.43979 | 13° | 13km/h | 25095m | 5.8m/s | -51.8°C | 0.7% | -1.0hPa | 2.6V | 00:00:00 | 00:00:00 | 00:00:00 | |
| DM0DOS-11 | 2026-08-31 00:50:02 | 51.36973 | 1.43987 | 339° | 20km/h | 25058m | 5.6m/s | -51.9°C | 3.5% | 0hPa | 2.6V | 08:30:00 | 01:59:45 | 00:00:00 | |
| DL1XH-west | 2026-08-31 00:49:58 | 51.36977 | 1.43985 | 348° | 20km/h | 25064m | 4.8m/s | -51.9°C | 0% | 0hPa | 2.5V | 18:12:15 | 01:59:46 | 00:00:00 | |
| DM0DOS-11 | 2026-08-31 00:49:52 | 51.36950 | 1.43996 | 354° | 5km/h | 25005m | 5.3m/s | -51.9°C | 3.5% | 0hPa | 2.5V | 08:30:00 | 01:59:35 | 00:00:00 | |
| DL1XH-west | 2026-08-31 00:49:47 | 51.36949 | 1.43996 | 355° | 5km/h | 25005m | 5.3m/s | -51.9°C | 0% | 0hPa | 2.5V | 18:12:15 | 01:59:35 | 00:00:00 | |
| DO9LL-15 | 2026-08-31 00:49:46 | 51.36947 | 1.43997 | 354° | 13km/h | 25000m | 6.0m/s | -51.9°C | 3.5% | 0hPa | 2.6V | 00:00:00 | 01:59:34 | 00:00:00 | |
| DM0DOS-11 | 2026-08-31 00:49:42 | 51.36915 | 1.44009 | 10° | 11km/h | 24952m | 4.7m/s | -52.4°C | 3.7% | 0hPa | 2.6V | 08:30:00 | 01:59:25 | 00:00:00 | |
| DL1XH-west | 2026-08-31 00:49:36 | 51.36912 | 1.44008 | 12° | 7km/h | 24946m | 6.4m/s | -52.4°C | 0.1% | 0hPa | 2.6V | 18:12:15 | 01:59:24 | 00:00:00 | |
| BIOWL1-15 | 2026-08-31 00:49:35 | 51.36911 | 1.44008 | 6° | 4km/h | 24940m | 5.3m/s | -52.4°C | 0.1% | 0hPa | 2.5V | 18:12:15 | 01:59:23 | 00:00:00 | |
| DO1YAY-16 | 2026-08-31 00:49:34 | 51.36906 | 1.44008 | 3° | 11km/h | 24924m | 5.9m/s | -52.4°C | 0.8% | -1.0hPa | 2.6V | 00:00:00 | 00:00:00 | 00:00:00 | |
| DJ2DS-15 | 2026-08-31 00:49:32 | 51.36903 | 1.44008 | 1° | 15km/h | 24919m | 4.7m/s | -52.4°C | 0.7% | -1.0hPa | 2.6V | 00:00:00 | 00:00:00 | 00:00:00 | |
| DM0DOS-11 | 2026-08-31 00:49:30 | 51.36888 | 1.44010 | 354° | 15km/h | 24898m | 4.5m/s | -52.4°C | 3.7% | 0hPa | 2.6V | 08:30:00 | 01:59:15 | 00:00:00 | |
| DL1XH-west | 2026-08-31 00:49:25 | 51.36880 | 1.44009 | 13° | 18km/h | 24886m | 5.6m/s | -52.4°C | 0.1% | 0hPa | 2.6V | 18:12:15 | 01:59:13 | 00:00:00 | |
| DL1XH-west | 2026-08-31 00:49:15 | 51.36850 | 1.44002 | 350° | 11km/h | 24832m | 5.6m/s | -52.4°C | 0.1% | 0hPa | 2.5V | 18:12:15 | 01:59:03 | 00:00:00 | |
| DL1XH-west | 2026-08-31 00:49:01 | 51.36812 | 1.44000 | 336° | 16km/h | 24755m | 5.2m/s | -52.2°C | 0.1% | 0hPa | 2.6V | 18:12:15 | 01:58:49 | 00:00:00 | |
| BIOWL1-15 | 2026-08-31 00:48:59 | 51.36791 | 1.44009 | 346° | 24km/h | 24732m | 5.5m/s | -52.2°C | 0.1% | 0hPa | 2.6V | 18:12:15 | 01:58:45 | 00:00:00 | |
| DB0UT-7 | 2026-08-31 00:48:58 | 51.36796 | 1.44007 | 350° | 16km/h | 24738m | 5.1m/s | -52.1°C | 3.7% | 0hPa | 2.5V | 00:00:00 | 00:00:00 | 08:30:00 | |
| WEDDY | 2026-08-31 00:48:57 | 51.36797 | 1.44007 | 350° | 26km/h | 24738m | 5.2m/s | -52.2°C | 0.8% | 0hPa | 2.6V | 00:00:00 | 00:00:00 | 00:00:00 | |
| DM0DOS-11 | 2026-08-31 00:48:56 | 51.36767 | 1.44024 | 316° | 7km/h | 24694m | 6.4m/s | -52°C | 3.6% | 0hPa | 2.6V | 08:30:00 | 01:58:38 | 00:00:00 | |
| DL1XH-west | 2026-08-31 00:48:49 | 51.36766 | 1.44026 | 304° | 9km/h | 24688m | 5.7m/s | -52°C | 0.1% | 0hPa | 2.6V | 18:12:15 | 01:58:37 | 00:00:00 | |
| BIOWL1-15 | 2026-08-31 00:48:47 | 51.36758 | 1.44034 | 347° | 18km/h | 24671m | 5.2m/s | -52°C | 0% | 0hPa | 2.6V | 18:12:15 | 01:58:34 | 00:00:00 | |
| DO9LL-15 | 2026-08-31 00:48:46 | 51.36758 | 1.44034 | 348° | 11km/h | 24671m | 5.2m/s | -51.9°C | 3.6% | 0hPa | 2.6V | 00:00:00 | 01:58:34 | 08:30:00 | |
| DM0DOS-11 | 2026-08-31 00:48:45 | 51.36731 | 1.44044 | 1° | 15km/h | 24636m | 5.8m/s | -51.9°C | 3.6% | 0hPa | 2.5V | 08:30:00 | 01:58:28 | 00:00:00 | |
| DL1XH-west | 2026-08-31 00:48:39 | 51.36728 | 1.44044 | 3° | 9km/h | 24631m | 4.6m/s | -51.9°C | 0% | 0hPa | 2.6V | 18:12:15 | 01:58:27 | 00:00:00 | |
| WEDDY | 2026-08-31 00:48:36 | 51.36725 | 1.44044 | 292° | 2km/h | 24619m | 5.9m/s | -51.9°C | 0.8% | 0hPa | 2.6V | 00:00:00 | 00:00:00 | 00:00:00 | |
| DM0DOS-11 | 2026-08-31 00:48:33 | 51.36714 | 1.44054 | 318° | 18km/h | 24580m | 5.8m/s | -52°C | 3.7% | 0hPa | 2.6V | 08:30:00 | 01:58:18 | 00:00:00 | |
| DL1XH-west | 2026-08-31 00:48:29 | 51.36710 | 1.44059 | 312° | 18km/h | 24575m | 5.2m/s | -52.1°C | 0.1% | 0hPa | 2.6V | 18:12:15 | 01:58:17 | 00:00:00 | |
| HTAHTA | 2026-08-31 00:48:27 | 51.36697 | 1.44075 | 316° | 4km/h | 24548m | 6.3m/s | -52.0°C | 0.7% | -1.0hPa | 2.6V | 00:00:00 | 00:00:00 | 00:00:00 | |
| DM0DOS-11 | 2026-08-31 00:48:26 | 51.36697 | 1.44085 | 295° | 7km/h | 24527m | 6m/s | -52°C | 3.6% | 0hPa | 2.6V | 08:30:00 | 01:58:08 | 00:00:00 | |
| BIOWL1-15 | 2026-08-31 00:48:19 | 51.36693 | 1.44090 | 321° | 15km/h | 24516m | 5m/s | -52.1°C | 0.1% | 0hPa | 2.6V | 18:12:15 | 01:58:06 | 00:00:00 | |
| DL1XH-west | 2026-08-31 00:48:19 | 51.36695 | 1.44087 | 320° | 11km/h | 24521m | 5.4m/s | 0°C | 0% | 0hPa | 2.6V | 18:12:15 | 01:58:07 | 00:00:00 | |
| DO9LL-15 | 2026-08-31 00:48:16 | 51.36686 | 1.44101 | 310° | 13km/h | 24504m | 5.3m/s | -52.1°C | 3.7% | 0hPa | 2.6V | 00:00:00 | 01:58:04 | 00:00:00 | |
| DM0DOS-11 | 2026-08-31 00:48:13 | 51.36671 | 1.44120 | 2° | 5km/h | 24472m | 6.4m/s | -52.1°C | 3.7% | 0hPa | 2.6V | 08:30:00 | 01:57:58 | 00:00:00 | |
| BIOWL1-15 | 2026-08-31 00:48:09 | 51.36669 | 1.44121 | 321° | 2km/h | 24462m | 4.4m/s | -52.1°C | 0.1% | 0hPa | 2.6V | 18:12:15 | 01:57:56 | 00:00:00 | |
| DL1XH-west | 2026-08-31 00:48:07 | 51.36669 | 1.44121 | 7° | 2km/h | 24456m | 6.3m/s | 0°C | 0% | 0hPa | 2.6V | 18:12:15 | 01:57:55 | 00:00:00 | |
| DM0DOS-11 | 2026-08-31 00:48:05 | 51.36662 | 1.44134 | 333° | 9km/h | 24417m | 5.6m/s | -52.1°C | 3.7% | 0hPa | 2.6V | 08:30:00 | 01:57:48 | 00:00:00 | |
| BIOWL1-15 | 2026-08-31 00:47:59 | 51.36646 | 1.44147 | 350° | 16km/h | 24385m | 6.5m/s | -52°C | 0.1% | 0hPa | 2.6V | 18:12:15 | 01:57:42 | 00:00:00 | |
| DL1XH-west | 2026-08-31 00:47:57 | 51.36654 | 1.44140 | 324° | 11km/h | 24400m | 5.5m/s | 0°C | 0% | 0hPa | 2.6V | 18:12:15 | 01:57:45 | 00:00:00 | |
| HTAHTA | 2026-08-31 00:47:56 | 51.36649 | 1.44145 | 336° | 13km/h | 24391m | 5.4m/s | -52.0°C | 0.7% | -1.0hPa | 2.6V | 00:00:00 | 00:00:00 | 00:00:00 | |
| WEDDY | 2026-08-31 00:47:55 | 51.36652 | 1.44143 | 326° | 13km/h | 24396m | 4.6m/s | -52.0°C | 0.8% | 0hPa | 2.6V | 00:00:00 | 00:00:00 | 00:00:00 | |
| DM0DOS-11 | 2026-08-31 00:47:53 | 51.36628 | 1.44151 | 340° | 16km/h | 24362m | 5.3m/s | -52°C | 3.7% | 0hPa | 2.6V | 08:30:00 | 01:57:38 | 00:00:00 | |
| DL1XH-west | 2026-08-31 00:47:46 | 51.36611 | 1.44163 | 336° | 18km/h | 24341m | 4.3m/s | 0°C | 0% | 0hPa | 2.6V | 18:12:15 | 01:57:34 | 00:00:00 | |
| DO9LL-15 | 2026-08-31 00:47:46 | 51.36611 | 1.44162 | 337° | 15km/h | 24341m | 4.3m/s | -51.9°C | 3.6% | 0hPa | 2.6V | 00:00:00 | 01:57:34 | 00:00:00 | |
| DM0DOS-11 | 2026-08-31 00:47:45 | 51.36594 | 1.44174 | 348° | 13km/h | 24304m | 4.7m/s | -51.9°C | 3.6% | 0hPa | 2.6V | 08:30:00 | 01:57:27 | 00:00:00 | |
| BIOWL1-15 | 2026-08-31 00:47:36 | 51.36586 | 1.44183 | 308° | 16km/h | 24286m | 5.6m/s | -51.9°C | 0% | 0hPa | 2.6V | 18:12:15 | 01:57:24 | 00:00:00 | |
| WEDDY | 2026-08-31 00:47:34 | 51.36583 | 1.44189 | 311° | 20km/h | 24281m | 6.2m/s | -51.9°C | 0.8% | 0hPa | 2.6V | 00:00:00 | 00:00:00 | 00:00:00 | |
| DM0DOS-11 | 2026-08-31 00:47:33 | 51.36568 | 1.44225 | 285° | 18km/h | 24253m | 5m/s | -51.9°C | 3.6% | 0hPa | 2.6V | 08:30:00 | 01:57:18 | 00:00:00 | |
| BIOWL1-15 | 2026-08-31 00:47:25 | 51.36562 | 1.44247 | 292° | 7km/h | 24214m | 5.7m/s | -51.8°C | 0% | 0hPa | 2.5V | 18:12:15 | 01:57:11 | 00:00:00 | |
| HTAHTA | 2026-08-31 00:47:25 | 51.36562 | 1.44247 | 291° | 7km/h | 24215m | 5.7m/s | -51.8°C | 0.7% | -1.0hPa | 2.6V | 00:00:00 | 00:00:00 | 00:00:00 | |
| DM0DOS-11 | 2026-08-31 00:47:23 | 51.36558 | 1.44262 | 286° | 18km/h | 24198m | 5.3m/s | -51.8°C | 3.6% | 0hPa | 2.6V | 08:30:00 | 01:57:08 | 00:00:00 | |
| BIOWL1-15 | 2026-08-31 00:47:14 | 51.36568 | 1.44380 | 241° | 18km/h | 24109m | 5.5m/s | -52.1°C | 0.2% | 0hPa | 2.6V | 18:12:15 | 01:56:51 | 00:00:00 | |
| DM0DOS-11 | 2026-08-31 00:47:13 | 51.36559 | 1.44329 | 279° | 15km/h | 24145m | 6.1m/s | -52°C | 3.6% | 0hPa | 2.6V | 08:30:00 | 01:56:58 | 00:00:00 | |
| DO9LL-15 | 2026-08-31 00:47:13 | 51.36558 | 1.44310 | 264° | 16km/h | 24162m | 6.0m/s | -51.7°C | 3.5% | 0hPa | 2.6V | 00:00:00 | 01:57:01 | 00:00:00 | |
| DJ2DS-15 | 2026-08-31 00:47:08 | 51.36559 | 1.44349 | 257° | 18km/h | 24130m | 6.3m/s | -52.1°C | 0.7% | -1.0hPa | 2.7V | 00:00:00 | 00:00:00 | 00:00:00 | |
| DM0DOS-11 | 2026-08-31 00:47:05 | 51.36574 | 1.44398 | 241° | 18km/h | 24093m | 6.4m/s | -52.1°C | 3.7% | 0hPa | 2.7V | 08:30:00 | 01:56:48 | 00:00:00 | |
| BIOWL1-15 | 2026-08-31 00:47:01 | 51.36572 | 1.44392 | 242° | 16km/h | 24099m | 5.3m/s | -52.1°C | 0.1% | 0hPa | 2.6V | 18:12:15 | 01:56:49 | 00:00:00 | |
| DO1YAY-16 | 2026-08-31 00:46:58 | 51.36579 | 1.44412 | 237° | 18km/h | 24082m | 5.2m/s | -52.0°C | 0.7% | -1.0hPa | 2.6V | 00:00:00 | 00:00:00 | 00:00:00 | |
| HTAHTA | 2026-08-31 00:46:54 | 51.36606 | 1.44453 | 237° | 7km/h | 24028m | 5.7m/s | -51.7°C | 0.7% | -1.0hPa | 2.6V | 00:00:00 | 00:00:00 | 00:00:00 | |
| DM0DOS-11 | 2026-08-31 00:46:53 | 51.36604 | 1.44449 | 223° | 7km/h | 24038m | 4.9m/s | -51.7°C | 3.6% | 0hPa | 2.6V | 08:30:00 | 01:56:38 | 00:00:00 | |
| BIOWL1-15 | 2026-08-31 00:46:51 | 51.36602 | 1.44447 | 216° | 13km/h | 24044m | 6.1m/s | -51.8°C | 0% | 0hPa | 2.6V | 18:12:15 | 01:56:39 | 00:00:00 | |
| BIOWL9-15 | 2026-08-31 00:46:50 | 51.36605 | 1.44451 | 238° | 5km/h | 24033m | 4.9m/s | -51.7°C | 0.7% | -1.0hPa | 2.5V | 00:00:00 | 00:00:00 | 00:00:00 | |
| DM0DOS-11 | 2026-08-31 00:46:43 | 51.36622 | 1.44462 | 211° | 7km/h | 23985m | 5.2m/s | -51.5°C | 3.5% | 0hPa | 2.5V | 08:30:00 | 01:56:28 | 00:00:00 | |
| BIOWL1-15 | 2026-08-31 00:46:41 | 51.36624 | 1.44467 | 263° | 7km/h | 23975m | 6.5m/s | 0°C | 0% | 0hPa | 2.6V | 18:12:15 | 01:56:26 | 00:00:00 | |
| DM0DOS-11 | 2026-08-31 00:46:34 | 51.36624 | 1.44472 | 112° | 9km/h | 23930m | 4.6m/s | -51.7°C | 3.5% | 0hPa | 2.6V | 08:30:00 | 01:56:18 | 00:00:00 | |
| BIOWL1-15 | 2026-08-31 00:46:30 | 51.36628 | 1.44463 | 133° | 5km/h | 23915m | 4.3m/s | 0°C | 0% | 0hPa | 2.6V | 18:12:15 | 01:56:15 | 00:00:00 | |
| DO1YAY-16 | 2026-08-31 00:46:27 | 51.36628 | 1.44463 | 133° | 4km/h | 23916m | 4.3m/s | -51.8°C | 0.7% | -1.0hPa | 2.6V | 00:00:00 | 00:00:00 | 00:00:00 | |
| DM0DOS-11 | 2026-08-31 00:46:24 | 51.36618 | 1.44456 | 33° | 11km/h | 23878m | 6.1m/s | -51.9°C | 3.6% | 0hPa | 2.6V | 08:30:00 | 01:56:08 | 00:00:00 | |
| HTAHTA | 2026-08-31 00:46:23 | 51.36622 | 1.44459 | 4° | 7km/h | 23888m | 5.2m/s | -51.9°C | 0.7% | -1.0hPa | 2.6V | 00:00:00 | 00:00:00 | 00:00:00 | |
| BIOWL9-15 | 2026-08-31 00:46:19 | 51.36606 | 1.44432 | 59° | 13km/h | 23851m | 4.2m/s | -51.8°C | 0.7% | -1.0hPa | 2.6V | 00:00:00 | 00:00:00 | 00:00:00 | |
| DM0DOS-11 | 2026-08-31 00:46:14 | 51.36591 | 1.44408 | 36° | 15km/h | 23825m | 5.8m/s | -51.8°C | 3.7% | 0hPa | 2.6V | 08:30:00 | 01:55:58 | 00:00:00 | |
| DO9LL-15 | 2026-08-31 00:46:13 | 51.36601 | 1.44422 | 49° | 16km/h | 23841m | 5.7m/s | -51.8°C | 3.7% | 0hPa | 2.6V | 00:00:00 | 01:56:01 | 00:00:00 | |
| WEDDY | 2026-08-31 00:46:12 | 51.36601 | 1.44422 | 50° | 18km/h | 23841m | 5.8m/s | -51.9°C | 0.8% | 0hPa | 2.6V | 00:00:00 | 00:00:00 | 00:00:00 | |
| DM0DOS-11 | 2026-08-31 00:46:03 | 51.36557 | 1.44384 | 26° | 15km/h | 23772m | 4.4m/s | -51.5°C | 3.5% | 0hPa | 2.6V | 08:30:00 | 01:55:48 | 00:00:00 | |
| DO1YAY-16 | 2026-08-31 00:45:56 | 51.36544 | 1.44382 | 346° | 16km/h | 23750m | 6.2m/s | -51.6°C | 0.7% | -1.0hPa | 2.6V | 00:00:00 | 00:00:00 | 00:00:00 | |
| DM0DOS-11 | 2026-08-31 00:45:53 | 51.36515 | 1.44391 | 8° | 16km/h | 23720m | 5.4m/s | -51.8°C | 3.5% | 0hPa | 2.6V | 08:30:00 | 01:55:38 | 00:00:00 | |
| HTAHTA | 2026-08-31 00:45:51 | 51.36519 | 1.44391 | 354° | 16km/h | 23725m | 4.5m/s | -51.8°C | 0.7% | -1.0hPa | 2.6V | 00:00:00 | 00:00:00 | 00:00:00 | |
| BIOWL9-15 | 2026-08-31 00:45:48 | 51.36492 | 1.44385 | 347° | 15km/h | 23695m | 4.9m/s | -52.0°C | 0.7% | -1.0hPa | 2.6V | 00:00:00 | 00:00:00 | 00:00:00 | |
| BIOWL1-15 | 2026-08-31 00:45:44 | 51.36474 | 1.44398 | 332° | 24km/h | 23674m | 4.6m/s | 0°C | 0% | 0hPa | 2.6V | 18:12:15 | 01:55:29 | 00:00:00 | |
| DM0DOS-11 | 2026-08-31 00:45:43 | 51.36469 | 1.44403 | 323° | 24km/h | 23669m | 5.4m/s | -52.1°C | 3.6% | 0hPa | 2.6V | 08:30:00 | 01:55:28 | 00:00:00 | |
| DO9LL-15 | 2026-08-31 00:45:43 | 51.36484 | 1.44390 | 336° | 16km/h | 23685m | 6.2m/s | -51.9°C | 3.6% | 0hPa | 2.6V | 00:00:00 | 01:55:31 | 00:00:00 | |
| DM0DOS-11 | 2026-08-31 00:45:33 | 51.36422 | 1.44457 | 333° | 16km/h | 23615m | 5.3m/s | -52.2°C | 3.7% | 0hPa | 2.6V | 08:30:00 | 01:55:18 | 00:00:00 | |
| DB0UT-7 | 2026-08-31 00:45:32 | 51.36429 | 1.44450 | 328° | 9km/h | 23627m | 5.0m/s | -52.2°C | 3.6% | 0hPa | 2.6V | 00:00:00 | 00:00:00 | 00:00:00 | |
| WEDDY | 2026-08-31 00:45:30 | 51.36425 | 1.44454 | 332° | 18km/h | 23621m | 6.0m/s | -52.2°C | 0.8% | 0hPa | 2.6V | 00:00:00 | 00:00:00 | 00:00:00 | |
| DO1YAY-16 | 2026-08-31 00:45:25 | 51.36410 | 1.44479 | 303° | 13km/h | 23590m | 5.3m/s | -52.3°C | 0.7% | -1.0hPa | 2.6V | 00:00:00 | 00:00:00 | 00:00:00 | |
| DM0DOS-11 | 2026-08-31 00:45:23 | 51.36398 | 1.44491 | 329° | 7km/h | 23564m | 4.7m/s | -52.3°C | 3.7% | 0hPa | 2.6V | 08:30:00 | 01:55:08 | 00:00:00 | |
| HTAHTA | 2026-08-31 00:45:20 | 51.36395 | 1.44494 | 325° | 5km/h | 23554m | 5.8m/s | -52.5°C | 0.8% | -1.0hPa | 2.7V | 00:00:00 | 00:00:00 | 00:00:00 | |
| DM0DOS-11 | 2026-08-31 00:45:13 | 51.36389 | 1.44500 | 34° | 4km/h | 23513m | 4.9m/s | -52.6°C | 3.8% | 0hPa | 2.7V | 08:30:00 | 01:54:58 | 00:00:00 | |
| DO9LL-15 | 2026-08-31 00:45:13 | 51.36389 | 1.44501 | 223° | 7km/h | 23528m | 4.3m/s | -52.5°C | 3.7% | 0hPa | 2.6V | 00:00:00 | 01:55:01 | 00:00:00 | |
| WEDDY | 2026-08-31 00:45:10 | 51.36390 | 1.44501 | 56° | 2km/h | 23518m | 5.7m/s | -52.6°C | 0.9% | 0hPa | 2.6V | 00:00:00 | 00:00:00 | 00:00:00 | |
| DM0DOS-11 | 2026-08-31 00:45:03 | 51.36385 | 1.44523 | 254° | 9km/h | 23462m | 5.4m/s | -52.5°C | 3.7% | 0hPa | 2.6V | 08:30:00 | 01:54:48 | 00:00:00 | |
| DM0DOS-11 | 2026-08-31 00:44:54 | 51.36398 | 1.44531 | 247° | 9km/h | 23410m | 5.5m/s | -52.4°C | 3.6% | 0hPa | 2.6V | 08:30:00 | 01:54:38 | 00:00:00 | |
| HTAHTA | 2026-08-31 00:44:49 | 51.36399 | 1.44536 | 248° | 11km/h | 23405m | 5.3m/s | -52.5°C | 0.7% | -1.0hPa | 2.6V | 00:00:00 | 00:00:00 | 00:00:00 | |
| DM0DOS-11 | 2026-08-31 00:44:43 | 51.36403 | 1.44566 | 167° | 4km/h | 23359m | 5.8m/s | -52.6°C | 3.7% | 0hPa | 2.6V | 08:30:00 | 01:54:28 | 00:00:00 | |
| DO9LL-15 | 2026-08-31 00:44:43 | 51.36399 | 1.44564 | 256° | 7km/h | 23375m | 5.8m/s | -52.6°C | 3.7% | 0hPa | 2.6V | 00:00:00 | 01:54:31 | 00:00:00 | |
| DM0DOS-11 | 2026-08-31 00:44:33 | 51.36412 | 1.44577 | 243° | 5km/h | 23308m | 5.3m/s | -52.7°C | 3.8% | 0hPa | 2.6V | 08:30:00 | 01:54:18 | 00:00:00 | |
| WEDDY | 2026-08-31 00:44:30 | 51.36412 | 1.44577 | 244° | 5km/h | 23308m | 5.3m/s | -52.7°C | 0.9% | 0hPa | 2.6V | 00:00:00 | 00:00:00 | 00:00:00 | |
| DO1YAY-16 | 2026-08-31 00:44:23 | 51.36422 | 1.44571 | 152° | 11km/h | 23271m | 4.5m/s | -52.6°C | 0.8% | -1.0hPa | 2.6V | 00:00:00 | 00:00:00 | 00:00:00 | |
| DM0DOS-11 | 2026-08-31 00:44:22 | 51.36428 | 1.44564 | 126° | 7km/h | 23256m | 4.6m/s | -52.6°C | 3.8% | 0hPa | 2.6V | 08:30:00 | 01:54:08 | 00:00:00 | |
| HTAHTA | 2026-08-31 00:44:19 | 51.36430 | 1.44561 | 150° | 7km/h | 23246m | 5.8m/s | -52.6°C | 0.8% | -1.0hPa | 2.7V | 00:00:00 | 00:00:00 | 00:00:00 | |
| DO9LL-15 | 2026-08-31 00:44:13 | 51.36439 | 1.44549 | 115° | 5km/h | 23221m | 4.5m/s | -52.4°C | 3.7% | 0hPa | 2.7V | 00:00:00 | 01:54:01 | 08:30:00 | |
| WEDDY | 2026-08-31 00:44:08 | 51.36444 | 1.44539 | 131° | 7km/h | 23201m | 5.2m/s | 0°C | 0% | 0hPa | 2.6V | 00:00:00 | 00:00:00 | 00:00:00 | |
| DM0DOS-11 | 2026-08-31 00:44:04 | 51.36448 | 1.44537 | 209° | 5km/h | 23170m | 5m/s | -52.4°C | 3.7% | 0hPa | 2.6V | 08:30:00 | 01:53:51 | 00:00:00 | |
| DM0DOS-11 | 2026-08-31 00:43:54 | 51.36450 | 1.44546 | 317° | 7km/h | 23118m | 5.1m/s | -52.2°C | 3.7% | 0hPa | 2.7V | 08:30:00 | 01:53:41 | 00:00:00 | |
| DO1YAY-16 | 2026-08-31 00:43:52 | 51.36449 | 1.44548 | 333° | 7km/h | 23114m | 4.2m/s | -52.3°C | 0.8% | -1.0hPa | 2.6V | 00:00:00 | 00:00:00 | 00:00:00 | |
| DB0UT-7 | 2026-08-31 00:43:49 | 51.36443 | 1.44547 | 47° | 7km/h | 23098m | 5.0m/s | -52.2°C | 3.7% | 0hPa | 2.6V | 00:00:00 | 00:00:00 | 00:00:00 | |
| DM0DOS-11 | 2026-08-31 00:43:48 | 51.36444 | 1.44538 | 19° | 5km/h | 23067m | 5.1m/s | -52.2°C | 3.7% | 0hPa | 2.6V | 08:30:00 | 01:53:31 | 00:00:00 | |
| WEDDY | 2026-08-31 00:43:48 | 51.36443 | 1.44547 | 48° | 5km/h | 23098m | 5.0m/s | 0°C | 0% | 0hPa | 2.6V | 00:00:00 | 00:00:00 | 00:00:00 | |
| HTAHTA | 2026-08-31 00:43:47 | 51.36445 | 1.44539 | 61° | 4km/h | 23072m | 5.3m/s | -52.2°C | 0.8% | -1.0hPa | 2.6V | 00:00:00 | 00:00:00 | 00:00:00 | |
| DM0DOS-11 | 2026-08-31 00:43:38 | 51.36417 | 1.44543 | 16° | 9km/h | 23008m | 4.9m/s | -52.1°C | 3.7% | 0hPa | 2.6V | 08:30:00 | 01:53:20 | 00:00:00 | |
| DJ2DS-15 | 2026-08-31 00:43:31 | 51.36415 | 1.44543 | 16° | 7km/h | 23004m | 5.0m/s | -52.1°C | 0.7% | -1.0hPa | 2.6V | 00:00:00 | 00:00:00 | 00:00:00 | |
| DM0DOS-11 | 2026-08-31 00:43:27 | 51.36399 | 1.44550 | 355° | 9km/h | 22955m | 5.2m/s | -52°C | 3.7% | 0hPa | 2.6V | 08:30:00 | 01:53:10 | 00:00:00 | |
| DO1YAY-16 | 2026-08-31 00:43:21 | 51.36397 | 1.44550 | 9° | 11km/h | 22950m | 5.7m/s | -52.0°C | 0.8% | -1.0hPa | 2.6V | 00:00:00 | 00:00:00 | 00:00:00 | |
| HTAHTA | 2026-08-31 00:43:16 | 51.36387 | 1.44542 | 5° | 0km/h | 22914m | 4.5m/s | -51.8°C | 0.7% | -1.0hPa | 2.6V | 00:00:00 | 00:00:00 | 00:00:00 | |
| DO9LL-15 | 2026-08-31 00:43:13 | 51.36387 | 1.44543 | 257° | 5km/h | 22909m | 5.3m/s | -51.7°C | 3.6% | 0hPa | 2.6V | 00:00:00 | 01:53:01 | 00:00:00 | |
| DM0DOS-11 | 2026-08-31 00:43:12 | 51.36388 | 1.44549 | 274° | 5km/h | 22893m | 5.6m/s | -51.8°C | 3.6% | 0hPa | 2.6V | 08:30:00 | 01:52:58 | 00:00:00 | |
| WEDDY | 2026-08-31 00:43:06 | 51.36384 | 1.44555 | 323° | 7km/h | 22878m | 5.5m/s | 0°C | 0% | 0hPa | 2.6V | 00:00:00 | 00:00:00 | 00:00:00 | |
| DM0DOS-11 | 2026-08-31 00:43:02 | 51.36380 | 1.44568 | 240° | 5km/h | 22840m | 5.8m/s | -51.7°C | 3.6% | 0hPa | 2.6V | 08:30:00 | 01:52:48 | 00:00:00 | |
| DJ2DS-15 | 2026-08-31 00:42:55 | 51.36383 | 1.44577 | 250° | 5km/h | 22815m | 5.8m/s | -51.7°C | 0.7% | -1.0hPa | 2.7V | 00:00:00 | 00:00:00 | 00:00:00 | |
| DM0DOS-11 | 2026-08-31 00:42:52 | 51.36382 | 1.44590 | 331° | 9km/h | 22789m | 4.5m/s | -51.6°C | 3.5% | 0hPa | 2.7V | 08:30:00 | 01:52:38 | 00:00:00 | |
| DO1YAY-16 | 2026-08-31 00:42:50 | 51.36380 | 1.44592 | 323° | 5km/h | 22784m | 5.6m/s | -51.6°C | 0.7% | -1.0hPa | 2.6V | 00:00:00 | 00:00:00 | 00:00:00 | |
| HTAHTA | 2026-08-31 00:42:45 | 51.36379 | 1.44598 | 275° | 4km/h | 22763m | 4.9m/s | -51.6°C | 0.7% | -1.0hPa | 2.6V | 00:00:00 | 00:00:00 | 00:00:00 | |
| DM0DOS-11 | 2026-08-31 00:42:43 | 51.36384 | 1.44611 | 241° | 7km/h | 22738m | 5.1m/s | -51.7°C | 3.5% | 0hPa | 2.6V | 08:30:00 | 01:52:28 | 00:00:00 | |
| DB0UT-7 | 2026-08-31 00:42:38 | 51.36384 | 1.44616 | 320° | 4km/h | 22728m | 4.4m/s | -51.7°C | 3.5% | 0hPa | 2.7V | 00:00:00 | 01:52:26 | 00:00:00 | |
| DM0DOS-11 | 2026-08-31 00:42:32 | 51.36379 | 1.44619 | 183° | 4km/h | 22686m | 5m/s | -52.1°C | 3.6% | 0hPa | 2.7V | 08:30:00 | 01:52:18 | 00:00:00 | |
| DM0DOS-11 | 2026-08-31 00:42:22 | 51.36377 | 1.44622 | 330° | 5km/h | 22635m | 4.5m/s | -52.3°C | 3.6% | 0hPa | 2.6V | 08:30:00 | 01:52:08 | 00:00:00 | |
| DJ2DS-15 | 2026-08-31 00:42:19 | 51.36376 | 1.44623 | 306° | 4km/h | 22630m | 5.6m/s | -52.3°C | 0.8% | -1.0hPa | 2.7V | 00:00:00 | 00:00:00 | 00:00:00 | |
| DM0DOS-11 | 2026-08-31 00:42:14 | 51.36371 | 1.44628 | 89° | 5km/h | 22584m | 6.2m/s | -52.6°C | 3.7% | 0hPa | 2.7V | 08:30:00 | 01:51:58 | 00:00:00 | |
| DO9LL-15 | 2026-08-31 00:42:13 | 51.36370 | 1.44631 | 2° | 7km/h | 22600m | 6.0m/s | -52.5°C | 3.7% | 0hPa | 2.6V | 00:00:00 | 01:52:01 | 00:00:00 | |
| DB0UT-7 | 2026-08-31 00:42:08 | 51.36370 | 1.44623 | 83° | 13km/h | 22573m | 5.1m/s | -52.6°C | 3.7% | 0hPa | 2.6V | 00:00:00 | 00:00:00 | 00:00:00 | |
| DM0DOS-11 | 2026-08-31 00:42:02 | 51.36366 | 1.44615 | 5° | 2km/h | 22531m | 4.6m/s | -52.6°C | 3.7% | 0hPa | 2.6V | 08:30:00 | 01:51:48 | 00:00:00 | |
| DM0DOS-11 | 2026-08-31 00:41:51 | 51.36353 | 1.44591 | 55° | 9km/h | 22480m | 4.4m/s | -52.9°C | 3.8% | 0hPa | 2.7V | 08:30:00 | 01:51:38 | 00:00:00 | |
| DO1YAY-16 | 2026-08-31 00:41:48 | 51.36350 | 1.44584 | 69° | 9km/h | 22471m | 5.8m/s | -52.8°C | 0.8% | -1.0hPa | 2.6V | 00:00:00 | 00:00:00 | 00:00:00 | |
| DO9LL-15 | 2026-08-31 00:41:43 | 51.36342 | 1.44562 | 57° | 15km/h | 22445m | 4.0m/s | -52.6°C | 3.8% | 0hPa | 2.6V | 00:00:00 | 01:51:31 | 00:00:00 | |
| DM0DOS-11 | 2026-08-31 00:41:41 | 51.36337 | 1.44542 | 79° | 18km/h | 22430m | 4.5m/s | -52.6°C | 3.7% | 0hPa | 2.6V | 08:30:00 | 01:51:28 | 00:00:00 | |
| DM0DOS-11 | 2026-08-31 00:41:34 | 51.36318 | 1.44505 | 35° | 18km/h | 22378m | 4.9m/s | -52.4°C | 3.7% | 0hPa | 2.7V | 08:30:00 | 01:51:18 | 00:00:00 | |
| BIOWL1-15 | 2026-08-31 00:41:32 | 51.36318 | 1.44505 | 36° | 18km/h | 22379m | 4.9m/s | -52.4°C | 0.1% | 0hPa | 2.7V | 18:12:15 | 01:51:18 | 00:00:00 | |
| DM0DOS-11 | 2026-08-31 00:41:22 | 51.36295 | 1.44454 | 56° | 7km/h | 22327m | 5.7m/s | -52.2°C | 3.7% | 0hPa | 2.6V | 08:30:00 | 01:51:08 | 00:00:00 | |
| BIOWL1-15 | 2026-08-31 00:41:21 | 51.36294 | 1.44451 | 38° | 9km/h | 22321m | 5.4m/s | -52.2°C | 0.1% | 0hPa | 2.6V | 18:12:15 | 01:51:07 | 00:00:00 | |
| DO1YAY-16 | 2026-08-31 00:41:17 | 51.36290 | 1.44446 | 37° | 11km/h | 22311m | 5.9m/s | -52.2°C | 0.7% | -1.0hPa | 2.7V | 00:00:00 | 00:00:00 | 00:00:00 | |
| DM0DOS-11 | 2026-08-31 00:41:14 | 51.36266 | 1.44422 | 47° | 13km/h | 22274m | 4.3m/s | -52.3°C | 3.7% | 0hPa | 2.7V | 08:30:00 | 01:50:58 | 00:00:00 | |
| BIOWL1-15 | 2026-08-31 00:41:11 | 51.36264 | 1.44418 | 47° | 11km/h | 22270m | 4.6m/s | -52.3°C | 0% | 0hPa | 2.7V | 18:12:15 | 01:50:57 | 00:00:00 | |
| BIOWL9-15 | 2026-08-31 00:41:08 | 51.36258 | 1.44413 | 15° | 7km/h | 22255m | 4.6m/s | -52.4°C | 0.8% | -1.0hPa | 2.6V | 00:00:00 | 00:00:00 | 00:00:00 | |
| DM0DOS-11 | 2026-08-31 00:41:03 | 51.36239 | 1.44405 | 7° | 18km/h | 22224m | 4.4m/s | -52.5°C | 3.7% | 0hPa | 2.6V | 08:30:00 | 01:50:48 | 00:00:00 | |
| BIOWL1-15 | 2026-08-31 00:40:57 | 51.36203 | 1.44399 | 337° | 13km/h | 22178m | 4.8m/s | -52.4°C | 0.1% | 0hPa | 2.7V | 18:12:15 | 01:50:39 | 00:00:00 | |
| DM0DOS-11 | 2026-08-31 00:40:55 | 51.36200 | 1.44401 | 341° | 15km/h | 22173m | 5.8m/s | -52.4°C | 3.7% | 0hPa | 2.7V | 08:30:00 | 01:50:38 | 00:00:00 | |
| DO1YAY-16 | 2026-08-31 00:40:46 | 51.36184 | 1.44403 | 9° | 13km/h | 22153m | 4.6m/s | -52.4°C | 0.8% | -1.0hPa | 2.6V | 00:00:00 | 00:00:00 | 00:00:00 | |
| DM0DOS-11 | 2026-08-31 00:40:44 | 51.36161 | 1.44396 | 21° | 11km/h | 22122m | 4.8m/s | -52.2°C | 3.6% | 0hPa | 2.6V | 08:30:00 | 01:50:28 | 00:00:00 | |
| BIOWL1-15 | 2026-08-31 00:40:42 | 51.36167 | 1.44399 | 11° | 16km/h | 22133m | 5.5m/s | 0°C | 0% | 0hPa | 2.6V | 18:12:15 | 01:50:30 | 00:00:00 | |
| HTAHTA | 2026-08-31 00:40:41 | 51.36164 | 1.44398 | 18° | 13km/h | 22128m | 5.6m/s | 0°C | -1.0% | -1.0hPa | 2.7V | 00:00:00 | 00:00:00 | 00:00:00 | |
| BIOWL9-15 | 2026-08-31 00:40:37 | 51.36152 | 1.44394 | 351° | 13km/h | 22107m | 4.0m/s | -52.2°C | 0.8% | -1.0hPa | 2.7V | 00:00:00 | 00:00:00 | 00:00:00 | |
| DM0DOS-11 | 2026-08-31 00:40:32 | 51.36131 | 1.44396 | 359° | 16km/h | 22071m | 4.7m/s | -52.2°C | 3.6% | 0hPa | 2.7V | 08:30:00 | 01:50:18 | 00:00:00 | |
| DM0DOS-11 | 2026-08-31 00:40:24 | 51.36103 | 1.44387 | 17° | 15km/h | 22021m | 6m/s | -52.9°C | 3.8% | 0hPa | 2.6V | 08:30:00 | 01:50:08 | 00:00:00 | |
| DB0UT-7 | 2026-08-31 00:40:24 | 51.36112 | 1.44392 | 7° | 18km/h | 22041m | 4.6m/s | -52.5°C | 3.6% | 0hPa | 2.7V | 00:00:00 | 00:00:00 | 00:00:00 | |
| DO1YAY-16 | 2026-08-31 00:40:15 | 51.36080 | 1.44385 | 342° | 13km/h | 21996m | 4.5m/s | -52.8°C | 0.8% | -1.0hPa | 2.7V | 00:00:00 | 00:00:00 | 00:00:00 | |
| DO9LL-15 | 2026-08-31 00:40:13 | 51.36075 | 1.44390 | 315° | 7km/h | 21986m | 5.5m/s | -52.7°C | 3.8% | 0hPa | 2.7V | 00:00:00 | 01:50:01 | 00:00:00 | |
| DM0DOS-11 | 2026-08-31 00:40:12 | 51.36069 | 1.44400 | 331° | 7km/h | 21971m | 6.2m/s | -52.6°C | 3.8% | 0hPa | 2.7V | 08:30:00 | 01:49:58 | 00:00:00 | |
| HTAHTA | 2026-08-31 00:40:10 | 51.36069 | 1.44400 | 331° | 5km/h | 21971m | 6.2m/s | 0°C | -1.0% | -1.0hPa | 2.6V | 00:00:00 | 00:00:00 | 00:00:00 | |
| DM0DOS-11 | 2026-08-31 00:40:02 | 51.36048 | 1.44401 | 327° | 5km/h | 21920m | 6m/s | -52.5°C | 3.7% | 0hPa | 2.6V | 08:30:00 | 01:49:48 | 00:00:00 | |
| DJ2DS-15 | 2026-08-31 00:39:55 | 51.36042 | 1.44408 | 349° | 5km/h | 21888m | 5.8m/s | -52.6°C | 0.8% | -1.0hPa | 2.6V | 00:00:00 | 00:00:00 | 00:00:00 | |
| DM0DOS-11 | 2026-08-31 00:39:52 | 51.36034 | 1.44405 | 34° | 7km/h | 21868m | 5.1m/s | -52.5°C | 3.8% | 0hPa | 2.6V | 08:30:00 | 01:49:38 | 00:00:00 | |
| DO1YAY-16 | 2026-08-31 00:39:44 | 51.36022 | 1.44397 | 7° | 5km/h | 21830m | 6.0m/s | -52.4°C | 0.8% | -1.0hPa | 2.6V | 00:00:00 | 00:00:00 | 00:00:00 | |
| DO9LL-15 | 2026-08-31 00:39:43 | 51.36022 | 1.44397 | 8° | 15km/h | 21830m | 6.0m/s | -52.4°C | 3.7% | 0hPa | 2.6V | 00:00:00 | 01:49:31 | 08:30:00 | |
| DM0DOS-11 | 2026-08-31 00:39:41 | 51.36017 | 1.44397 | 15° | 5km/h | 21815m | 5.9m/s | -52.4°C | 3.7% | 0hPa | 2.7V | 08:30:00 | 01:49:28 | 00:00:00 | |
| DM0DOS-11 | 2026-08-31 00:39:31 | 51.35991 | 1.44372 | 38° | 16km/h | 21763m | 5.5m/s | -52.4°C | 3.7% | 0hPa | 2.6V | 08:30:00 | 01:49:18 | 00:00:00 | |
| DM0DOS-11 | 2026-08-31 00:39:21 | 51.35958 | 1.44337 | 17° | 16km/h | 21712m | 4.8m/s | -52.9°C | 3.8% | 0hPa | 2.7V | 08:30:00 | 01:49:08 | 00:00:00 | |
| DO9LL-15 | 2026-08-31 00:39:13 | 51.35923 | 1.44311 | 36° | 16km/h | 21675m | 4.8m/s | -52.9°C | 3.8% | 0hPa | 2.6V | 00:00:00 | 01:49:01 | 00:00:00 | |
| DM0DOS-11 | 2026-08-31 00:39:11 | 51.35908 | 1.44291 | 44° | 22km/h | 21659m | 5.3m/s | -52.9°C | 3.9% | 0hPa | 2.6V | 08:30:00 | 01:48:58 | 00:00:00 | |
| BIOWL1-15 | 2026-08-31 00:39:04 | 51.35881 | 1.44249 | 54° | 20km/h | 21616m | 4.8m/s | 0°C | 0% | 0hPa | 2.6V | 18:12:15 | 01:48:50 | 00:00:00 | |
| BIOWL9-15 | 2026-08-31 00:39:04 | 51.35884 | 1.44255 | 55° | 16km/h | 21622m | 6.0m/s | -52.7°C | 0.8% | -1.0hPa | 2.7V | 00:00:00 | 00:00:00 | 00:00:00 | |
| DM0DOS-11 | 2026-08-31 00:39:01 | 51.35875 | 1.44233 | 66° | 24km/h | 21606m | 6.5m/s | -52.6°C | 3.8% | 0hPa | 2.7V | 08:30:00 | 01:48:48 | 00:00:00 | |
| DM0DOS-11 | 2026-08-31 00:38:54 | 51.35858 | 1.44187 | 45° | 7km/h | 21555m | 5.8m/s | -52.4°C | 3.7% | 0hPa | 2.6V | 08:30:00 | 01:48:38 | 00:00:00 | |
| BIOWL1-15 | 2026-08-31 00:38:53 | 51.35859 | 1.44189 | 66° | 5km/h | 21560m | 5m/s | 0°C | 0% | 0hPa | 2.7V | 18:12:15 | 01:48:39 | 00:00:00 | |
| BIOWL1-15 | 2026-08-31 00:38:41 | 51.35840 | 1.44139 | 84° | 5km/h | 21499m | 4.7m/s | 0°C | 0% | 0hPa | 2.7V | 18:12:15 | 01:48:27 | 00:00:00 | |
| DM0DOS-11 | 2026-08-31 00:38:41 | 51.35841 | 1.44142 | 69° | 9km/h | 21504m | 5.5m/s | -52.4°C | 3.7% | 0hPa | 2.6V | 08:30:00 | 01:48:28 | 00:00:00 | |
| DB0UT-7 | 2026-08-31 00:38:41 | 51.35842 | 1.44146 | 55° | 9km/h | 21510m | 5.6m/s | -52.4°C | 3.7% | 0hPa | 2.6V | 00:00:00 | 00:00:00 | 00:00:00 | |
| DM0DOS-11 | 2026-08-31 00:38:34 | 51.35839 | 1.44143 | 7° | 5km/h | 21452m | 5.7m/s | -52.3°C | 3.7% | 0hPa | 2.7V | 08:30:00 | 01:48:18 | 00:00:00 | |
| BIOWL1-15 | 2026-08-31 00:38:30 | 51.35838 | 1.44142 | 49° | 5km/h | 21446m | 5.5m/s | 0°C | 0% | 0hPa | 2.6V | 18:12:15 | 01:48:17 | 00:00:00 | |
| DM0DOS-11 | 2026-08-31 00:38:21 | 51.35844 | 1.44131 | 175° | 4km/h | 21398m | 4.3m/s | -52.8°C | 3.8% | 0hPa | 2.6V | 08:30:00 | 01:48:08 | 00:00:00 | |
| DM0DOS-11 | 2026-08-31 00:38:13 | 51.35852 | 1.44113 | 188° | 7km/h | 21347m | 5.2m/s | -52.7°C | 3.8% | 0hPa | 2.7V | 08:30:00 | 01:47:58 | 00:00:00 | |
| DO9LL-15 | 2026-08-31 00:38:13 | 51.35848 | 1.44117 | 109° | 7km/h | 21362m | 5.5m/s | -52.8°C | 3.9% | 0hPa | 2.6V | 00:00:00 | 01:48:01 | 00:00:00 | |
| DO1YAY-16 | 2026-08-31 00:38:11 | 51.35852 | 1.44113 | 188° | 5km/h | 21347m | 5.2m/s | -52.7°C | 0.8% | -1.0hPa | 2.6V | 00:00:00 | 00:00:00 | 00:00:00 | |
| HTAHTA | 2026-08-31 00:38:06 | 51.35854 | 1.44120 | 351° | 5km/h | 21319m | 5.0m/s | 0°C | -1.0% | -1.0hPa | 2.6V | 00:00:00 | 00:00:00 | 00:00:00 | |
| DM0DOS-11 | 2026-08-31 00:38:01 | 51.35841 | 1.44115 | 58° | 4km/h | 21294m | 4.7m/s | -52.3°C | 3.7% | 0hPa | 2.6V | 08:30:00 | 01:47:48 | 00:00:00 | |
| DM0DOS-11 | 2026-08-31 00:37:52 | 51.35844 | 1.44107 | 5° | 9km/h | 21244m | 5.5m/s | -51.9°C | 3.5% | 0hPa | 2.7V | 08:30:00 | 01:47:38 | 00:00:00 | |
| DO9LL-15 | 2026-08-31 00:37:43 | 51.35829 | 1.44097 | 45° | 13km/h | 21208m | 4.7m/s | -52.2°C | 3.5% | 0hPa | 2.6V | 00:00:00 | 01:47:31 | 00:00:00 | |
| DM0DOS-11 | 2026-08-31 00:37:42 | 51.35827 | 1.44090 | 70° | 9km/h | 21192m | 4.1m/s | -52.5°C | 3.6% | 0hPa | 2.6V | 08:30:00 | 01:47:28 | 00:00:00 | |
| DO1YAY-16 | 2026-08-31 00:37:40 | 51.35826 | 1.44087 | 69° | 7km/h | 21188m | 4.8m/s | -52.6°C | 0.8% | -1.0hPa | 2.6V | 00:00:00 | 00:00:00 | 00:00:00 | |
| HTAHTA | 2026-08-31 00:37:35 | 51.35818 | 1.44075 | 43° | 15km/h | 21162m | 5.7m/s | 0°C | -1.0% | -1.0hPa | 2.6V | 00:00:00 | 00:00:00 | 00:00:00 | |
| DM0DOS-11 | 2026-08-31 00:37:34 | 51.35808 | 1.44053 | 54° | 15km/h | 21140m | 5.2m/s | -52.9°C | 3.7% | 0hPa | 2.6V | 08:30:00 | 01:47:18 | 00:00:00 | |
| DJ2DS-15 | 2026-08-31 00:37:31 | 51.35808 | 1.44053 | 54° | 15km/h | 21140m | 5.2m/s | -52.9°C | 0.8% | -1.0hPa | 2.7V | 00:00:00 | 00:00:00 | 00:00:00 | |
| DB0UT-7 | 2026-08-31 00:37:29 | 51.35806 | 1.44048 | 56° | 13km/h | 21136m | 4.6m/s | -52.9°C | 3.8% | 0hPa | 2.7V | 00:00:00 | 01:47:17 | 00:00:00 | |
| DM0DOS-11 | 2026-08-31 00:37:21 | 51.35778 | 1.44018 | 15° | 16km/h | 21089m | 6m/s | -53.4°C | 4% | 0hPa | 2.7V | 08:30:00 | 01:47:08 | 00:00:00 | |
| DO9LL-15 | 2026-08-31 00:37:14 | 51.35753 | 1.44000 | 48° | 9km/h | 21053m | 5.5m/s | -53.1°C | 4.0% | 0hPa | 2.6V | 00:00:00 | 01:47:01 | 00:00:00 | |
| DM0DOS-11 | 2026-08-31 00:37:11 | 51.35751 | 1.43990 | 79° | 11km/h | 21036m | 5.2m/s | -53°C | 3.9% | 0hPa | 2.6V | 08:30:00 | 01:46:58 | 00:00:00 | |
| DO1YAY-16 | 2026-08-31 00:37:09 | 51.35749 | 1.43983 | 59° | 7km/h | 21026m | 6.0m/s | -53.0°C | 0.8% | -1.0hPa | 2.6V | 00:00:00 | 00:00:00 | 00:00:00 | |
| BIOWL1-15 | 2026-08-31 00:37:01 | 51.35723 | 1.43910 | 61° | 9km/h | 20894m | 6.1m/s | -52.4°C | 0% | 0hPa | 2.6V | 18:12:15 | 01:46:31 | 00:00:00 | |
| DM0DOS-11 | 2026-08-31 00:37:01 | 51.35737 | 1.43955 | 54° | 11km/h | 20983m | 6.2m/s | -52.6°C | 3.8% | 0hPa | 2.7V | 08:30:00 | 01:46:48 | 00:00:00 | |
| BIOWL9-15 | 2026-08-31 00:37:00 | 51.35730 | 1.43940 | 62° | 7km/h | 20957m | 5.2m/s | -52.4°C | 0.8% | -1.0hPa | 2.6V | 00:00:00 | 00:00:00 | 00:00:00 | |
| DJ2DS-15 | 2026-08-31 00:36:54 | 51.35730 | 1.43936 | 85° | 9km/h | 20952m | 5.9m/s | -52.4°C | 0.8% | -1.0hPa | 2.6V | 00:00:00 | 00:00:00 | 00:00:00 | |
| DM0DOS-11 | 2026-08-31 00:36:51 | 51.35730 | 1.43922 | 85° | 5km/h | 20930m | 4.3m/s | -52.2°C | 3.6% | 0hPa | 2.6V | 08:30:00 | 01:46:38 | 00:00:00 | |
| DO9LL-15 | 2026-08-31 00:36:43 | 51.35723 | 1.43910 | 62° | 13km/h | 20895m | 6.0m/s | -52.3°C | 3.6% | 0hPa | 2.6V | 00:00:00 | 01:46:31 | 00:00:00 | |
| DM0DOS-11 | 2026-08-31 00:36:42 | 51.35720 | 1.43894 | 77° | 15km/h | 20879m | 5.8m/s | -52.3°C | 3.6% | 0hPa | 2.7V | 08:30:00 | 01:46:28 | 00:00:00 | |
| DO1YAY-16 | 2026-08-31 00:36:38 | 51.35717 | 1.43878 | 65° | 13km/h | 20864m | 5.5m/s | -52.2°C | 0.8% | -1.0hPa | 2.6V | 00:00:00 | 00:00:00 | 00:00:00 | |
| DM0DOS-11 | 2026-08-31 00:36:31 | 51.35712 | 1.43853 | 99° | 11km/h | 20828m | 5.2m/s | -52.6°C | 3.7% | 0hPa | 2.6V | 08:30:00 | 01:46:18 | 00:00:00 | |
| BIOWL1-15 | 2026-08-31 00:36:28 | 51.35713 | 1.43843 | 109° | 13km/h | 20818m | 5.9m/s | -52.6°C | 0.1% | 0hPa | 2.6V | 18:12:15 | 01:46:16 | 00:00:00 | |
| DM0DOS-11 | 2026-08-31 00:36:22 | 51.35704 | 1.43787 | 68° | 15km/h | 20778m | 4.7m/s | -52.8°C | 3.7% | 0hPa | 2.6V | 08:30:00 | 01:46:08 | 00:00:00 | |
| BIOWL1-15 | 2026-08-31 00:36:17 | 51.35702 | 1.43770 | 79° | 15km/h | 20764m | 5.5m/s | -52.7°C | 0.1% | 0hPa | 2.7V | 18:12:15 | 01:46:05 | 00:00:00 | |
| DO9LL-15 | 2026-08-31 00:36:12 | 51.35697 | 1.43739 | 82° | 38km/h | 20738m | 5.4m/s | -52.6°C | 3.7% | 0hPa | 2.6V | 00:00:00 | 01:46:00 | 00:00:00 | |
| DM0DOS-11 | 2026-08-31 00:36:11 | 51.35693 | 1.43700 | 75° | 24km/h | 20712m | 5.2m/s | -52.8°C | 3.7% | 0hPa | 2.6V | 08:30:00 | 01:45:55 | 00:00:00 | |
| BIOWL1-15 | 2026-08-31 00:36:08 | 51.35683 | 1.43650 | 74° | 27km/h | 20686m | 3.7m/s | -52.9°C | 0.2% | 0hPa | 2.6V | 18:12:15 | 01:45:50 | 00:00:00 | |
| DO1YAY-16 | 2026-08-31 00:36:06 | 51.35691 | 1.43691 | 71° | 22km/h | 20707m | 5.7m/s | -52.8°C | 0.8% | -1.0hPa | 2.7V | 00:00:00 | 00:00:00 | 00:00:00 | |
| DM0DOS-11 | 2026-08-31 00:36:01 | 51.35675 | 1.43600 | 78° | 29km/h | 20661m | 4.6m/s | -52.9°C | 3.7% | 0hPa | 2.7V | 08:30:00 | 01:45:45 | 00:00:00 | |
| BIOWL9-15 | 2026-08-31 00:35:58 | 51.35675 | 1.43600 | 78° | 27km/h | 20661m | 4.6m/s | -52.9°C | 0.8% | -1.0hPa | 2.6V | 00:00:00 | 00:00:00 | 00:00:00 | |
| DM0DOS-11 | 2026-08-31 00:35:51 | 51.35657 | 1.43506 | 67° | 15km/h | 20613m | 4.7m/s | -53.1°C | 3.8% | 0hPa | 2.6V | 08:30:00 | 01:45:35 | 00:00:00 | |
| BIOWL1-15 | 2026-08-31 00:35:51 | 51.35663 | 1.43537 | 77° | 27km/h | 20633m | 4.2m/s | -53.1°C | 0.1% | 0hPa | 2.7V | 18:12:15 | 01:45:39 | 00:00:00 | |
| DB0UT-7 | 2026-08-31 00:35:46 | 51.35655 | 1.43500 | 70° | 22km/h | 20608m | 4.8m/s | -53.1°C | 3.8% | 0hPa | 2.6V | 00:00:00 | 01:45:34 | 00:00:00 | |
| DJ2DS-15 | 2026-08-31 00:35:42 | 51.35643 | 1.43473 | 48° | 26km/h | 20590m | 4.3m/s | -53.0°C | 0.8% | -1.0hPa | 2.7V | 00:00:00 | 00:00:00 | 00:00:00 | |
| DM0DOS-11 | 2026-08-31 00:35:39 | 51.35623 | 1.43425 | 50° | 26km/h | 20567m | 5m/s | -53°C | 3.8% | 0hPa | 2.7V | 08:30:00 | 01:45:25 | 00:00:00 | |
| DO1YAY-16 | 2026-08-31 00:35:36 | 51.35615 | 1.43412 | 44° | 20km/h | 20558m | 4.0m/s | -53.1°C | 0.8% | -1.0hPa | 2.6V | 00:00:00 | 00:00:00 | 00:00:00 | |
| DM0DOS-11 | 2026-08-31 00:35:31 | 51.35586 | 1.43365 | 45° | 22km/h | 20520m | 4.1m/s | -53.1°C | 3.7% | 0hPa | 2.6V | 08:30:00 | 01:45:15 | 00:00:00 | |
| BIOWL1-15 | 2026-08-31 00:35:28 | 51.35560 | 1.43326 | 51° | 22km/h | 20491m | 3.4m/s | -53°C | 0.1% | 0hPa | 2.7V | 18:12:15 | 01:45:09 | 00:00:00 | |
| BIOWL9-15 | 2026-08-31 00:35:26 | 51.35582 | 1.43359 | 42° | 24km/h | 20515m | 5.6m/s | -53.1°C | 0.8% | -1.0hPa | 2.6V | 00:00:00 | 00:00:00 | 00:00:00 | |
| DM0DOS-11 | 2026-08-31 00:35:18 | 51.35545 | 1.43303 | 43° | 18km/h | 20474m | 5.1m/s | -53.5°C | 3.8% | 0hPa | 2.6V | 08:30:00 | 01:45:05 | 00:00:00 | |
| BIOWL1-15 | 2026-08-31 00:35:16 | 51.35479 | 1.43218 | 51° | 24km/h | 20392m | 4.8m/s | -54.2°C | 0.3% | 0hPa | 2.6V | 18:12:15 | 01:44:47 | 00:00:00 | |
| DM0DOS-11 | 2026-08-31 00:35:12 | 51.35512 | 1.43280 | 35° | 18km/h | 20428m | 4.1m/s | -54.1°C | 4% | 0hPa | 2.7V | 08:30:00 | 01:44:55 | 00:00:00 | |
| BIOWL1-15 | 2026-08-31 00:35:06 | 51.35476 | 1.43211 | 54° | 22km/h | 20387m | 4.2m/s | -54.2°C | 0.3% | 0hPa | 2.6V | 18:12:15 | 01:44:46 | 00:00:00 | |
| DO1YAY-16 | 2026-08-31 00:35:04 | 51.35501 | 1.43259 | 57° | 24km/h | 20414m | 4.0m/s | -54.1°C | 0.9% | -1.0hPa | 2.6V | 00:00:00 | 00:00:00 | 00:00:00 | |
| DM0DOS-11 | 2026-08-31 00:35:02 | 51.35472 | 1.43204 | 51° | 22km/h | 20383m | 4.6m/s | -54.2°C | 4% | 0hPa | 2.6V | 08:30:00 | 01:44:45 | 00:00:00 | |
| BIOWL1-15 | 2026-08-31 00:34:52 | 51.35439 | 1.43165 | 30° | 24km/h | 20347m | 3.4m/s | -54.1°C | 0.2% | 0hPa | 2.6V | 18:12:15 | 01:44:37 | 00:00:00 | |
| DM0DOS-11 | 2026-08-31 00:34:51 | 51.35429 | 1.43155 | 41° | 20km/h | 20338m | 4.6m/s | -54°C | 3.9% | 0hPa | 2.7V | 08:30:00 | 01:44:35 | 00:00:00 | |
| BIOWL1-15 | 2026-08-31 00:34:41 | 51.35408 | 1.43122 | 42° | 15km/h | 20311m | 3.9m/s | -54.5°C | 0.3% | 0hPa | 2.7V | 18:12:15 | 01:44:29 | 00:00:00 | |
| DM0DOS-11 | 2026-08-31 00:34:41 | 51.35394 | 1.43110 | 24° | 16km/h | 20294m | 3.9m/s | -54.5°C | 4.2% | 0hPa | 2.7V | 08:30:00 | 01:44:25 | 00:00:00 | |
| DO1YAY-16 | 2026-08-31 00:34:33 | 51.35383 | 1.43094 | 55° | 15km/h | 20275m | 5.6m/s | -54.4°C | 0.9% | -1.0hPa | 2.6V | 00:00:00 | 00:00:00 | 00:00:00 | |
| DM0DOS-11 | 2026-08-31 00:34:31 | 51.35373 | 1.43063 | 49° | 16km/h | 20246m | 4m/s | -54.2°C | 4.1% | 0hPa | 2.6V | 08:30:00 | 01:44:15 | 00:00:00 | |
| DJ2DS-15 | 2026-08-31 00:34:30 | 51.35378 | 1.43078 | 73° | 13km/h | 20260m | 4.0m/s | -54.3°C | 0.9% | -1.0hPa | 2.6V | 00:00:00 | 00:00:00 | 00:00:00 | |
| DM0DOS-11 | 2026-08-31 00:34:21 | 51.35348 | 1.43009 | 64° | 20km/h | 20201m | 5.3m/s | -54°C | 4% | 0hPa | 2.6V | 08:30:00 | 01:44:05 | 00:00:00 | |
| DM0DOS-11 | 2026-08-31 00:34:10 | 51.35326 | 1.42945 | 70° | 20km/h | 20153m | 4.3m/s | -53.6°C | 3.9% | 0hPa | 2.7V | 08:30:00 | 01:43:55 | 00:00:00 | |
| DO1YAY-16 | 2026-08-31 00:34:03 | 51.35310 | 1.42893 | 70° | 22km/h | 20125m | 4.4m/s | -53.7°C | 0.9% | -1.0hPa | 2.7V | 00:00:00 | 00:00:00 | 00:00:00 | |
| DM0DOS-11 | 2026-08-31 00:34:00 | 51.35301 | 1.42861 | 65° | 18km/h | 20106m | 5.4m/s | -53.7°C | 3.9% | 0hPa | 2.7V | 08:30:00 | 01:43:45 | 00:00:00 | |
| BIOWL1-15 | 2026-08-31 00:33:53 | 51.35292 | 1.42831 | 61° | 26km/h | 20086m | 4.8m/s | -53.8°C | 0.2% | 0hPa | 2.6V | 18:12:15 | 01:43:41 | 00:00:00 | |
| DM0DOS-11 | 2026-08-31 00:33:49 | 51.35275 | 1.42770 | 64° | 29km/h | 20056m | 5.1m/s | -53.9°C | 4% | 0hPa | 2.6V | 08:30:00 | 01:43:35 | 00:00:00 | |
| BIOWL1-15 | 2026-08-31 00:33:42 | 51.35246 | 1.42643 | 75° | 35km/h | 19991m | 5.2m/s | -54°C | 0.3% | 0hPa | 2.6V | 18:12:15 | 01:43:22 | 00:00:00 | |
| DM0DOS-11 | 2026-08-31 00:33:38 | 51.35252 | 1.42678 | 77° | 26km/h | 20006m | 4m/s | -54°C | 4% | 0hPa | 2.7V | 08:30:00 | 01:43:25 | 00:00:00 | |
| DM0DOS-11 | 2026-08-31 00:33:33 | 51.35226 | 1.42547 | 70° | 33km/h | 19954m | 5.2m/s | -53.8°C | 4% | 0hPa | 2.6V | 08:30:00 | 01:43:15 | 00:00:00 | |
| BIOWL1-15 | 2026-08-31 00:33:30 | 51.35237 | 1.42587 | 69° | 38km/h | 19969m | 5.6m/s | -53.9°C | 0.2% | 0hPa | 2.7V | 18:12:15 | 01:43:18 | 00:00:00 | |
| BIOWL9-15 | 2026-08-31 00:33:22 | 51.35212 | 1.42485 | 67° | 33km/h | 19929m | 4.7m/s | -53.7°C | -1.0% | -1.0hPa | 2.7V | 00:00:00 | 00:00:00 | 00:00:00 | |
| DM0DOS-11 | 2026-08-31 00:33:21 | 51.35202 | 1.42427 | 69° | 31km/h | 19903m | 5.3m/s | -53.7°C | 4% | 0hPa | 2.7V | 08:30:00 | 01:43:05 | 00:00:00 | |
| BIOWL1-15 | 2026-08-31 00:33:19 | 51.35206 | 1.42450 | 80° | 29km/h | 19914m | 4.1m/s | -53.7°C | 0.2% | 0hPa | 2.7V | 18:12:15 | 01:43:07 | 00:00:00 | |
| DM0DOS-11 | 2026-08-31 00:33:11 | 51.35165 | 1.42322 | 64° | 29km/h | 19850m | 4.2m/s | -53.6°C | 4% | 0hPa | 2.6V | 08:30:00 | 01:42:55 | 00:00:00 | |
| BIOWL1-15 | 2026-08-31 00:33:09 | 51.35154 | 1.42289 | 57° | 33km/h | 19834m | 4.9m/s | -53.5°C | 0.3% | 0hPa | 2.6V | 18:12:15 | 01:42:52 | 00:00:00 | |
| DM0DOS-11 | 2026-08-31 00:33:01 | 51.35122 | 1.42226 | 48° | 26km/h | 19795m | 6.3m/s | -53.3°C | 3.9% | 0hPa | 2.6V | 08:30:00 | 01:42:45 | 00:00:00 | |
| BIOWL1-15 | 2026-08-31 00:32:54 | 51.35110 | 1.42202 | 49° | 27km/h | 19779m | 5.8m/s | -53.3°C | 0.2% | 0hPa | 2.7V | 18:12:15 | 01:42:42 | 00:00:00 | |
| DM0DOS-11 | 2026-08-31 00:32:51 | 51.35080 | 1.42146 | 56° | 24km/h | 19741m | 5.3m/s | -53.3°C | 3.9% | 0hPa | 2.7V | 08:30:00 | 01:42:35 | 00:00:00 | |
| BIOWL1-15 | 2026-08-31 00:32:43 | 51.35058 | 1.42079 | 52° | 24km/h | 19696m | 6.4m/s | -53°C | 0.2% | 0hPa | 2.6V | 18:12:15 | 01:42:27 | 00:00:00 | |
| DJ2DS-15 | 2026-08-31 00:32:42 | 51.35065 | 1.42095 | 64° | 22km/h | 19707m | 5.7m/s | -53.1°C | 0.9% | -1.0hPa | 2.6V | 00:00:00 | 00:00:00 | 00:00:00 | |
| DM0DOS-11 | 2026-08-31 00:32:41 | 51.35049 | 1.42065 | 37° | 26km/h | 19685m | 5m/s | -52.9°C | 3.8% | 0hPa | 2.6V | 08:30:00 | 01:42:25 | 00:00:00 | |
| BIOWL1-15 | 2026-08-31 00:32:33 | 51.35032 | 1.42041 | 45° | 26km/h | 19663m | 6.2m/s | -52.7°C | 0.2% | 0hPa | 2.6V | 18:12:15 | 01:42:21 | 00:00:00 | |
| DM0DOS-11 | 2026-08-31 00:32:31 | 51.35007 | 1.41993 | 44° | 27km/h | 19630m | 6.1m/s | -52.5°C | 3.8% | 0hPa | 2.7V | 08:30:00 | 01:42:15 | 00:00:00 | |
| BIOWL1-15 | 2026-08-31 00:32:23 | 51.34986 | 1.41964 | 45° | 24km/h | 19608m | 5.1m/s | -52.4°C | 0.1% | 0hPa | 2.6V | 18:12:15 | 01:42:11 | 00:00:00 | |
| DM0DOS-11 | 2026-08-31 00:32:21 | 51.34957 | 1.41914 | 56° | 33km/h | 19575m | 4.3m/s | -52.2°C | 3.6% | 0hPa | 2.6V | 08:30:00 | 01:42:05 | 00:00:00 | |
| BIOWL1-15 | 2026-08-31 00:32:13 | 51.34937 | 1.41869 | 56° | 33km/h | 19553m | 6m/s | -52.3°C | 0.1% | 0hPa | 2.6V | 18:12:15 | 01:42:01 | 00:00:00 | |
| DM0DOS-11 | 2026-08-31 00:32:10 | 51.34892 | 1.41783 | 51° | 35km/h | 19505m | 4.5m/s | -52.1°C | 3.6% | 0hPa | 2.7V | 08:30:00 | 01:41:52 | 00:00:00 | |
| DM0DOS-11 | 2026-08-31 00:31:59 | 51.34847 | 1.41648 | 66° | 37km/h | 19454m | 5m/s | -51.9°C | 3.6% | 0hPa | 2.6V | 08:30:00 | 01:41:42 | 00:00:00 | |
| DO1YAY-16 | 2026-08-31 00:31:58 | 51.34863 | 1.41704 | 60° | 38km/h | 19474m | 4.2m/s | -52.0°C | 0.8% | -1.0hPa | 2.6V | 00:00:00 | 00:00:00 | 00:00:00 | |
| DB0UT-7 | 2026-08-31 00:31:51 | 51.34834 | 1.41614 | 54° | 40km/h | 19439m | 4.9m/s | -51.7°C | 3.5% | 0hPa | 2.6V | 00:00:00 | 00:00:00 | 00:00:00 | |
| DM0DOS-11 | 2026-08-31 00:31:49 | 51.34807 | 1.41528 | 76° | 35km/h | 19396m | 4.2m/s | -51.8°C | 3.6% | 0hPa | 2.6V | 08:30:00 | 01:41:31 | 00:00:00 | |
| DM0DOS-11 | 2026-08-31 00:31:38 | 51.34782 | 1.41420 | 60° | 29km/h | 19346m | 4.5m/s | -52.1°C | 3.7% | 0hPa | 2.7V | 08:30:00 | 01:41:21 | 00:00:00 | |
| DJ2DS-15 | 2026-08-31 00:31:30 | 51.34771 | 1.41376 | 72° | 29km/h | 19326m | 4.5m/s | -52.1°C | -1.0% | -1.0hPa | 2.6V | 00:00:00 | 00:00:00 | 00:00:00 | |
| DM0DOS-11 | 2026-08-31 00:31:28 | 51.34753 | 1.41313 | 62° | 26km/h | 19294m | 4.6m/s | -52°C | 3.7% | 0hPa | 2.6V | 08:30:00 | 01:41:11 | 00:00:00 | |
| DO1YAY-16 | 2026-08-31 00:31:27 | 51.34766 | 1.41354 | 64° | 29km/h | 19315m | 4.6m/s | 0°C | -1.0% | -1.0hPa | 2.6V | 00:00:00 | 00:00:00 | 00:00:00 | |
| DM0DOS-11 | 2026-08-31 00:31:14 | 51.34717 | 1.41225 | 61° | 31km/h | 19244m | 4.5m/s | -51.8°C | 3.6% | 0hPa | 2.6V | 08:30:00 | 01:41:01 | 00:00:00 | |
| BIOWL1-15 | 2026-08-31 00:31:12 | 51.34698 | 1.41157 | 63° | 31km/h | 19214m | 4.8m/s | -51.9°C | 0.1% | 0hPa | 2.6V | 18:12:15 | 01:40:55 | 00:00:00 | |
| DM0DOS-11 | 2026-08-31 00:31:08 | 51.34684 | 1.41110 | 62° | 37km/h | 19194m | 5.2m/s | -51.7°C | 3.6% | 0hPa | 2.7V | 08:30:00 | 01:40:51 | 00:00:00 | |
| BIOWL1-15 | 2026-08-31 00:31:02 | 51.34680 | 1.41097 | 64° | 37km/h | 19189m | 4.5m/s | -51.7°C | 0% | 0hPa | 2.7V | 18:12:15 | 01:40:50 | 00:00:00 | |
| BIOWL1-15 | 2026-08-31 00:30:51 | 51.34630 | 1.40911 | 67° | 40km/h | 19125m | 4.4m/s | -51.5°C | 0% | 0hPa | 2.6V | 18:12:15 | 01:40:37 | 00:00:00 | |
| DM0DOS-11 | 2026-08-31 00:30:48 | 51.34605 | 1.40810 | 67° | 44km/h | 19096m | 4.1m/s | -51.3°C | 3.5% | 0hPa | 2.7V | 08:30:00 | 01:40:31 | 00:00:00 | |
| BIOWL1-15 | 2026-08-31 00:30:40 | 51.34577 | 1.40729 | 61° | 46km/h | 19072m | 4.2m/s | -51.2°C | 0% | 0hPa | 2.7V | 18:12:15 | 01:40:26 | 00:00:00 | |
| DB0UT-7 | 2026-08-31 00:30:38 | 51.34577 | 1.40729 | 62° | 49km/h | 19072m | 4.2m/s | -51.1°C | 3.5% | 0hPa | 2.7V | 00:00:00 | 01:40:26 | 00:00:00 | |
| DM0DOS-11 | 2026-08-31 00:30:34 | 51.34552 | 1.40642 | 71° | 47km/h | 19046m | 4.6m/s | -51.2°C | 3.5% | 0hPa | 2.7V | 08:30:00 | 01:40:21 | 00:00:00 | |
| BIOWL1-15 | 2026-08-31 00:30:30 | 51.34422 | 1.40252 | 51° | 49km/h | 18940m | 4.7m/s | -51.4°C | 0% | 0hPa | 2.6V | 18:12:15 | 01:39:59 | 00:00:00 | |
| DM0DOS-11 | 2026-08-31 00:30:28 | 51.34493 | 1.40443 | 65° | 47km/h | 18994m | 4m/s | -51.3°C | 3.5% | 0hPa | 2.6V | 08:30:00 | 01:40:10 | 00:00:00 | |
| BIOWL1-15 | 2026-08-31 00:30:17 | 51.34414 | 1.40237 | 53° | 51km/h | 18936m | 3.8m/s | -51.4°C | 0% | 0hPa | 2.6V | 18:12:15 | 01:39:58 | 00:00:00 | |
| DM0DOS-11 | 2026-08-31 00:30:11 | 51.34414 | 1.40236 | 52° | 51km/h | 18936m | 3.8m/s | -51.4°C | 3.5% | 0hPa | 2.6V | 08:30:00 | 01:39:58 | 00:00:00 | |
| BIOWL1-15 | 2026-08-31 00:30:03 | 51.34353 | 1.40090 | 55° | 55km/h | 18898m | 4.5m/s | -51.5°C | 0.1% | 0hPa | 2.7V | 18:12:15 | 01:39:50 | 00:00:00 | |
| DM0DOS-11 | 2026-08-31 00:30:01 | 51.34337 | 1.40057 | 48° | 51km/h | 18888m | 3.9m/s | -51.5°C | 3.6% | 0hPa | 2.6V | 08:30:00 | 01:39:48 | 00:00:00 | |
| BIOWL1-15 | 2026-08-31 00:29:52 | 51.34236 | 1.39878 | 50° | 42km/h | 18832m | 3.8m/s | -51.6°C | 0.1% | 0hPa | 2.6V | 18:12:15 | 01:39:36 | 00:00:00 | |
| DM0DOS-11 | 2026-08-31 00:29:51 | 51.34249 | 1.39905 | 53° | 46km/h | 18842m | 5.7m/s | -51.6°C | 3.6% | 0hPa | 2.7V | 08:30:00 | 01:39:38 | 00:00:00 | |
| BIOWL1-15 | 2026-08-31 00:29:42 | 51.34105 | 1.39688 | 36° | 37km/h | 18756m | 4.8m/s | -51.1°C | 0% | 0hPa | 2.7V | 18:12:15 | 01:39:20 | 00:00:00 | |
| DM0DOS-11 | 2026-08-31 00:29:41 | 51.34167 | 1.39777 | 41° | 49km/h | 18794m | 3.6m/s | -51.4°C | 3.6% | 0hPa | 2.7V | 08:30:00 | 01:39:28 | 00:00:00 | |
| BIOWL1-15 | 2026-08-31 00:29:26 | 51.34058 | 1.39632 | 37° | 38km/h | 18728m | 4.4m/s | -51°C | 0.1% | 0hPa | 2.7V | 18:12:15 | 01:39:14 | 00:00:00 | |
| DM0DOS-11 | 2026-08-31 00:29:21 | 51.34012 | 1.39568 | 41° | 38km/h | 18700m | 3.3m/s | -51.1°C | 3.5% | 0hPa | 2.7V | 08:30:00 | 01:39:08 | 00:00:00 | |
| BIOWL1-15 | 2026-08-31 00:29:16 | 51.33974 | 1.39523 | 29° | 35km/h | 18677m | 3.9m/s | -50.9°C | 0.1% | 0hPa | 2.7V | 18:12:15 | 01:39:03 | 00:00:00 | |
| BIOWL1-15 | 2026-08-31 00:29:06 | 51.33906 | 1.39446 | 49° | 40km/h | 18636m | 4.5m/s | -50.6°C | 0% | 0hPa | 2.6V | 18:12:15 | 01:38:54 | 00:00:00 | |
| DM0DOS-11 | 2026-08-31 00:28:58 | 51.33849 | 1.39372 | 42° | 27km/h | 18593m | 5.3m/s | -50.2°C | 3.4% | 0hPa | 2.7V | 08:30:00 | 01:38:45 | 00:00:00 | |
| BIOWL1-15 | 2026-08-31 00:28:55 | 51.33824 | 1.39329 | 44° | 35km/h | 18569m | 3.7m/s | -50°C | 0% | 0hPa | 2.7V | 18:12:15 | 01:38:40 | 00:00:00 | |
| DM0DOS-11 | 2026-08-31 00:28:48 | 51.33799 | 1.39285 | 48° | 27km/h | 18546m | 5.6m/s | -49.8°C | 3.3% | 0hPa | 2.6V | 08:30:00 | 01:38:35 | 00:00:00 | |
| BIOWL1-15 | 2026-08-31 00:28:42 | 51.33749 | 1.39169 | 52° | 26km/h | 18483m | 4.8m/s | -49.6°C | 0% | 0hPa | 2.7V | 18:12:15 | 01:38:22 | 00:00:00 | |
| DM0DOS-11 | 2026-08-31 00:28:38 | 51.33762 | 1.39193 | 53° | 24km/h | 18497m | 4.8m/s | -49.6°C | 3.2% | 0hPa | 2.6V | 08:30:00 | 01:38:25 | 00:00:00 | |
| BIOWL1-15 | 2026-08-31 00:28:31 | 51.33739 | 1.39146 | 58° | 24km/h | 18470m | 4.8m/s | -49.7°C | 0% | 0hPa | 2.6V | 18:12:15 | 01:38:19 | 00:00:00 | |
| DM0DOS-11 | 2026-08-31 00:28:28 | 51.33725 | 1.39111 | 62° | 24km/h | 18450m | 4.9m/s | -50°C | 3.3% | 0hPa | 2.7V | 08:30:00 | 01:38:15 | 00:00:00 | |
| DB0UT-7 | 2026-08-31 00:28:25 | 51.33720 | 1.39093 | 63° | 38km/h | 18442m | 5.4m/s | -50.0°C | 3.3% | 0hPa | 2.6V | 00:00:00 | 00:00:00 | 00:00:00 | |
| DM0DOS-11 | 2026-08-31 00:28:23 | 51.33694 | 1.39020 | 56° | 29km/h | 18404m | 5.1m/s | -49.9°C | 3.3% | 0hPa | 2.7V | 08:30:00 | 01:38:05 | 00:00:00 | |
| BIOWL1-15 | 2026-08-31 00:28:22 | 51.33709 | 1.39058 | 62° | 24km/h | 18423m | 3.8m/s | -50°C | 0% | 0hPa | 2.7V | 18:12:15 | 01:38:09 | 00:00:00 | |
| DM0DOS-11 | 2026-08-31 00:28:12 | 51.33611 | 1.38663 | 72° | 31km/h | 18266m | 4.5m/s | -50.2°C | 3.3% | 0hPa | 2.7V | 08:30:00 | 01:37:36 | 00:00:00 | |
| BIOWL9-15 | 2026-08-31 00:28:12 | 51.33631 | 1.38762 | 75° | 35km/h | 18304m | 5.4m/s | -50.0°C | 0.8% | -1.0hPa | 2.7V | 00:00:00 | 00:00:00 | 00:00:00 | |
| BIOWL1-15 | 2026-08-31 00:28:11 | 51.33589 | 1.38579 | 63° | 38km/h | 18239m | 4.2m/s | 0°C | 0% | 0hPa | 2.7V | 18:12:15 | 01:37:30 | 00:00:00 | |
| DM0DOS-11 | 2026-08-31 00:27:42 | 51.33579 | 1.38551 | 58° | 40km/h | 18228m | 4.5m/s | -50.4°C | 3.4% | 0hPa | 2.6V | 08:30:00 | 01:37:28 | 00:00:00 | |
| BIOWL1-15 | 2026-08-31 00:27:36 | 51.33534 | 1.38436 | 68° | 38km/h | 18184m | 4.4m/s | 0°C | 0% | 0hPa | 2.6V | 18:12:15 | 01:37:19 | 00:00:00 | |
| DM0DOS-11 | 2026-08-31 00:27:31 | 51.33531 | 1.38421 | 68° | 42km/h | 18179m | 5.1m/s | -50.3°C | 3.4% | 0hPa | 2.7V | 08:30:00 | 01:37:18 | 00:00:00 | |
| BIOWL1-15 | 2026-08-31 00:27:24 | 51.33475 | 1.38261 | 52° | 42km/h | 18126m | 4.6m/s | 0°C | 0% | 0hPa | 2.7V | 18:12:15 | 01:37:07 | 00:00:00 | |
| DM0DOS-11 | 2026-08-31 00:27:21 | 51.33481 | 1.38274 | 51° | 40km/h | 18132m | 5.5m/s | -49.9°C | 3.3% | 0hPa | 2.6V | 08:30:00 | 01:37:08 | 00:00:00 | |
| BIOWL1-15 | 2026-08-31 00:27:20 | 51.33446 | 1.38193 | 59° | 40km/h | 18104m | 5.4m/s | 0°C | 0% | 0hPa | 2.6V | 18:12:15 | 01:37:02 | 00:00:00 | |
| DM0DOS-11 | 2026-08-31 00:27:15 | 51.33424 | 1.38137 | 60° | 38km/h | 18085m | 5m/s | -49.8°C | 3.3% | 0hPa | 2.6V | 08:30:00 | 01:36:58 | 00:00:00 | |
| BIOWL1-15 | 2026-08-31 00:27:03 | 51.33379 | 1.38045 | 45° | 44km/h | 18049m | 5.7m/s | 0°C | 0% | 0hPa | 2.6V | 18:12:15 | 01:36:51 | 00:00:00 | |
| DM0DOS-11 | 2026-08-31 00:27:02 | 51.33357 | 1.38009 | 46° | 37km/h | 18036m | 5.3m/s | -49.7°C | 3.3% | 0hPa | 2.6V | 08:30:00 | 01:36:48 | 00:00:00 | |
| DM0DOS-11 | 2026-08-31 00:26:52 | 51.33300 | 1.37891 | 50° | 37km/h | 17987m | 5.6m/s | -49.6°C | 3.2% | 0hPa | 2.7V | 08:30:00 | 01:36:38 | 00:00:00 | |
| BIOWL1-15 | 2026-08-31 00:26:52 | 51.33300 | 1.37891 | 51° | 37km/h | 17987m | 5.6m/s | 0°C | 0% | 0hPa | 2.7V | 18:12:15 | 01:36:38 | 00:00:00 | |
| BIOWL1-15 | 2026-08-31 00:26:44 | 51.33226 | 1.37730 | 57° | 40km/h | 17918m | 4.5m/s | 0°C | 0% | 0hPa | 2.6V | 18:12:15 | 01:36:24 | 00:00:00 | |
| DB0UT-7 | 2026-08-31 00:26:43 | 51.33262 | 1.37813 | 51° | 47km/h | 17953m | 4.7m/s | -49.5°C | 3.2% | 0hPa | 2.6V | 00:00:00 | 00:00:00 | 00:00:00 | |
| DM0DOS-11 | 2026-08-31 00:26:42 | 51.33247 | 1.37779 | 53° | 35km/h | 17937m | 5.4m/s | -49.4°C | 3.2% | 0hPa | 2.6V | 08:30:00 | 01:36:28 | 00:00:00 | |
| BIOWL9-15 | 2026-08-31 00:26:38 | 51.33231 | 1.37744 | 57° | 38km/h | 17923m | 5.8m/s | -49.4°C | 0.7% | -1.0hPa | 2.6V | 00:00:00 | 00:00:00 | 00:00:00 | |
| DM0DOS-11 | 2026-08-31 00:26:32 | 51.33194 | 1.37649 | 59° | 38km/h | 17888m | 5.6m/s | -49.5°C | 3.2% | 0hPa | 2.6V | 08:30:00 | 01:36:18 | 00:00:00 | |
| BIOWL1-15 | 2026-08-31 00:26:28 | 51.33184 | 1.37625 | 58° | 37km/h | 17879m | 4.8m/s | 0°C | 0% | 0hPa | 2.7V | 18:12:15 | 01:36:16 | 00:00:00 | |
| DM0DOS-11 | 2026-08-31 00:26:22 | 51.33137 | 1.37513 | 57° | 49km/h | 17840m | 4.7m/s | -49.6°C | 3.2% | 0hPa | 2.7V | 08:30:00 | 01:36:08 | 00:00:00 | |
| DM0DOS-11 | 2026-08-31 00:26:11 | 51.33079 | 1.37352 | 63° | 46km/h | 17792m | 4.2m/s | -49.6°C | 3.2% | 0hPa | 2.7V | 08:30:00 | 01:35:58 | 00:00:00 | |
| DM0DOS-11 | 2026-08-31 00:26:01 | 51.33009 | 1.37186 | 56° | 49km/h | 17746m | 4.9m/s | -49.8°C | 3.3% | 0hPa | 2.6V | 08:30:00 | 01:35:48 | 00:00:00 | |
| DM0DOS-11 | 2026-08-31 00:25:51 | 51.32925 | 1.37028 | 49° | 57km/h | 17698m | 4.8m/s | -49.7°C | 3.2% | 0hPa | 2.7V | 08:30:00 | 01:35:38 | 00:00:00 | |
| DO9LL-15 | 2026-08-31 00:25:48 | 51.32907 | 1.36993 | 53° | 53km/h | 17690m | 4.5m/s | -49.6°C | 3.3% | 0hPa | 2.6V | 00:00:00 | 01:35:36 | 00:00:00 | |
| DM0DOS-11 | 2026-08-31 00:25:41 | 51.32841 | 1.36868 | 45° | 47km/h | 17652m | 4m/s | -49.6°C | 3.2% | 0hPa | 2.6V | 08:30:00 | 01:35:28 | 00:00:00 | |
| DM0DOS-11 | 2026-08-31 00:25:31 | 51.32760 | 1.36718 | 56° | 42km/h | 17604m | 3.6m/s | -50.1°C | 3.3% | 0hPa | 2.6V | 08:30:00 | 01:35:18 | 00:00:00 | |
| DB0UT-7 | 2026-08-31 00:25:30 | 51.32760 | 1.36718 | 57° | 53km/h | 17604m | 3.6m/s | -50.0°C | 3.3% | 0hPa | 2.6V | 00:00:00 | 01:35:18 | 08:30:00 | |
| DM0DOS-11 | 2026-08-31 00:25:21 | 51.32692 | 1.36555 | 54° | 53km/h | 17556m | 4.6m/s | -50.3°C | 3.3% | 0hPa | 2.6V | 08:30:00 | 01:35:08 | 00:00:00 | |
| DM0DOS-11 | 2026-08-31 00:25:06 | 51.32555 | 1.36251 | 48° | 47km/h | 17476m | 3.6m/s | -50.5°C | 3.4% | 0hPa | 2.6V | 08:30:00 | 01:34:51 | 00:00:00 | |
| BIOWL1-15 | 2026-08-31 00:25:01 | 51.32538 | 1.36220 | 51° | 53km/h | 17467m | 4.8m/s | -50.5°C | 0% | 0hPa | 2.6V | 18:12:15 | 01:34:49 | 00:00:00 | |
| DB0UT-7 | 2026-08-31 00:25:00 | 51.32530 | 1.36203 | 53° | 44km/h | 17463m | 3.7m/s | -50.5°C | 3.4% | 0hPa | 2.6V | 00:00:00 | 00:00:00 | 00:00:00 | |
| DM0DOS-11 | 2026-08-31 00:24:59 | 51.32467 | 1.36062 | 53° | 49km/h | 17425m | 3.7m/s | -50.8°C | 3.5% | 0hPa | 2.6V | 08:30:00 | 01:34:40 | 00:00:00 | |
| BIOWL1-15 | 2026-08-31 00:24:50 | 51.32452 | 1.36030 | 54° | 49km/h | 17416m | 4.9m/s | -50.9°C | 0% | 0hPa | 2.6V | 18:12:15 | 01:34:38 | 00:00:00 | |
| DM0DOS-11 | 2026-08-31 00:24:47 | 51.32389 | 1.35911 | 43° | 47km/h | 17377m | 4.8m/s | -50.6°C | 3.5% | 0hPa | 2.7V | 08:30:00 | 01:34:30 | 00:00:00 | |
| BIOWL1-15 | 2026-08-31 00:24:41 | 51.32363 | 1.35870 | 45° | 49km/h | 17363m | 4.1m/s | -50.5°C | 0% | 0hPa | 2.6V | 18:12:15 | 01:34:27 | 00:00:00 | |
| DM0DOS-11 | 2026-08-31 00:24:37 | 51.32307 | 1.35783 | 42° | 44km/h | 17330m | 5.8m/s | -50.3°C | 3.4% | 0hPa | 2.7V | 08:30:00 | 01:34:20 | 00:00:00 | |
| BIOWL1-15 | 2026-08-31 00:24:28 | 51.32274 | 1.35734 | 43° | 46km/h | 17311m | 3.4m/s | -50.2°C | 0% | 0hPa | 2.6V | 18:12:15 | 01:34:16 | 00:00:00 | |
| BIOWL1-15 | 2026-08-31 00:24:18 | 51.32202 | 1.35610 | 52° | 46km/h | 17265m | 3.5m/s | -50.2°C | 0% | 0hPa | 2.7V | 18:12:15 | 01:34:06 | 00:00:00 | |
| BIOWL1-15 | 2026-08-31 00:24:07 | 51.32129 | 1.35490 | 48° | 38km/h | 17214m | 4.5m/s | -50°C | 0% | 0hPa | 2.7V | 18:12:15 | 01:33:55 | 00:00:00 | |
| DM0DOS-11 | 2026-08-31 00:24:01 | 51.32090 | 1.35400 | 56° | 38km/h | 17179m | 4.2m/s | -50.1°C | 3.3% | 0hPa | 2.6V | 08:30:00 | 01:33:48 | 00:00:00 | |
| BIOWL1-15 | 2026-08-31 00:23:56 | 51.32064 | 1.35348 | 55° | 42km/h | 17160m | 4.6m/s | -50.1°C | 0% | 0hPa | 2.7V | 18:12:15 | 01:33:44 | 00:00:00 | |
| DM0DOS-11 | 2026-08-31 00:23:48 | 51.32016 | 1.35204 | 58° | 47km/h | 17116m | 4.9m/s | -49.9°C | 3.2% | 0hPa | 2.6V | 08:30:00 | 01:33:35 | 00:00:00 | |
| BIOWL1-15 | 2026-08-31 00:23:46 | 51.32010 | 1.35188 | 58° | 47km/h | 17111m | 4.6m/s | 0°C | 0% | 0hPa | 2.6V | 18:12:15 | 01:33:34 | 00:00:00 | |
| DM0DOS-11 | 2026-08-31 00:23:42 | 51.31950 | 1.35039 | 56° | 49km/h | 17070m | 4m/s | -50.1°C | 3.3% | 0hPa | 2.7V | 08:30:00 | 01:33:25 | 00:00:00 | |
| DM0DOS-11 | 2026-08-31 00:23:31 | 51.31870 | 1.34813 | 62° | 60km/h | 17014m | 5m/s | -50.1°C | 3.3% | 0hPa | 2.6V | 08:30:00 | 01:33:13 | 00:00:00 | |
| DB0UT-7 | 2026-08-31 00:23:18 | 51.31817 | 1.34685 | 56° | 53km/h | 16983m | 3.6m/s | -50.0°C | 3.3% | 0hPa | 2.6V | 00:00:00 | 00:00:00 | 00:00:00 | |
| DM0DOS-11 | 2026-08-31 00:23:12 | 51.31749 | 1.34506 | 52° | 53km/h | 16938m | 5m/s | -50.1°C | 3.3% | 0hPa | 2.7V | 08:30:00 | 01:32:56 | 00:00:00 | |
| DM0DOS-11 | 2026-08-31 00:23:01 | 51.31662 | 1.34348 | 57° | 47km/h | 16895m | 4.2m/s | -50.4°C | 3.3% | 0hPa | 2.6V | 08:30:00 | 01:32:46 | 00:00:00 | |
| DO9LL-15 | 2026-08-31 00:23:00 | 51.31676 | 1.34381 | 53° | 47km/h | 16904m | 5.1m/s | -50.3°C | 3.3% | 0hPa | 2.6V | 00:00:00 | 01:32:48 | 08:30:00 | |
| DM0DOS-11 | 2026-08-31 00:22:51 | 51.31587 | 1.34193 | 45° | 49km/h | 16851m | 5.2m/s | -50.5°C | 3.4% | 0hPa | 2.7V | 08:30:00 | 01:32:36 | 00:00:00 | |
| DM0DOS-11 | 2026-08-31 00:22:41 | 51.31507 | 1.34051 | 50° | 44km/h | 16809m | 3.6m/s | -50.8°C | 3.4% | 0hPa | 2.6V | 08:30:00 | 01:32:26 | 00:00:00 | |
| DM0DOS-11 | 2026-08-31 00:22:31 | 51.31435 | 1.33904 | 54° | 51km/h | 16766m | 4.7m/s | -51.3°C | 3.5% | 0hPa | 2.6V | 08:30:00 | 01:32:16 | 00:00:00 | |
| DO9LL-15 | 2026-08-31 00:22:29 | 51.31443 | 1.33920 | 54° | 53km/h | 16771m | 5.3m/s | -51.3°C | 3.5% | 0hPa | 2.6V | 00:00:00 | 01:32:17 | 00:00:00 | |
| DM0DOS-11 | 2026-08-31 00:22:08 | 51.31263 | 1.33545 | 47° | 53km/h | 16675m | 3.2m/s | -51.6°C | 3.6% | 0hPa | 2.6V | 08:30:00 | 01:31:55 | 00:00:00 | |
| DB0UT-7 | 2026-08-31 00:22:05 | 51.31246 | 1.33513 | 51° | 46km/h | 16666m | 4.6m/s | -51.6°C | 3.6% | 0hPa | 2.6V | 00:00:00 | 01:31:53 | 00:00:00 | |
| DO9LL-15 | 2026-08-31 00:21:59 | 51.31197 | 1.33426 | 44° | 46km/h | 16641m | 4.0m/s | -51.7°C | 3.6% | 0hPa | 2.6V | 00:00:00 | 01:31:47 | 00:00:00 | |
| DM0DOS-11 | 2026-08-31 00:21:55 | 51.31157 | 1.33363 | 49° | 44km/h | 16619m | 4m/s | -51.8°C | 3.6% | 0hPa | 2.6V | 08:30:00 | 01:31:42 | 00:00:00 | |
| DM0DOS-11 | 2026-08-31 00:21:38 | 51.31035 | 1.33026 | 68° | 46km/h | 16529m | 4.5m/s | -51.8°C | 3.6% | 0hPa | 2.7V | 08:30:00 | 01:31:21 | 00:00:00 | |
| BIOWL1-15 | 2026-08-31 00:21:25 | 51.30999 | 1.32882 | 71° | 51km/h | 16494m | 5.2m/s | -52.1°C | 0.1% | 0hPa | 2.6V | 18:12:15 | 01:31:13 | 00:00:00 | |
| DM0DOS-11 | 2026-08-31 00:21:22 | 51.30980 | 1.32802 | 65° | 55km/h | 16477m | 3.3m/s | -52°C | 3.7% | 0hPa | 2.7V | 08:30:00 | 01:31:09 | 00:00:00 | |
| DM0DOS-11 | 2026-08-31 00:21:15 | 51.30920 | 1.32607 | 66° | 57km/h | 16431m | 5.3m/s | -51.9°C | 3.7% | 0hPa | 2.7V | 08:30:00 | 01:30:59 | 00:00:00 | |
| BIOWL1-15 | 2026-08-31 00:21:13 | 51.30869 | 1.32438 | 59° | 57km/h | 16395m | 5.2m/s | -51.9°C | 0.1% | 0hPa | 2.7V | 18:12:15 | 01:30:51 | 00:00:00 | |
| BIOWL1-15 | 2026-08-31 00:21:05 | 51.30853 | 1.32401 | 55° | 57km/h | 16387m | 4.8m/s | -51.9°C | 0.1% | 0hPa | 2.6V | 18:12:15 | 01:30:49 | 00:00:00 | |
| DM0DOS-11 | 2026-08-31 00:21:03 | 51.30854 | 1.32401 | 55° | 57km/h | 16386m | 4.8m/s | -51.9°C | 3.7% | 0hPa | 2.6V | 08:30:00 | 01:30:49 | 00:00:00 | |
| DO9LL-15 | 2026-08-31 00:20:59 | 51.30837 | 1.32364 | 53° | 57km/h | 16378m | 3.8m/s | -51.8°C | 3.7% | 0hPa | 2.7V | 00:00:00 | 01:30:47 | 00:00:00 | |
| DM0DOS-11 | 2026-08-31 00:20:52 | 51.30776 | 1.32201 | 67° | 60km/h | 16341m | 3.9m/s | -51.5°C | 3.7% | 0hPa | 2.7V | 08:30:00 | 01:30:39 | 00:00:00 | |
| BIOWL1-15 | 2026-08-31 00:20:50 | 51.30756 | 1.32137 | 60° | 57km/h | 16328m | 4.7m/s | -51.4°C | 0.1% | 0hPa | 2.6V | 18:12:15 | 01:30:36 | 00:00:00 | |
| DM0DOS-11 | 2026-08-31 00:20:41 | 51.30708 | 1.32004 | 66° | 55km/h | 16296m | 4.1m/s | -51.1°C | 3.6% | 0hPa | 2.7V | 08:30:00 | 01:30:29 | 00:00:00 | |
| BIOWL1-15 | 2026-08-31 00:20:39 | 51.30690 | 1.31938 | 65° | 60km/h | 16282m | 3.9m/s | -51°C | 0% | 0hPa | 2.6V | 18:12:15 | 01:30:26 | 00:00:00 | |
| DM0DOS-11 | 2026-08-31 00:20:32 | 51.30645 | 1.31799 | 59° | 53km/h | 16250m | 4.8m/s | -50.7°C | 3.5% | 0hPa | 2.7V | 08:30:00 | 01:30:19 | 00:00:00 | |
| BIOWL1-15 | 2026-08-31 00:20:27 | 51.30544 | 1.31499 | 66° | 46km/h | 16175m | 4.8m/s | 0°C | 0% | 0hPa | 2.6V | 18:12:15 | 01:30:03 | 00:00:00 | |
| DM0DOS-11 | 2026-08-31 00:20:23 | 51.30577 | 1.31606 | 64° | 57km/h | 16204m | 4.8m/s | -50.6°C | 3.5% | 0hPa | 2.6V | 08:30:00 | 01:30:09 | 00:00:00 | |
| BIOWL1-15 | 2026-08-31 00:20:18 | 51.30540 | 1.31482 | 67° | 49km/h | 16171m | 3.8m/s | 0°C | 0% | 0hPa | 2.6V | 18:12:15 | 01:30:02 | 00:00:00 | |
| BIOWL1-15 | 2026-08-31 00:20:04 | 51.30470 | 1.31223 | 67° | 57km/h | 16107m | 4.5m/s | 0°C | 0% | 0hPa | 2.6V | 18:12:15 | 01:29:48 | 00:00:00 | |
| BIOWL1-15 | 2026-08-31 00:19:50 | 51.30385 | 1.30927 | 57° | 58km/h | 16039m | 4.8m/s | 0°C | 0% | 0hPa | 2.6V | 18:12:15 | 01:29:33 | 00:00:00 | |
| DO9LL-15 | 2026-08-31 00:19:29 | 51.30274 | 1.30632 | 61° | 51km/h | 15964m | 4.8m/s | -49.7°C | 3.3% | 0hPa | 2.6V | 00:00:00 | 01:29:17 | 00:00:00 | |
| DO9LL-15 | 2026-08-31 00:18:59 | 51.30103 | 1.30081 | 62° | 55km/h | 15826m | 4.0m/s | 0°C | 0% | 0hPa | 2.6V | 00:00:00 | 01:28:47 | 00:00:00 | |
| DM0DOS-11 | 2026-08-31 00:18:58 | 51.30056 | 1.29955 | 58° | 55km/h | 15794m | 5.3m/s | -49.8°C | 3.3% | 0hPa | 2.6V | 08:30:00 | 01:28:40 | 00:00:00 | |
| DM0DOS-11 | 2026-08-31 00:18:47 | 51.29980 | 1.29786 | 52° | 57km/h | 15754m | 3.3m/s | -49.8°C | 3.3% | 0hPa | 2.7V | 08:30:00 | 01:28:31 | 00:00:00 | |
| DB0UT-7 | 2026-08-31 00:18:40 | 51.29954 | 1.29737 | 49° | 49km/h | 15741m | 3.5m/s | -50.0°C | 3.4% | 0hPa | 2.6V | 00:00:00 | 01:28:28 | 00:00:00 | |
| DM0DOS-11 | 2026-08-31 00:18:37 | 51.29891 | 1.29624 | 47° | 55km/h | 15710m | 3.9m/s | -50°C | 3.4% | 0hPa | 2.6V | 08:30:00 | 01:28:21 | 00:00:00 | |
| DO9LL-15 | 2026-08-31 00:18:29 | 51.29853 | 1.29567 | 42° | 51km/h | 15693m | 5.1m/s | 0°C | 0% | 0hPa | 2.7V | 00:00:00 | 01:28:17 | 00:00:00 | |
| DM0DOS-11 | 2026-08-31 00:18:27 | 51.29795 | 1.29485 | 46° | 51km/h | 15666m | 3.5m/s | -50.1°C | 3.4% | 0hPa | 2.7V | 08:30:00 | 01:28:11 | 00:00:00 | |
| BIOWL1-15 | 2026-08-31 00:18:25 | 51.29786 | 1.29470 | 44° | 49km/h | 15662m | 5.1m/s | -50.1°C | 0% | 0hPa | 2.7V | 18:12:15 | 01:28:10 | 00:00:00 | |
| BIOWL1-15 | 2026-08-31 00:18:14 | 51.29701 | 1.29337 | 45° | 46km/h | 15619m | 3.6m/s | -50°C | 0% | 0hPa | 2.6V | 18:12:15 | 01:28:00 | 00:00:00 | |
| DM0DOS-11 | 2026-08-31 00:18:13 | 51.29701 | 1.29337 | 45° | 46km/h | 15619m | 3.6m/s | -50°C | 3.4% | 0hPa | 2.6V | 08:30:00 | 01:28:00 | 00:00:00 | |
| DB0UT-7 | 2026-08-31 00:18:10 | 51.29684 | 1.29313 | 40° | 42km/h | 15610m | 3.8m/s | -49.9°C | 3.4% | 0hPa | 2.6V | 00:00:00 | 00:00:00 | 08:30:00 | |
| DM0DOS-11 | 2026-08-31 00:18:03 | 51.29621 | 1.29216 | 50° | 46km/h | 15576m | 3m/s | -49.8°C | 3.4% | 0hPa | 2.7V | 08:30:00 | 01:27:50 | 00:00:00 | |
| BIOWL1-15 | 2026-08-31 00:18:02 | 51.29607 | 1.29190 | 45° | 42km/h | 15568m | 4.1m/s | -49.7°C | 0% | 0hPa | 2.6V | 18:12:15 | 01:27:48 | 00:00:00 | |
| DM0DOS-11 | 2026-08-31 00:17:53 | 51.29552 | 1.29099 | 46° | 42km/h | 15536m | 4.7m/s | -49.4°C | 3.3% | 0hPa | 2.6V | 08:30:00 | 01:27:40 | 00:00:00 | |
| BIOWL1-15 | 2026-08-31 00:17:51 | 51.29545 | 1.29086 | 47° | 44km/h | 15531m | 4.2m/s | -49.4°C | 0% | 0hPa | 2.6V | 18:12:15 | 01:27:39 | 00:00:00 | |
| DM0DOS-11 | 2026-08-31 00:17:43 | 51.29486 | 1.28975 | 51° | 37km/h | 15494m | 4.4m/s | -49.2°C | 3.3% | 0hPa | 2.7V | 00:00:00 | 01:27:30 | 00:00:00 | |
| BIOWL1-15 | 2026-08-31 00:17:41 | 51.29480 | 1.28964 | 51° | 38km/h | 15489m | 5m/s | -49.1°C | 0% | 0hPa | 2.6V | 18:12:15 | 01:27:29 | 00:00:00 | |
| DM0DOS-11 | 2026-08-31 00:17:33 | 51.29405 | 1.28814 | 54° | 40km/h | 15437m | 3.4m/s | -48.9°C | 3.2% | 0hPa | 2.6V | 00:00:00 | 01:27:17 | 00:00:00 | |
| BIOWL1-15 | 2026-08-31 00:17:30 | 51.29411 | 1.28828 | 53° | 40km/h | 15441m | 5.1m/s | -49°C | 0% | 0hPa | 2.6V | 18:12:15 | 01:27:18 | 00:00:00 | |
| BIOWL1-15 | 2026-08-31 00:17:19 | 51.29336 | 1.28638 | 59° | 42km/h | 15384m | 3.6m/s | -49°C | 0% | 0hPa | 2.7V | 18:12:15 | 01:27:05 | 00:00:00 | |
| BIOWL1-15 | 2026-08-31 00:17:12 | 51.29280 | 1.28476 | 76° | 40km/h | 15340m | 4.5m/s | -48.8°C | 0% | 0hPa | 2.6V | 18:12:15 | 01:26:54 | 00:00:00 | |
| BIOWL1-15 | 2026-08-31 00:16:55 | 51.29247 | 1.28297 | 69° | 46km/h | 15293m | 5m/s | 0°C | 0% | 0hPa | 2.7V | 18:12:15 | 01:26:43 | 00:00:00 | |
| BIOWL1-15 | 2026-08-31 00:16:45 | 51.29225 | 1.28124 | 79° | 40km/h | 15245m | 4.5m/s | 0°C | 0% | 0hPa | 2.7V | 18:12:15 | 01:26:32 | 00:00:00 | |
| BIOWL1-15 | 2026-08-31 00:16:34 | 51.29193 | 1.27860 | 74° | 51km/h | 15178m | 4.2m/s | 0°C | 0% | 0hPa | 2.7V | 18:12:15 | 01:26:17 | 00:00:00 | |
| BIOWL1-15 | 2026-08-31 00:16:25 | 51.29168 | 1.27699 | 80° | 55km/h | 15143m | 4.5m/s | 0°C | 0% | 0hPa | 2.7V | 18:12:15 | 01:26:09 | 00:00:00 | |
| BIOWL1-15 | 2026-08-31 00:16:12 | 51.29146 | 1.27501 | 77° | 60km/h | 15105m | 4.4m/s | 0°C | 0% | 0hPa | 2.6V | 18:12:15 | 01:26:00 | 00:00:00 | |
| BIOWL1-15 | 2026-08-31 00:16:01 | 51.29103 | 1.27213 | 75° | 66km/h | 15059m | 3.6m/s | 0°C | 0% | 0hPa | 2.7V | 18:12:15 | 01:25:49 | 00:00:00 | |
| DM0DOS-11 | 2026-08-31 00:15:59 | 51.29075 | 1.27026 | 77° | 69km/h | 15028m | 4.1m/s | -48.1°C | 3.1% | 0hPa | 2.7V | 00:00:00 | 01:25:42 | 00:00:00 | |
| DM0DOS-11 | 2026-08-31 00:15:47 | 51.29010 | 1.26711 | 70° | 71km/h | 14977m | 5.2m/s | -48.1°C | 3% | 0hPa | 2.7V | 00:00:00 | 01:25:30 | 00:00:00 | |
| DM0DOS-11 | 2026-08-31 00:15:34 | 51.28954 | 1.26428 | 73° | 77km/h | 14936m | 4.4m/s | -48.1°C | 3.1% | 0hPa | 2.6V | 00:00:00 | 01:25:20 | 00:00:00 | |
| DM0DOS-11 | 2026-08-31 00:15:27 | 51.28893 | 1.26135 | 70° | 77km/h | 14894m | 4.9m/s | -48.6°C | 0% | 0hPa | 2.7V | 00:00:00 | 01:25:10 | 00:00:00 | |
| DB0UT-7 | 2026-08-31 00:15:15 | 51.28844 | 1.25936 | 69° | 73km/h | 14865m | 4.8m/s | -48.5°C | 3.1% | 0hPa | 2.7V | 00:00:00 | 01:25:03 | 00:00:00 | |
| DB0UT-7 | 2026-08-31 00:14:44 | 51.28639 | 1.25075 | 76° | 82km/h | 14731m | 4.0m/s | -48.9°C | 3.3% | 0hPa | 2.7V | 00:00:00 | 00:00:00 | 00:00:00 | |
| DB0UT-7 | 2026-08-31 00:13:32 | 51.28109 | 1.22958 | 58° | 84km/h | 14412m | 4.6m/s | -47.8°C | 3.1% | 0hPa | 2.7V | 00:00:00 | 01:23:20 | 00:00:00 | |
| DB0UT-7 | 2026-08-31 00:13:02 | 51.27760 | 1.22117 | 56° | 80km/h | 14284m | 5.0m/s | -47.8°C | 3.1% | 0hPa | 2.7V | 00:00:00 | 00:00:00 | 00:00:00 | |
| DB0UT-7 | 2026-08-31 00:11:36 | 51.26506 | 1.19956 | 44° | 71km/h | 13939m | 2.8m/s | -48.8°C | 3.4% | 0hPa | 2.7V | 00:00:00 | 01:21:24 | 00:00:00 | |
| DB0UT-7 | 2026-08-31 00:11:06 | 51.26095 | 1.19411 | 42° | 66km/h | 13811m | 4.6m/s | -48.1°C | 3.2% | 0hPa | 2.7V | 00:00:00 | 00:00:00 | 00:00:00 | |
| DB0UT-7 | 2026-08-31 00:10:36 | 51.25762 | 1.18809 | 52° | 66km/h | 13682m | 3.4m/s | -48.9°C | 3.4% | 0hPa | 2.7V | 00:00:00 | 01:20:24 | 08:30:00 | |
| BIOWL1-15 | 2026-08-31 00:10:15 | 51.25533 | 1.18235 | 64° | 69km/h | 13571m | 3.9m/s | 0°C | 0% | 0hPa | 2.6V | 18:12:15 | 01:19:58 | 00:00:00 | |
| DB0UT-7 | 2026-08-31 00:10:06 | 51.25499 | 1.18133 | 63° | 69km/h | 13554m | 4.5m/s | -48.8°C | 3.5% | 0hPa | 2.6V | 00:00:00 | 00:00:00 | 00:00:00 | |
| DM0DOS-11 | 2026-08-31 00:09:39 | 51.25255 | 1.17328 | 64° | 75km/h | 13410m | 3.5m/s | -48°C | 0% | 0hPa | 2.6V | 00:00:00 | 01:19:22 | 00:00:00 | |
| DB0UT-7 | 2026-08-31 00:09:36 | 51.25270 | 1.17382 | 69° | 75km/h | 13419m | 4.5m/s | -48.0°C | 3.3% | 0hPa | 2.6V | 00:00:00 | 01:19:24 | 00:00:00 | |
| DM0DOS-11 | 2026-08-31 00:09:28 | 51.25156 | 1.17018 | 61° | 78km/h | 13360m | 4.5m/s | -47.7°C | 0% | 0hPa | 2.6V | 00:00:00 | 01:19:11 | 00:00:00 | |
| DM0DOS-11 | 2026-08-31 00:09:17 | 51.25051 | 1.16706 | 62° | 82km/h | 13313m | 4.9m/s | -47.7°C | 0% | 0hPa | 2.7V | 00:00:00 | 01:19:00 | 00:00:00 | |
| DM0DOS-11 | 2026-08-31 00:09:02 | 51.24931 | 1.16397 | 57° | 78km/h | 13265m | 4m/s | -47.7°C | 0% | 0hPa | 2.7V | 00:00:00 | 01:18:49 | 00:00:00 | |
| DM0DOS-11 | 2026-08-31 00:08:52 | 51.24820 | 1.16135 | 56° | 80km/h | 13219m | 3.5m/s | -47.3°C | 0% | 0hPa | 2.7V | 00:00:00 | 01:18:39 | 00:00:00 | |
| DM0DOS-11 | 2026-08-31 00:08:42 | 51.24712 | 1.15880 | 57° | 80km/h | 13177m | 3.1m/s | -47°C | 0% | 0hPa | 2.6V | 00:00:00 | 01:18:29 | 00:00:00 | |
| DM0DOS-11 | 2026-08-31 00:08:32 | 51.24609 | 1.15623 | 60° | 75km/h | 13136m | 3.4m/s | -46.9°C | 0% | 0hPa | 2.7V | 00:00:00 | 01:18:19 | 00:00:00 | |
| DB0UT-7 | 2026-08-31 00:08:24 | 51.24540 | 1.15437 | 60° | 75km/h | 13108m | 4.6m/s | -46.7°C | 3.3% | 0hPa | 2.6V | 00:00:00 | 00:00:00 | 00:00:00 | |
| DM0DOS-11 | 2026-08-31 00:08:22 | 51.24515 | 1.15365 | 61° | 69km/h | 13095m | 3.9m/s | 0°C | 0% | 0hPa | 2.7V | 00:00:00 | 01:18:09 | 00:00:00 | |
| DB0UT-7 | 2026-08-31 00:07:54 | 51.24264 | 1.14652 | 63° | 71km/h | 12981m | 4.1m/s | -46.1°C | 3.1% | 0hPa | 2.7V | 00:00:00 | 01:17:42 | 00:00:00 | |
| DB0UT-7 | 2026-08-31 00:06:41 | 51.23643 | 1.12799 | 61° | 75km/h | 12685m | 3.6m/s | -46.0°C | 3.2% | 0hPa | 2.7V | 00:00:00 | 00:00:00 | 00:00:00 | |
| DB0UT-7 | 2026-08-31 00:06:11 | 51.23400 | 1.11986 | 68° | 86km/h | 12565m | 3.4m/s | -45.7°C | 3.1% | 0hPa | 2.7V | 00:00:00 | 01:15:59 | 00:00:00 | |
| DB0UT-7 | 2026-08-31 00:04:58 | 51.22827 | 1.09615 | 69° | 86km/h | 12273m | 4.2m/s | -45.0°C | 2.9% | 0hPa | 2.7V | 00:00:00 | 00:00:00 | 00:00:00 | |
| DB0UT-7 | 2026-08-31 00:04:28 | 51.22543 | 1.08673 | 64° | 97km/h | 12155m | 4.5m/s | -45.1°C | 3.0% | 0hPa | 2.7V | 00:00:00 | 01:14:16 | 00:00:00 | |
| DB0UT-7 | 2026-08-31 00:03:23 | 51.21888 | 1.06508 | 65° | 102km/h | 11895m | 3.7m/s | -45.0°C | 3.0% | 0hPa | 2.7V | 00:00:00 | 00:00:00 | 08:30:00 | |
| DB0UT-7 | 2026-08-31 00:01:51 | 51.20587 | 1.02749 | 61° | 97km/h | 11462m | 4.3m/s | -44.9°C | 3.2% | 0hPa | 2.7V | 00:00:00 | 00:00:00 | 00:00:00 | |
| DB0UT-7 | 2026-08-31 00:01:10 | 51.20227 | 1.01740 | 61° | 99km/h | 11344m | 3.6m/s | -44.5°C | 3.2% | 0hPa | 2.7V | 00:00:00 | 01:10:51 | 00:00:00 | |
| DB0UT-7 | 2026-08-30 23:59:50 | 51.19385 | 0.99189 | 61° | 100km/h | 11040m | 4.4m/s | 0°C | 0% | 0hPa | 0V | 00:00:00 | 00:00:00 | 00:00:00 | |
| DB0UT-7 | 2026-08-30 23:59:20 | 51.19030 | 0.98114 | 60° | 100km/h | 10918m | 3.3m/s | 0°C | 0% | 0hPa | 0V | 00:00:00 | 01:09:08 | 00:00:00 | |
| DB0UT-7 | 2026-08-30 23:58:08 | 51.18051 | 0.95559 | 57° | 97km/h | 10623m | 3.3m/s | 0°C | 0% | 0hPa | 0V | 00:00:00 | 00:00:00 | 00:00:00 | |
| DB0UT-7 | 2026-08-30 23:57:38 | 51.17638 | 0.94593 | 54° | 89km/h | 10498m | 4.3m/s | 0°C | 0% | 0hPa | 0V | 00:00:00 | 01:07:26 | 00:00:00 | |
| DB0UT-7 | 2026-08-30 23:56:26 | 51.16695 | 0.92402 | 62° | 89km/h | 10182m | 3.9m/s | 0°C | 0% | 0hPa | 0V | 00:00:00 | 00:00:00 | 00:00:00 |